Provisional Data: Tuscarora Creek near Woodhull, NY


Please select a monitoring station.
Please select start date.
Please select start date.

Toggle Unit: C/F Toggle Unit: C/F
Sample Time Temperature (C) Temperature (F) Specific Conductivity (mS/cm) pH   Turbidity (NTU+) DO (mg/L)
8/1/2022 12:00:00 AM 22.45 72.41 0.576 7.51 4.56 4.77
8/1/2022 12:15:00 AM 22.42 72.356 0.576 7.54 4.51 4.82
8/1/2022 12:30:00 AM 22.41 72.338 0.576 7.54 4.12 4.82
8/1/2022 12:45:00 AM 22.37 72.266 0.576 7.51 4.81 4.63
8/1/2022 1:00:00 AM 22.35 72.23 0.576 7.51 4.72 4.6
8/1/2022 1:15:00 AM 22.32 72.176 0.576 7.53 5.64 4.63
8/1/2022 1:30:00 AM 22.28 72.104 0.576 7.49 5.1 4.45
8/1/2022 1:45:00 AM 22.27 72.086 0.576 7.51 6.58 4.38
8/1/2022 2:00:00 AM 22.23 72.014 0.576 7.52 6.33 4.41
8/1/2022 2:15:00 AM 22.21 71.978 0.576 7.5 4.15 4.32
8/1/2022 2:30:00 AM 22.17 71.906 0.577 7.47 5.99 4.21
8/1/2022 2:45:00 AM 22.13 71.834 0.577 7.49 4.22 4.19
8/1/2022 3:00:00 AM 22.08 71.744 0.578 7.47 6.35 4.13
8/1/2022 3:15:00 AM 22.05 71.69 0.578 7.47 4.8 4.05
8/1/2022 3:30:00 AM 22.01 71.618 0.578 7.46 6 4.04
8/1/2022 3:45:00 AM 22 71.6 0.578 7.48 6.34 3.98
8/1/2022 4:00:00 AM 21.92 71.456 0.579 7.46 6.85 3.87
8/1/2022 4:15:00 AM 21.88 71.384 0.58 7.45 7.09 3.85
8/1/2022 4:30:00 AM 21.85 71.33 0.579 7.47 9.25 3.87
8/1/2022 4:45:00 AM 21.82 71.276 0.58 7.45 8.4 3.82
8/1/2022 5:00:00 AM 21.78 71.204 0.58 7.44 7.72 3.82
8/1/2022 5:15:00 AM 21.72 71.096 0.581 7.44 6.13 3.73
8/1/2022 5:30:00 AM 21.67 71.006 0.582 7.41 6.31 3.66
8/1/2022 5:45:00 AM 21.64 70.952 0.582 7.45 6.84 3.62
8/1/2022 6:00:00 AM 21.6 70.88 0.582 7.43 6.1 3.48
8/1/2022 6:15:00 AM 21.58 70.844 0.583 7.42 5.37 3.35
8/1/2022 6:30:00 AM 21.51 70.718 0.584 7.41 5.7 3.35
8/1/2022 6:45:00 AM 21.46 70.628 0.584 7.39 6.25 3.46
8/1/2022 7:00:00 AM 21.45 70.61 0.584 7.42 5.46 3.55
8/1/2022 7:15:00 AM 21.4 70.52 0.584 7.41 6.06 3.83
8/1/2022 7:30:00 AM 21.38 70.484 0.584 7.41 7.86 3.85
8/1/2022 7:45:00 AM 21.42 70.556 0.584 7.43 5.57 3.98
8/1/2022 8:00:00 AM 21.44 70.592 0.584 7.44 5.64 4.28
8/1/2022 8:15:00 AM 21.45 70.61 0.585 7.42 5.61 4.29
8/1/2022 8:30:00 AM 21.46 70.628 0.585 7.42 7.48 4.28
8/1/2022 8:45:00 AM 21.48 70.664 0.585 7.44 6.62 4.42
8/1/2022 9:00:00 AM 21.52 70.736 0.585 7.44 6.65 4.65
8/1/2022 9:15:00 AM 21.58 70.844 0.584 7.51 5.07 4.74
8/1/2022 9:30:00 AM 21.62 70.916 0.584 7.53 3.59 4.79
8/1/2022 9:45:00 AM 21.74 71.132 0.585 7.51 3.7 5.43
8/1/2022 10:00:00 AM 21.96 71.528 0.584 7.53 3.17 5.44
8/1/2022 10:15:00 AM 22.21 71.978 0.584 7.54 3.14 5.49
8/1/2022 10:30:00 AM 22.46 72.42799 0.584 7.57 3.01 5.62
8/1/2022 10:45:00 AM 22.64 72.752 0.584 7.59 3.13 5.62
8/1/2022 11:00:00 AM 22.76 72.968 0.584 7.62 2.82 5.62
8/1/2022 11:15:00 AM 22.88 73.184 0.585 7.61 3.07 5.77
8/1/2022 11:30:00 AM 22.89 73.202 0.585 7.63 3.17 5.74
8/1/2022 11:45:00 AM 22.98 73.364 0.585 7.64 2.63 5.91
8/1/2022 12:00:00 PM 23.12 73.616 0.586 7.62 8.01 6.02
8/1/2022 12:15:00 PM 23.14 73.652 0.586 7.67 3.04 6.04
8/1/2022 12:30:00 PM 23.18 73.724 0.586 7.68 2.87 6.1
8/1/2022 12:45:00 PM 23.34 74.012 0.586 7.66 3.1 6.23
8/1/2022 1:00:00 PM 23.41 74.138 0.586 7.66 2.72 6.24
8/1/2022 1:15:00 PM 23.41 74.138 0.587 7.67 5.32 6.12
8/1/2022 1:30:00 PM 23.52 74.336 0.587 7.66 7.43 6.14
8/1/2022 1:45:00 PM 23.44 74.192 0.587 7.69 2.85 6.31
8/1/2022 2:00:00 PM 23.55 74.39 0.587 7.67 2.7 6.3
8/1/2022 2:15:00 PM 23.56 74.408 0.587 7.68 2.91 6.28
8/1/2022 2:30:00 PM 23.6 74.48 0.587 7.66 2.7 6.31
8/1/2022 2:45:00 PM 23.4 74.12 0.587 7.7 3.03 6.37
8/1/2022 3:00:00 PM 23.43 74.174 0.588 7.69 2.66 6.32
8/1/2022 3:15:00 PM 23.41 74.138 0.588 7.68 3.18 6.14
8/1/2022 3:30:00 PM 23.45 74.21 0.588 7.67 3.05 6.08
8/1/2022 3:45:00 PM 23.49 74.282 0.588 7.68 2.93 6.3
8/1/2022 4:00:00 PM 23.58 74.444 0.588 7.65 2.52 6.25
8/1/2022 4:15:00 PM 23.51 74.318 0.587 7.69 3.17 6.4
8/1/2022 4:30:00 PM 23.42 74.156 0.588 7.68 3.04 6.23
8/1/2022 4:45:00 PM 23.38 74.084 0.588 7.69 4.52 6.32
8/1/2022 5:00:00 PM 23.33 73.994 0.588 7.7 3.2 6.41
8/1/2022 5:15:00 PM 23.3 73.94 0.588 7.67 3.29 6.27
8/1/2022 5:30:00 PM 23.28 73.904 0.589 7.58 2.83 5.95
8/1/2022 5:45:00 PM 23.22 73.796 0.589 7.5 2.97 5.74
8/1/2022 6:00:00 PM 23.15 73.67 0.59 7.5 4.22 5.6
8/1/2022 6:15:00 PM 23.09 73.562 0.59 7.47 3.18 5.54
8/1/2022 6:30:00 PM 23.05 73.49 0.59 7.47 3.65 5.45
8/1/2022 6:45:00 PM 22.99 73.382 0.591 7.43 3.4 5.33
8/1/2022 7:00:00 PM 22.94 73.292 0.591 7.45 3.5 5.15
8/1/2022 7:15:00 PM 22.86 73.148 0.591 7.42 3.43 4.96
8/1/2022 7:30:00 PM 22.81 73.058 0.591 7.43 3.49 4.8
8/1/2022 7:45:00 PM 22.79 73.022 0.591 7.41 3.93 4.6
8/1/2022 8:00:00 PM 22.74 72.932 0.591 7.42 3.45 4.44
8/1/2022 8:15:00 PM 22.69 72.842 0.591 7.4 3.25 4.27
8/1/2022 8:30:00 PM 22.66 72.788 0.591 7.39 5.79 3.98
8/1/2022 8:45:00 PM 22.69 72.842 0.591 7.39 3.83 3.94
8/1/2022 9:00:00 PM 22.74 72.932 0.591 7.41 3.77 3.93
8/1/2022 9:15:00 PM 22.74 72.932 0.59 7.41 3.99 3.92
8/1/2022 9:30:00 PM 22.72 72.896 0.591 7.39 4.36 3.71
8/1/2022 9:45:00 PM 22.72 72.896 0.591 7.4 4.65 3.7
8/1/2022 10:00:00 PM 22.72 72.896 0.59 7.41 3.54 3.64
8/1/2022 10:15:00 PM 22.71 72.878 0.59 7.4 3.89 3.57
8/1/2022 10:30:00 PM 22.71 72.878 0.59 7.39 4.42 3.47
8/1/2022 10:45:00 PM 22.71 72.878 0.59 7.4 4.39 3.44
8/1/2022 11:00:00 PM 22.72 72.896 0.59 7.38 3.84 3.33
8/1/2022 11:15:00 PM 22.72 72.896 0.588 7.4 4.18 3.31
8/1/2022 11:30:00 PM 22.74 72.932 0.589 7.4 5.57 3.36
8/1/2022 11:45:00 PM 22.74 72.932 0.589 7.4 4.52 3.33
8/2/2022 12:00:00 AM 22.76 72.968 0.589 7.38 4.56 3.28
8/2/2022 12:15:00 AM 22.78 73.004 0.589 7.39 4.1 3.25
8/2/2022 12:30:00 AM 22.79 73.022 0.588 7.38 4.13 3.18
8/2/2022 12:45:00 AM 22.81 73.058 0.588 7.39 4.32 3.13
8/2/2022 1:00:00 AM 22.81 73.058 0.588 7.39 4.07 3.14
8/2/2022 1:15:00 AM 22.82 73.076 0.588 7.4 3.86 3.09
8/2/2022 1:30:00 AM 22.79 73.022 0.589 7.37 3.63 2.92
8/2/2022 1:45:00 AM 22.79 73.022 0.589 7.36 3.75 2.81
8/2/2022 2:00:00 AM 22.81 73.058 0.589 7.37 3.93 2.86
8/2/2022 2:15:00 AM 22.85 73.13 0.588 7.38 2.99 2.78
8/2/2022 2:30:00 AM 22.8 73.04 0.589 7.34 3.81 2.72
8/2/2022 2:45:00 AM 22.8 73.04 0.59 7.36 5.09 2.6
8/2/2022 3:00:00 AM 22.85 73.13 0.589 7.38 3.59 2.72
8/2/2022 3:15:00 AM 22.81 73.058 0.59 7.35 3.71 2.56
8/2/2022 3:30:00 AM 22.83 73.094 0.59 7.34 3.1 2.52
8/2/2022 3:45:00 AM 22.86 73.148 0.589 7.36 3.36 2.51
8/2/2022 4:00:00 AM 22.83 73.094 0.59 7.32 3.51 2.37
8/2/2022 4:15:00 AM 22.88 73.184 0.59 7.34 3.47 2.38
8/2/2022 4:30:00 AM 22.88 73.184 0.59 7.35 2.87 2.38
8/2/2022 4:45:00 AM 22.88 73.184 0.59 7.33 3.13 2.32
8/2/2022 5:00:00 AM 22.84 73.112 0.591 7.31 3.24 2.2
8/2/2022 5:15:00 AM 22.87 73.166 0.592 7.3 3.23 2.17
8/2/2022 5:30:00 AM 22.87 73.166 0.592 7.3 3.58 2.19
8/2/2022 5:45:00 AM 22.89 73.202 0.592 7.3 3.61 2.15
8/2/2022 6:00:00 AM 22.88 73.184 0.592 7.3 3.51 2.09
8/2/2022 6:15:00 AM 22.9 73.22 0.593 7.3 3.43 2.09
8/2/2022 6:30:00 AM 22.85 73.13 0.593 7.29 3.9 2.04
8/2/2022 6:45:00 AM 22.87 73.166 0.593 7.29 3.52 2.14
8/2/2022 7:00:00 AM 22.88 73.184 0.593 7.3 3.68 2.25
8/2/2022 7:15:00 AM 22.89 73.202 0.593 7.31 3.94 2.21
8/2/2022 7:30:00 AM 22.88 73.184 0.594 7.3 3.71 2.39
8/2/2022 7:45:00 AM 22.92 73.256 0.594 7.3 3.98 2.45
8/2/2022 8:00:00 AM 22.95 73.31 0.594 7.29 4.33 2.75
8/2/2022 8:15:00 AM 23 73.4 0.594 7.31 3.84 2.92
8/2/2022 8:30:00 AM 23.03 73.454 0.594 7.3 5.52 3.13
8/2/2022 8:45:00 AM 23.06 73.508 0.593 7.29 4.63 3.23
8/2/2022 9:00:00 AM 23.1 73.58 0.593 7.3 4.5 3.42
8/2/2022 9:15:00 AM 23.14 73.652 0.592 7.31 4.73 3.6
8/2/2022 9:30:00 AM 23.2 73.76 0.592 7.32 16.57 3.75
8/2/2022 9:45:00 AM 23.32 73.976 0.591 7.31 4.4 4.02
8/2/2022 10:00:00 AM 23.42 74.156 0.586 7.36 4.81 4.15
8/2/2022 10:15:00 AM 23.54 74.372 0.586 7.38 4.98 4.15
8/2/2022 10:30:00 AM 23.62 74.516 0.582 7.43 23.72 3.88
8/2/2022 10:45:00 AM 23.7 74.66 0.574 7.46 5.79 3.87
8/2/2022 11:00:00 AM 23.78 74.804 0.569 7.49 5.98 3.99
8/2/2022 11:15:00 AM 23.79 74.82201 0.563 7.52 6.6 4.1
8/2/2022 11:30:00 AM 23.89 75.002 0.569 7.51 9.63 4.12
8/2/2022 11:45:00 AM 23.96 75.128 0.568 7.55 9.44 4.38
8/2/2022 12:00:00 PM 24.03 75.254 0.57 7.58 5.75 4.67
8/2/2022 12:15:00 PM 24.13 75.434 0.569 7.58 8.79 4.7
8/2/2022 12:30:00 PM 24.23 75.614 0.573 7.59 6.5 4.83
8/2/2022 12:45:00 PM 24.4 75.92 0.574 7.59 6.54 4.91
8/2/2022 1:00:00 PM 24.48 76.064 0.579 7.61 5.52 5.01
8/2/2022 1:15:00 PM 24.53 76.154 0.584 7.63 4.56 5.07
8/2/2022 1:30:00 PM 24.51 76.118 0.589 7.64 3.88 5.01
8/2/2022 1:45:00 PM 24.54 76.172 0.589 7.64 3.84 5.05
8/2/2022 2:00:00 PM 24.6 76.28 0.591 7.63 3.18 5.07
8/2/2022 2:15:00 PM 24.56 76.208 0.591 7.64 3.28 5.14
8/2/2022 2:30:00 PM 24.59 76.262 0.591 7.64 5.89 5.12
8/2/2022 2:45:00 PM 24.58 76.244 0.592 7.65 12.82 5.16
8/2/2022 3:00:00 PM 24.58 76.244 0.592 7.63 9.7 5.15
8/2/2022 3:15:00 PM 24.62 76.316 0.593 7.65 3.95 5.23
8/2/2022 3:30:00 PM 24.61 76.298 0.595 7.64 3.32 5.19
8/2/2022 3:45:00 PM 24.52 76.136 0.595 7.63 3.01 5.14
8/2/2022 4:00:00 PM 24.47 76.046 0.596 7.63 2.73 5.13
8/2/2022 4:15:00 PM 24.49 76.082 0.596 7.62 3.14 5.13
8/2/2022 4:30:00 PM 24.46 76.028 0.596 7.62 3.12 5.1
8/2/2022 4:45:00 PM 24.41 75.938 0.597 7.6 3.49 5.15
8/2/2022 5:00:00 PM 24.3 75.74 0.598 7.45 3.68 5.66
8/2/2022 5:15:00 PM 24.18 75.524 0.599 7.41 4.12 5.71
8/2/2022 5:30:00 PM 24.06 75.308 0.599 7.38 3.93 5.57
8/2/2022 5:45:00 PM 23.93 75.074 0.599 7.39 4.52 5.45
8/2/2022 6:00:00 PM 23.8 74.84 0.599 7.37 3.71 5.29
8/2/2022 6:15:00 PM 23.65 74.57 0.599 7.37 3.98 5.08
8/2/2022 6:30:00 PM 23.51 74.318 0.599 7.39 4.03 4.91
8/2/2022 6:45:00 PM 23.4 74.12 0.599 7.36 4.53 4.67
8/2/2022 7:00:00 PM 23.34 74.012 0.6 7.36 4.15 4.49
8/2/2022 7:15:00 PM 23.25 73.85 0.6 7.34 5.46 4.29
8/2/2022 7:30:00 PM 23.14 73.652 0.6 7.35 4.36 4.27
8/2/2022 7:45:00 PM 23.06 73.508 0.599 7.37 3.99 4.15
8/2/2022 8:00:00 PM 23.04 73.472 0.6 7.36 4.54 4.1
8/2/2022 8:15:00 PM 23.03 73.454 0.599 7.38 4.18 3.89
8/2/2022 8:30:00 PM 22.98 73.364 0.599 7.37 4.53 3.84
8/2/2022 8:45:00 PM 22.93 73.274 0.599 7.36 4.56 3.77
8/2/2022 9:00:00 PM 22.92 73.256 0.598 7.41 3.94 3.88
8/2/2022 9:15:00 PM 22.91 73.238 0.598 7.4 4.42 3.82
8/2/2022 9:30:00 PM 22.87 73.166 0.598 7.41 5.06 3.74
8/2/2022 9:45:00 PM 22.88 73.184 0.598 7.43 4.14 3.78
8/2/2022 10:00:00 PM 22.87 73.166 0.599 7.38 5.88 3.59
8/2/2022 10:15:00 PM 22.87 73.166 0.597 7.42 4.24 3.6
8/2/2022 10:30:00 PM 22.85 73.13 0.597 7.41 3.67 3.51
8/2/2022 10:45:00 PM 22.87 73.166 0.597 7.41 4.17 3.52
8/2/2022 11:00:00 PM 22.85 73.13 0.597 7.4 4 3.47
8/2/2022 11:15:00 PM 22.83 73.094 0.597 7.41 5.67 3.37
8/2/2022 11:30:00 PM 22.83 73.094 0.596 7.4 3.35 3.35
8/2/2022 11:45:00 PM 22.8 73.04 0.596 7.41 3.66 3.39
8/3/2022 12:00:00 AM 22.8 73.04 0.596 7.42 3.12 3.34
8/3/2022 12:15:00 AM 22.8 73.04 0.596 7.4 3.35 3.19
8/3/2022 12:30:00 AM 22.8 73.04 0.596 7.38 4.87 3.13
8/3/2022 12:45:00 AM 22.78 73.004 0.596 7.38 4.09 3.05
8/3/2022 1:00:00 AM 22.81 73.058 0.596 7.39 4.21 3.09
8/3/2022 1:15:00 AM 22.81 73.058 0.595 7.4 4.08 3.07
8/3/2022 1:30:00 AM 22.81 73.058 0.595 7.42 3.48 3.13
8/3/2022 1:45:00 AM 22.8 73.04 0.595 7.41 4.07 2.98
8/3/2022 2:00:00 AM 22.83 73.094 0.595 7.41 3.28 3.07
8/3/2022 2:15:00 AM 22.79 73.022 0.595 7.39 2.88 2.94
8/3/2022 2:30:00 AM 22.78 73.004 0.595 7.39 4.23 2.85
8/3/2022 2:45:00 AM 22.78 73.004 0.595 7.41 3.76 2.85
8/3/2022 3:00:00 AM 22.75 72.95 0.595 7.38 3.18 2.73
8/3/2022 3:15:00 AM 22.73 72.914 0.596 7.38 4.06 2.72
8/3/2022 3:30:00 AM 22.74 72.932 0.596 7.37 3.68 2.64
8/3/2022 3:45:00 AM 22.74 72.932 0.596 7.39 3.15 2.66
8/3/2022 4:00:00 AM 22.69 72.842 0.596 7.35 4.59 2.53
8/3/2022 4:15:00 AM 22.7 72.86 0.596 7.36 3.56 2.52
8/3/2022 4:30:00 AM 22.69 72.842 0.596 7.39 3.55 2.61
8/3/2022 4:45:00 AM 22.68 72.824 0.596 7.39 2.99 2.59
8/3/2022 5:00:00 AM 22.66 72.788 0.597 7.39 3.42 2.51
8/3/2022 5:15:00 AM 22.69 72.842 0.597 7.39 3.52 2.52
8/3/2022 5:30:00 AM 22.7 72.86 0.597 7.4 4.94 2.53
8/3/2022 5:45:00 AM 22.65 72.77 0.597 7.38 3.7 2.48
8/3/2022 6:00:00 AM 22.6 72.68 0.597 7.36 3.42 2.41
8/3/2022 6:15:00 AM 22.53 72.554 0.598 7.36 4.06 2.24
8/3/2022 6:30:00 AM 22.5 72.5 0.598 7.36 4.16 2.33
8/3/2022 6:45:00 AM 22.51 72.518 0.598 7.39 87.68 2.48
8/3/2022 7:00:00 AM 22.49 72.482 0.598 7.38 3.85 2.67
8/3/2022 7:15:00 AM 22.49 72.482 0.599 7.38 3.84 2.79
8/3/2022 7:30:00 AM 22.5 72.5 0.599 7.39 4.07 2.78
8/3/2022 7:45:00 AM 22.56 72.608 0.599 7.39 4.45 2.94
8/3/2022 8:00:00 AM 22.65 72.77 0.598 7.39 3.68 2.98
8/3/2022 8:15:00 AM 22.7 72.86 0.599 7.38 7.97 2.81
8/3/2022 8:30:00 AM 22.68 72.824 0.599 7.36 5.16 3.07
8/3/2022 8:45:00 AM 22.74 72.932 0.6 7.37 4.05 3.21
8/3/2022 9:00:00 AM 22.76 72.968 0.6 7.35 4.33 3.26
8/3/2022 9:15:00 AM 22.82 73.076 0.599 7.38 3.81 3.31
8/3/2022 9:30:00 AM 22.93 73.274 0.6 7.41 4.29 3.55
8/3/2022 9:45:00 AM 23.16 73.688 0.599 7.42 4.19 3.72
8/3/2022 10:00:00 AM 23.31 73.958 0.6 7.37 4.54 4.09
8/3/2022 10:15:00 AM 23.5 74.3 0.599 7.4 3.79 4.09
8/3/2022 10:30:00 AM 23.76 74.768 0.599 7.46 3.51 4.32
8/3/2022 10:45:00 AM 24 75.2 0.597 7.45 3.92 4.47
8/3/2022 11:00:00 AM 24.29 75.722 0.595 7.47 4.06 4.71
8/3/2022 11:15:00 AM 24.37 75.866 0.586 7.51 12.2 4.71
8/3/2022 11:30:00 AM 24.43 75.974 0.579 7.53 5.82 4.85
8/3/2022 11:45:00 AM 24.62 76.316 0.579 7.56 5.72 5.21
8/3/2022 12:00:00 PM 24.79 76.622 0.578 7.58 6.03 5.38
8/3/2022 12:15:00 PM 24.78 76.604 0.573 7.59 5.88 5.6
8/3/2022 12:30:00 PM 24.89 76.802 0.573 7.59 6.11 5.84
8/3/2022 12:45:00 PM 24.94 76.892 0.58 7.6 5.33 5.74
8/3/2022 1:00:00 PM 24.98 76.964 0.588 7.61 4.39 5.64
8/3/2022 1:15:00 PM 24.96 76.92799 0.594 7.61 3.77 5.49
8/3/2022 1:30:00 PM 25.03 77.054 0.596 7.6 3.63 5.37
8/3/2022 1:45:00 PM 25.14 77.252 0.596 7.58 4.12 5.17
8/3/2022 2:00:00 PM 25.28 77.504 0.597 7.58 3.73 5.35
8/3/2022 2:15:00 PM 25.03 77.054 0.596 7.61 3.91 5.5
8/3/2022 2:30:00 PM 24.99 76.982 0.597 7.59 3.36 5.55
8/3/2022 2:45:00 PM 25.17 77.306 0.597 7.57 4.06 5.35
8/3/2022 3:00:00 PM 24.89 76.802 0.598 7.6 6.36 5.54
8/3/2022 3:15:00 PM 24.86 76.748 0.598 7.6 3.23 5.46
8/3/2022 3:30:00 PM 24.77 76.586 0.599 7.6 3.36 5.42
8/3/2022 3:45:00 PM 24.72 76.496 0.6 7.61 3 5.44
8/3/2022 4:00:00 PM 24.82 76.676 0.6 7.58 2.76 5.43
8/3/2022 4:15:00 PM 24.78 76.604 0.601 7.56 2.69 5.42
8/3/2022 4:30:00 PM 24.63 76.334 0.601 7.53 2.84 5.39
8/3/2022 4:45:00 PM 24.51 76.118 0.601 7.57 2.82 5.45
8/3/2022 5:00:00 PM 24.38 75.884 0.603 7.45 3.35 5.66
8/3/2022 5:15:00 PM 24.29 75.722 0.603 7.4 3.07 5.52
8/3/2022 5:30:00 PM 24.19 75.542 0.603 7.42 7.23 5.42
8/3/2022 5:45:00 PM 24.04 75.272 0.604 7.39 3.06 5.37
8/3/2022 6:00:00 PM 23.92 75.056 0.603 7.38 3.15 5.11
8/3/2022 6:15:00 PM 23.82 74.876 0.604 7.35 3.11 4.96
8/3/2022 6:30:00 PM 23.67 74.606 0.605 7.32 3.28 4.88
8/3/2022 6:45:00 PM 23.51 74.318 0.605 7.32 3.12 4.67
8/3/2022 7:00:00 PM 23.43 74.174 0.604 7.35 3.05 4.61
8/3/2022 7:15:00 PM 23.33 73.994 0.605 7.34 3.73 4.39
8/3/2022 7:30:00 PM 23.24 73.832 0.605 7.29 3.9 4.3
8/3/2022 7:45:00 PM 23.19 73.742 0.606 7.29 3.91 4.23
8/3/2022 8:00:00 PM 23.09 73.562 0.606 7.29 3.84 4
8/3/2022 8:15:00 PM 23.1 73.58 0.606 7.3 4.5 3.88
8/3/2022 8:30:00 PM 23.02 73.436 0.606 7.27 3.9 3.79
8/3/2022 8:45:00 PM 22.93 73.274 0.607 7.28 4.11 3.63
8/3/2022 9:00:00 PM 22.88 73.184 0.606 7.3 4.49 3.75
8/3/2022 9:15:00 PM 22.82 73.076 0.606 7.31 4.69 3.69
8/3/2022 9:30:00 PM 22.78 73.004 0.606 7.28 5.36 3.59
8/3/2022 9:45:00 PM 22.7 72.86 0.606 7.29 5.51 3.43
8/3/2022 10:00:00 PM 22.62 72.716 0.606 7.31 5.2 3.3
8/3/2022 10:15:00 PM 22.59 72.662 0.605 7.31 4.76 3.21
8/3/2022 10:30:00 PM 22.56 72.608 0.605 7.31 4.51 3.15
8/3/2022 10:45:00 PM 22.55 72.59 0.604 7.33 3.37 3.15
8/3/2022 11:00:00 PM 22.56 72.608 0.603 7.33 3.3 3.12
8/3/2022 11:15:00 PM 22.56 72.608 0.603 7.34 4.48 3.13
8/3/2022 11:30:00 PM 22.57 72.626 0.603 7.33 2.74 3.05
8/3/2022 11:45:00 PM 22.59 72.662 0.602 7.34 3 3.06
8/4/2022 12:00:00 AM 22.58 72.644 0.602 7.35 2.79 2.9
8/4/2022 12:15:00 AM 22.61 72.698 0.602 7.35 2.7 2.84
8/4/2022 12:30:00 AM 22.6 72.68 0.602 7.33 2.93 2.82
8/4/2022 12:45:00 AM 22.62 72.716 0.602 7.34 2.49 2.78
8/4/2022 1:00:00 AM 22.64 72.752 0.602 7.34 2.76 2.71
8/4/2022 1:15:00 AM 22.68 72.824 0.601 7.34 2.64 2.68
8/4/2022 1:30:00 AM 22.67 72.806 0.601 7.33 3.07 2.64
8/4/2022 1:45:00 AM 22.69 72.842 0.602 7.33 3.15 2.6
8/4/2022 2:00:00 AM 22.69 72.842 0.601 7.32 3.09 2.56
8/4/2022 2:15:00 AM 22.71 72.878 0.601 7.33 3.83 2.5
8/4/2022 2:30:00 AM 22.71 72.878 0.602 7.31 4.63 2.47
8/4/2022 2:45:00 AM 22.75 72.95 0.601 7.32 3.21 2.44
8/4/2022 3:00:00 AM 22.77 72.986 0.602 7.32 2.86 2.38
8/4/2022 3:15:00 AM 22.78 73.004 0.601 7.33 2.93 2.33
8/4/2022 3:30:00 AM 22.8 73.04 0.602 7.32 2.8 2.27
8/4/2022 3:45:00 AM 22.84 73.112 0.602 7.32 2.84 2.23
8/4/2022 4:00:00 AM 22.8 73.04 0.602 7.33 3.19 2.23
8/4/2022 4:15:00 AM 22.83 73.094 0.602 7.33 3.96 2.2
8/4/2022 4:30:00 AM 22.85 73.13 0.602 7.31 2.45 2.2
8/4/2022 4:45:00 AM 22.83 73.094 0.602 7.32 2.89 2.13
8/4/2022 5:00:00 AM 22.86 73.148 0.602 7.3 2.52 2.09
8/4/2022 5:15:00 AM 22.86 73.148 0.602 7.31 2.95 2.08
8/4/2022 5:30:00 AM 22.87 73.166 0.602 7.32 3.64 2.05
8/4/2022 5:45:00 AM 22.86 73.148 0.602 7.32 2.71 1.99
8/4/2022 6:00:00 AM 22.87 73.166 0.602 7.31 2.91 1.98
8/4/2022 6:15:00 AM 22.87 73.166 0.603 7.32 2.87 1.91
8/4/2022 6:30:00 AM 22.85 73.13 0.603 7.29 3.62 1.94
8/4/2022 6:45:00 AM 22.83 73.094 0.603 7.28 5.93 1.81
8/4/2022 7:00:00 AM 22.79 73.022 0.604 7.28 4.49 1.73
8/4/2022 7:15:00 AM 22.83 73.094 0.604 7.28 3.18 1.85
8/4/2022 7:30:00 AM 22.85 73.13 0.605 7.26 2.46 2.05
8/4/2022 7:45:00 AM 22.9 73.22 0.605 7.26 3.48 2.25
8/4/2022 8:00:00 AM 22.99 73.382 0.605 7.26 3.44 2.47
8/4/2022 8:15:00 AM 23.11 73.598 0.605 7.28 3.21 2.66
8/4/2022 8:30:00 AM 23.2 73.76 0.605 7.27 3.91 2.99
8/4/2022 8:45:00 AM 23.29 73.922 0.606 7.25 3.87 3.21
8/4/2022 9:00:00 AM 23.24 73.832 0.606 7.26 4.73 2.96
8/4/2022 9:15:00 AM 23.28 73.904 0.606 7.28 4.96 3.04
8/4/2022 9:30:00 AM 23.38 74.084 0.606 7.27 4.04 3.18
8/4/2022 9:45:00 AM 23.51 74.318 0.605 7.27 3.86 3.51
8/4/2022 10:00:00 AM 23.67 74.606 0.603 7.31 4.55 3.71
8/4/2022 10:15:00 AM 23.81 74.858 0.594 7.36 5.2 3.32
8/4/2022 10:30:00 AM 23.98 75.164 0.592 7.37 5.14 3.66
8/4/2022 10:45:00 AM 24.27 75.686 0.599 7.32 3.71 4.2
8/4/2022 11:00:00 AM 24.34 75.812 0.6 7.33 4.12 4.11
8/4/2022 11:15:00 AM 24.49 76.082 0.599 7.34 4.47 4.13
8/4/2022 11:30:00 AM 24.84 76.712 0.598 7.37 3.75 4.08
8/4/2022 11:45:00 AM 24.89 76.802 0.588 7.44 4.83 3.88
8/4/2022 12:00:00 PM 24.92 76.856 0.583 7.48 5.72 4.02
8/4/2022 12:15:00 PM 25.09 77.162 0.585 7.48 5.97 3.94
8/4/2022 12:30:00 PM 25.08 77.144 0.581 7.49 5.25 4.29
8/4/2022 12:45:00 PM 25.17 77.306 0.583 7.5 6.08 4.31
8/4/2022 1:00:00 PM 25.09 77.162 0.581 7.52 5 4.44
8/4/2022 1:15:00 PM 25.22 77.396 0.584 7.53 10.04 4.39
8/4/2022 1:30:00 PM 25.32 77.576 0.586 7.53 5.4 4.59
8/4/2022 1:45:00 PM 25.38 77.684 0.587 7.52 4.8 4.65
8/4/2022 2:00:00 PM 25.32 77.576 0.585 7.55 4.84 4.67
8/4/2022 2:15:00 PM 25.23 77.414 0.59 7.53 4.12 4.56
8/4/2022 2:30:00 PM 25.13 77.234 0.598 7.48 3.42 4.1
8/4/2022 2:45:00 PM 24.97 76.946 0.601 7.41 3.54 4.19
8/4/2022 3:00:00 PM 24.86 76.748 0.603 7.35 4 4.19
8/4/2022 3:15:00 PM 24.73 76.514 0.604 7.32 5.4 4.24
8/4/2022 3:30:00 PM 24.66 76.388 0.602 7.34 7.32 4.22
8/4/2022 3:45:00 PM 24.56 76.208 0.603 7.33 3.73 4.25
8/4/2022 4:00:00 PM 24.48 76.064 0.603 7.35 4.18 4.33
8/4/2022 4:15:00 PM 24.37 75.866 0.604 7.33 4.34 4.53
8/4/2022 4:30:00 PM 24.37 75.866 0.604 7.34 3.87 4.61
8/4/2022 4:45:00 PM 24.4 75.92 0.604 7.32 4.43 4.9
8/4/2022 5:00:00 PM 24.42 75.956 0.604 7.35 4.3 5.03
8/4/2022 5:15:00 PM 24.45 76.01 0.604 7.33 4.77 4.96
8/4/2022 5:30:00 PM 24.47 76.046 0.605 7.35 4.4 5.22
8/4/2022 5:45:00 PM 24.45 76.01 0.605 7.34 5.67 5.48
8/4/2022 6:00:00 PM 24.41 75.938 0.605 7.34 4.58 5.5
8/4/2022 6:15:00 PM 24.35 75.83 0.605 7.34 4.22 5.33
8/4/2022 6:30:00 PM 24.32 75.776 0.605 7.32 4.42 5.06
8/4/2022 6:45:00 PM 24.23 75.614 0.606 7.32 4.19 5.1
8/4/2022 7:00:00 PM 24.15 75.47 0.606 7.32 4.17 4.91
8/4/2022 7:15:00 PM 24.08 75.344 0.607 7.3 3.71 4.75
8/4/2022 7:30:00 PM 24.02 75.236 0.607 7.27 4.07 4.39
8/4/2022 7:45:00 PM 23.96 75.128 0.607 7.27 4.01 4.04
8/4/2022 8:00:00 PM 23.91 75.038 0.608 7.28 5.62 3.99
8/4/2022 8:15:00 PM 23.83 74.894 0.608 7.26 4.48 3.79
8/4/2022 8:30:00 PM 23.76 74.768 0.608 7.24 4.24 3.61
8/4/2022 8:45:00 PM 23.72 74.696 0.608 7.26 5.1 3.5
8/4/2022 9:00:00 PM 23.67 74.606 0.608 7.25 4.31 3.47
8/4/2022 9:15:00 PM 23.64 74.552 0.608 7.26 4.77 3.31
8/4/2022 9:30:00 PM 23.59 74.462 0.608 7.27 5.28 3.17
8/4/2022 9:45:00 PM 23.55 74.39 0.608 7.26 6.56 3.11
8/4/2022 10:00:00 PM 23.51 74.318 0.607 7.3 5.33 3.02
8/4/2022 10:15:00 PM 23.49 74.282 0.606 7.3 4.33 2.91
8/4/2022 10:30:00 PM 23.47 74.246 0.606 7.3 3.99 2.8
8/4/2022 10:45:00 PM 23.45 74.21 0.605 7.29 3.95 2.72
8/4/2022 11:00:00 PM 23.45 74.21 0.605 7.29 3.36 2.66
8/4/2022 11:15:00 PM 23.44 74.192 0.605 7.29 3.32 2.64
8/4/2022 11:30:00 PM 23.44 74.192 0.605 7.29 2.98 2.55
8/4/2022 11:45:00 PM 23.42 74.156 0.606 7.29 4.2 2.52
8/5/2022 12:00:00 AM 23.4 74.12 0.606 7.3 5.22 2.49
8/5/2022 12:15:00 AM 23.4 74.12 0.607 7.26 5.52 2.41
8/5/2022 12:30:00 AM 23.43 74.174 0.605 7.31 4.12 2.51
8/5/2022 12:45:00 AM 23.37 74.066 0.605 7.29 3.74 2.44
8/5/2022 1:00:00 AM 23.36 74.048 0.605 7.28 4.15 2.46
8/5/2022 1:15:00 AM 23.36 74.048 0.605 7.27 4.55 2.47
8/5/2022 1:30:00 AM 23.36 74.048 0.605 7.29 3.67 2.51
8/5/2022 1:45:00 AM 23.36 74.048 0.605 7.29 5 2.48
8/5/2022 2:00:00 AM 23.38 74.084 0.605 7.3 4.38 2.51
8/5/2022 2:15:00 AM 23.41 74.138 0.605 7.31 3.82 2.61
8/5/2022 2:30:00 AM 23.43 74.174 0.605 7.32 3.59 2.65
8/5/2022 2:45:00 AM 23.45 74.21 0.606 7.31 2.87 2.66
8/5/2022 3:00:00 AM 23.5 74.3 0.606 7.31 5.56 2.66
8/5/2022 3:15:00 AM 23.51 74.318 0.606 7.32 3.85 2.63
8/5/2022 3:30:00 AM 23.56 74.408 0.606 7.33 2.93 2.64
8/5/2022 3:45:00 AM 23.56 74.408 0.607 7.33 3.14 2.67
8/5/2022 4:00:00 AM 23.58 74.444 0.607 7.33 3.06 2.65
8/5/2022 4:15:00 AM 23.59 74.462 0.607 7.32 2.99 2.59
8/5/2022 4:30:00 AM 23.59 74.462 0.608 7.34 2.85 2.56
8/5/2022 4:45:00 AM 23.64 74.552 0.608 7.35 3.23 2.56
8/5/2022 5:00:00 AM 23.7 74.66 0.608 7.36 4.43 2.58
8/5/2022 5:15:00 AM 23.67 74.606 0.608 7.32 3.47 2.5
8/5/2022 5:30:00 AM 23.7 74.66 0.609 7.36 6.21 2.45
8/5/2022 5:45:00 AM 23.66 74.588 0.609 7.33 3.69 2.38
8/5/2022 6:00:00 AM 23.67 74.606 0.61 7.32 6.22 2.24
8/5/2022 6:15:00 AM 23.66 74.588 0.61 7.32 128.69 2.16
8/5/2022 6:30:00 AM 23.63 74.534 0.611 7.33 80.09 2.11
8/5/2022 6:45:00 AM 23.59 74.462 0.611 7.31 1510.83 2.03
8/5/2022 7:00:00 AM 23.6 74.48 0.612 7.31 78.06 2.11
8/5/2022 7:15:00 AM 23.58 74.444 0.612 7.31 56.52 2.2
8/5/2022 7:30:00 AM 23.61 74.498 0.612 7.35 4.27 2.48
8/5/2022 7:45:00 AM 23.66 74.588 0.613 7.32 6.04 2.73
8/5/2022 8:00:00 AM 23.69 74.642 0.613 7.32 3.59 2.71
8/5/2022 8:15:00 AM 23.73 74.714 0.613 7.33 3.06 2.88
8/5/2022 8:30:00 AM 23.8 74.84 0.613 7.33 2.8 3.15
8/5/2022 8:45:00 AM 23.86 74.948 0.614 7.34 2.91 3.28
8/5/2022 9:00:00 AM 23.93 75.074 0.614 7.34 2.18 3.3
8/5/2022 9:15:00 AM 23.99 75.182 0.614 7.33 3.05 3.63
8/5/2022 9:30:00 AM 24.05 75.29 0.614 7.34 3.22 3.84
8/5/2022 9:45:00 AM 24.1 75.38 0.614 7.34 2.76 4.15
8/5/2022 10:00:00 AM 24.17 75.506 0.614 7.33 2.89 4.28
8/5/2022 10:15:00 AM 24.28 75.704 0.614 7.33 3.31 4.51
8/5/2022 10:30:00 AM 24.42 75.956 0.608 7.38 5.89 4.51
8/5/2022 10:45:00 AM 24.51 76.118 0.598 7.39 4.6 4.41
8/5/2022 11:00:00 AM 24.64 76.352 0.596 7.45 4.19 4.35
8/5/2022 11:15:00 AM 24.74 76.532 0.594 7.46 4.07 4.38
8/5/2022 11:30:00 AM 24.85 76.73 0.588 7.5 4.71 4.56
8/5/2022 11:45:00 AM 24.97 76.946 0.589 7.51 4.83 4.68
8/5/2022 12:00:00 PM 25.17 77.306 0.592 7.53 7.08 4.9
8/5/2022 12:15:00 PM 25.28 77.504 0.59 7.57 5.37 5.01
8/5/2022 12:30:00 PM 25.26 77.468 0.59 7.55 6.64 5.1
8/5/2022 12:45:00 PM 25.33 77.594 0.594 7.58 4.68 5.19
8/5/2022 1:00:00 PM 25.39 77.702 0.596 7.59 4.65 5.22
8/5/2022 1:15:00 PM 25.32 77.576 0.606 7.57 3.54 5.06
8/5/2022 1:30:00 PM 25.29 77.522 0.611 7.52 2.67 4.59
8/5/2022 1:45:00 PM 25.2 77.36 0.608 7.45 3.39 4.59
8/5/2022 2:00:00 PM 24.98 76.964 0.608 7.4 3.8 4.32
8/5/2022 2:15:00 PM 24.95 76.91 0.609 7.4 4.01 4.41
8/5/2022 2:30:00 PM 24.87 76.766 0.611 7.36 3.93 4.56
8/5/2022 2:45:00 PM 24.69 76.442 0.613 7.38 2.67 4.75
8/5/2022 3:00:00 PM 24.4 75.92 0.61 7.38 3.09 4.39
8/5/2022 3:15:00 PM 24.15 75.47 0.59 7.42 4.94 5.04
8/5/2022 3:30:00 PM 23.81 74.858 0.581 7.41 6.25 4.8
8/5/2022 3:45:00 PM 23.61 74.498 0.59 7.31 5.48 4.13
8/5/2022 4:00:00 PM 23.5 74.3 0.597 7.3 4.39 4.21
8/5/2022 4:15:00 PM 23.44 74.192 0.6 7.32 3.41 4.36
8/5/2022 4:30:00 PM 23.42 74.156 0.602 7.34 3.34 4.67
8/5/2022 4:45:00 PM 23.47 74.246 0.601 7.38 3.11 4.62
8/5/2022 5:00:00 PM 23.49 74.282 0.601 7.38 3.5 4.56
8/5/2022 5:15:00 PM 23.53 74.354 0.601 7.39 3.71 4.5
8/5/2022 5:30:00 PM 23.6 74.48 0.599 7.43 3.51 4.83
8/5/2022 5:45:00 PM 23.75 74.75 0.596 7.47 3.85 5.06
8/5/2022 6:00:00 PM 23.91 75.038 0.596 7.5 3.35 5.07
8/5/2022 6:15:00 PM 24.14 75.452 0.593 7.57 2.99 5.67
8/5/2022 6:30:00 PM 24.23 75.614 0.592 7.57 5.25 5.91
8/5/2022 6:45:00 PM 24.28 75.704 0.59 7.59 3.26 5.78
8/5/2022 7:00:00 PM 24.33 75.794 0.59 7.59 3.65 5.81
8/5/2022 7:15:00 PM 24.4 75.92 0.589 7.61 3.33 5.74
8/5/2022 7:30:00 PM 24.48 76.064 0.587 7.6 3.5 5.8
8/5/2022 7:45:00 PM 24.56 76.208 0.586 7.63 4.16 5.99
8/5/2022 8:00:00 PM 24.6 76.28 0.584 7.58 3.86 5.4
8/5/2022 8:15:00 PM 24.61 76.298 0.584 7.57 8.6 5.4
8/5/2022 8:30:00 PM 24.59 76.262 0.584 7.54 3.94 5.19
8/5/2022 8:45:00 PM 24.56 76.208 0.584 7.53 4.4 5.04
8/5/2022 9:00:00 PM 24.51 76.118 0.584 7.53 5.31 4.98
8/5/2022 9:15:00 PM 24.47 76.046 0.585 7.52 4.75 4.85
8/5/2022 9:30:00 PM 24.43 75.974 0.585 7.51 4.81 4.64
8/5/2022 9:45:00 PM 24.41 75.938 0.585 7.52 5.05 4.6
8/5/2022 10:00:00 PM 24.36 75.848 0.586 7.5 4.43 4.41
8/5/2022 10:15:00 PM 24.31 75.758 0.587 7.46 5.3 4.28
8/5/2022 10:30:00 PM 24.28 75.704 0.588 7.45 4.51 4.17
8/5/2022 10:45:00 PM 24.23 75.614 0.588 7.44 4.02 4.09
8/5/2022 11:00:00 PM 24.2 75.56 0.589 7.44 3.96 3.95
8/5/2022 11:15:00 PM 24.16 75.488 0.589 7.43 4.12 3.88
8/5/2022 11:30:00 PM 24.14 75.452 0.59 7.44 3.94 3.83
8/5/2022 11:45:00 PM 24.1 75.38 0.591 7.42 4.77 3.72
8/6/2022 12:00:00 AM 24.09 75.362 0.591 7.44 4.78 3.67
8/6/2022 12:15:00 AM 24.06 75.308 0.592 7.41 3.54 3.64
8/6/2022 12:30:00 AM 24.04 75.272 0.593 7.41 3.69 3.59
8/6/2022 12:45:00 AM 24 75.2 0.594 7.4 3.53 3.54
8/6/2022 1:00:00 AM 23.98 75.164 0.594 7.4 4.85 3.44
8/6/2022 1:15:00 AM 23.94 75.092 0.595 7.39 4.25 3.41
8/6/2022 1:30:00 AM 23.91 75.038 0.596 7.4 4.43 3.34
8/6/2022 1:45:00 AM 23.89 75.002 0.597 7.39 4.07 3.35
8/6/2022 2:00:00 AM 23.85 74.93 0.598 7.37 3.46 3.28
8/6/2022 2:15:00 AM 23.81 74.858 0.599 7.4 3.71 3.23
8/6/2022 2:30:00 AM 23.79 74.82201 0.599 7.4 4.51 3.24
8/6/2022 2:45:00 AM 23.76 74.768 0.599 7.4 4.81 3.27
8/6/2022 3:00:00 AM 23.73 74.714 0.6 7.38 3.91 3.19
8/6/2022 3:15:00 AM 23.69 74.642 0.601 7.39 3.81 3.16
8/6/2022 3:30:00 AM 23.68 74.624 0.601 7.4 4.88 3.24
8/6/2022 3:45:00 AM 23.65 74.57 0.602 7.42 3.9 3.16
8/6/2022 4:00:00 AM 23.61 74.498 0.602 7.41 3.94 3.14
8/6/2022 4:15:00 AM 23.57 74.426 0.603 7.41 4.17 3.18
8/6/2022 4:30:00 AM 23.55 74.39 0.603 7.4 4.07 3.16
8/6/2022 4:45:00 AM 23.54 74.372 0.603 7.45 3.95 3.22
8/6/2022 5:00:00 AM 23.52 74.336 0.604 7.44 4.39 3.14
8/6/2022 5:15:00 AM 23.49 74.282 0.604 7.43 4.14 3.12
8/6/2022 5:30:00 AM 23.47 74.246 0.605 7.42 3.99 3.08
8/6/2022 5:45:00 AM 23.44 74.192 0.605 7.45 3.77 3.12
8/6/2022 6:00:00 AM 23.39 74.102 0.606 7.4 4.48 2.94
8/6/2022 6:15:00 AM 23.35 74.03 0.606 7.4 5.88 2.87
8/6/2022 6:30:00 AM 23.31 73.958 0.606 7.39 6.02 2.82
8/6/2022 6:45:00 AM 23.28 73.904 0.606 7.4 6.05 2.86
8/6/2022 7:00:00 AM 23.28 73.904 0.606 7.4 4.71 2.83
8/6/2022 7:15:00 AM 23.27 73.886 0.606 7.42 6.7 2.97
8/6/2022 7:30:00 AM 23.28 73.904 0.607 7.41 4.46 3.04
8/6/2022 7:45:00 AM 23.28 73.904 0.607 7.4 5.11 3.23
8/6/2022 8:00:00 AM 23.31 73.958 0.607 7.42 5.31 3.3
8/6/2022 8:15:00 AM 23.34 74.012 0.607 7.45 4.73 3.53
8/6/2022 8:30:00 AM 23.37 74.066 0.607 7.46 4.08 3.65
8/6/2022 8:45:00 AM 23.38 74.084 0.607 7.43 2.92 3.76
8/6/2022 9:00:00 AM 23.39 74.102 0.607 7.45 4.16 3.92
8/6/2022 9:15:00 AM 23.42 74.156 0.607 7.45 4 4.05
8/6/2022 9:30:00 AM 23.49 74.282 0.607 7.45 3.67 4.31
8/6/2022 9:45:00 AM 23.65 74.57 0.607 7.45 2.94 4.61
8/6/2022 10:00:00 AM 23.85 74.93 0.607 7.45 2.79 4.71
8/6/2022 10:15:00 AM 23.99 75.182 0.604 7.5 3.11 5.18
8/6/2022 10:30:00 AM 24.02 75.236 0.596 7.56 3.19 5.14
8/6/2022 10:45:00 AM 24.07 75.326 0.592 7.61 4.96 5.31
8/6/2022 11:00:00 AM 24.18 75.524 0.595 7.63 3.38 5.45
8/6/2022 11:15:00 AM 24.14 75.452 0.6 7.63 3.16 5.43
8/6/2022 11:30:00 AM 24.17 75.506 0.604 7.64 3.05 5.32
8/6/2022 11:45:00 AM 24.22 75.596 0.607 7.63 2.45 5.63
8/6/2022 12:00:00 PM 24.28 75.704 0.609 7.6 2.34 5.71
8/6/2022 12:15:00 PM 24.3 75.74 0.61 7.56 2.28 5.9
8/6/2022 12:30:00 PM 24.29 75.722 0.61 7.53 2.25 6.17
8/6/2022 12:45:00 PM 24.45 76.01 0.61 7.55 2.45 6.5
8/6/2022 1:00:00 PM 24.59 76.262 0.61 7.6 2.42 6.44
8/6/2022 1:15:00 PM 24.59 76.262 0.609 7.65 2.77 6.31
8/6/2022 1:30:00 PM 24.65 76.37 0.609 7.68 2.65 6.43
8/6/2022 1:45:00 PM 24.6 76.28 0.609 7.67 2.64 6.29
8/6/2022 2:00:00 PM 24.62 76.316 0.61 7.67 2.78 6.42
8/6/2022 2:15:00 PM 24.62 76.316 0.609 7.69 2.47 6.39
8/6/2022 2:30:00 PM 24.65 76.37 0.609 7.7 2.46 6.64
8/6/2022 2:45:00 PM 24.68 76.424 0.609 7.69 2.69 6.53
8/6/2022 3:00:00 PM 24.67 76.406 0.61 7.7 2.07 6.33
8/6/2022 3:15:00 PM 24.72 76.496 0.61 7.7 3.8 6.43
8/6/2022 3:30:00 PM 24.84 76.712 0.609 7.69 3.15 6.7
8/6/2022 3:45:00 PM 24.87 76.766 0.609 7.69 2.41 6.73
8/6/2022 4:00:00 PM 24.92 76.856 0.609 7.72 2.5 6.76
8/6/2022 4:15:00 PM 25.02 77.036 0.609 7.73 2.52 6.88
8/6/2022 4:30:00 PM 25.06 77.108 0.609 7.71 2.25 6.77
8/6/2022 4:45:00 PM 25.16 77.288 0.609 7.71 2 6.59
8/6/2022 5:00:00 PM 25.26 77.468 0.609 7.73 2.36 6.62
8/6/2022 5:15:00 PM 25.34 77.612 0.608 7.72 2.3 6.68
8/6/2022 5:30:00 PM 25.37 77.666 0.608 7.73 2.32 6.74
8/6/2022 5:45:00 PM 25.44 77.792 0.608 7.73 3.43 6.79
8/6/2022 6:00:00 PM 25.53 77.954 0.608 7.73 2.98 6.79
8/6/2022 6:15:00 PM 25.6 78.08 0.608 7.71 2.8 6.86
8/6/2022 6:30:00 PM 25.68 78.224 0.607 7.73 2.77 6.8
8/6/2022 6:45:00 PM 25.73 78.314 0.607 7.72 2.75 6.62
8/6/2022 7:00:00 PM 25.77 78.386 0.607 7.7 2.64 6.64
8/6/2022 7:15:00 PM 25.83 78.494 0.607 7.7 2.6 6.61
8/6/2022 7:30:00 PM 25.87 78.566 0.607 7.7 2.84 6.43
8/6/2022 7:45:00 PM 25.93 78.674 0.607 7.71 2.57 6.47
8/6/2022 8:00:00 PM 25.99 78.782 0.607 7.72 2.77 6.34
8/6/2022 8:15:00 PM 25.99 78.782 0.607 7.72 2.8 6.36
8/6/2022 8:30:00 PM 26.05 78.89 0.606 7.68 4.02 6.22
8/6/2022 8:45:00 PM 26.07 78.926 0.606 7.68 3.26 6.09
8/6/2022 9:00:00 PM 26.15 79.07 0.605 7.7 2.72 5.92
8/6/2022 9:15:00 PM 26.19 79.142 0.605 7.71 3.12 5.87
8/6/2022 9:30:00 PM 26.12 79.016 0.605 7.7 3.59 5.76
8/6/2022 9:45:00 PM 26.13 79.034 0.605 7.7 3.12 5.63
8/6/2022 10:00:00 PM 26.12 79.016 0.605 7.68 3.59 5.49
8/6/2022 10:15:00 PM 26.15 79.07 0.605 7.7 3.82 5.44
8/6/2022 10:30:00 PM 26.19 79.142 0.605 7.71 3.7 5.38
8/6/2022 10:45:00 PM 26.22 79.196 0.606 7.68 3.39 5.25
8/6/2022 11:00:00 PM 26.22 79.196 0.606 7.69 3.6 5.13
8/6/2022 11:15:00 PM 26.24 79.232 0.608 7.69 3.08 5.01
8/6/2022 11:30:00 PM 26.24 79.232 0.609 7.72 3.09 5.01
8/6/2022 11:45:00 PM 26.23 79.214 0.61 7.75 3.79 5.24
8/7/2022 12:00:00 AM 26.2 79.16 0.613 7.78 3.87 5.45
8/7/2022 12:15:00 AM 26.16 79.088 0.616 7.93 4.03 6.03
8/7/2022 12:30:00 AM 26.05 78.89 0.617 7.87 3.96 5.9
8/7/2022 12:45:00 AM 25.95 78.71 0.62 7.9 3.32 6.03
8/7/2022 1:00:00 AM 25.85 78.53 0.621 7.9 3.45 6
8/7/2022 1:15:00 AM 25.71 78.278 0.623 7.87 3.5 5.93
8/7/2022 1:30:00 AM 25.6 78.08 0.624 7.84 3.1 5.9
8/7/2022 1:45:00 AM 25.49 77.882 0.625 7.84 3.41 5.8
8/7/2022 2:00:00 AM 25.37 77.666 0.627 7.81 3.05 5.78
8/7/2022 2:15:00 AM 25.26 77.468 0.629 7.8 2.85 5.79
8/7/2022 2:30:00 AM 25.16 77.288 0.63 7.8 3.45 5.71
8/7/2022 2:45:00 AM 25.07 77.126 0.631 7.79 3.13 5.7
8/7/2022 3:00:00 AM 24.97 76.946 0.632 7.78 2.89 5.71
8/7/2022 3:15:00 AM 24.89 76.802 0.633 7.78 3.06 5.72
8/7/2022 3:30:00 AM 24.81 76.658 0.634 7.76 3.45 5.59
8/7/2022 3:45:00 AM 24.71 76.478 0.635 7.77 3.53 5.66
8/7/2022 4:00:00 AM 24.62 76.316 0.636 7.75 4.5 5.7
8/7/2022 4:15:00 AM 24.56 76.208 0.636 7.75 3.52 5.62
8/7/2022 4:30:00 AM 24.49 76.082 0.637 7.75 3.02 5.62
8/7/2022 4:45:00 AM 24.4 75.92 0.638 7.74 3.02 5.66
8/7/2022 5:00:00 AM 24.35 75.83 0.638 7.73 3.11 5.66
8/7/2022 5:15:00 AM 24.3 75.74 0.639 7.74 3.31 5.63
8/7/2022 5:30:00 AM 24.23 75.614 0.639 7.73 3.38 5.65
8/7/2022 5:45:00 AM 24.17 75.506 0.639 7.72 3.13 5.61
8/7/2022 6:00:00 AM 24.09 75.362 0.64 7.72 3.46 5.64
8/7/2022 6:15:00 AM 24.01 75.218 0.64 7.73 3.39 5.65
8/7/2022 6:30:00 AM 23.95 75.11 0.641 7.73 4.57 5.66
8/7/2022 6:45:00 AM 23.87 74.966 0.641 7.72 3.46 5.72
8/7/2022 7:00:00 AM 23.83 74.894 0.641 7.73 3.33 5.72
8/7/2022 7:15:00 AM 23.8 74.84 0.642 7.74 3.37 5.87
8/7/2022 7:30:00 AM 23.82 74.876 0.642 7.72 3.32 5.84
8/7/2022 7:45:00 AM 23.78 74.804 0.642 7.74 3.34 6.08
8/7/2022 8:00:00 AM 23.76 74.768 0.642 7.76 3.25 6.08
8/7/2022 8:15:00 AM 23.78 74.804 0.642 7.77 3.36 6.27
8/7/2022 8:30:00 AM 23.82 74.876 0.643 7.77 3.33 6.25
8/7/2022 8:45:00 AM 23.84 74.912 0.643 7.78 3.2 6.46
8/7/2022 9:00:00 AM 23.87 74.966 0.643 7.78 3.64 6.43
8/7/2022 9:15:00 AM 23.92 75.056 0.643 7.8 3.31 6.47
8/7/2022 9:30:00 AM 23.93 75.074 0.643 7.81 3.17 6.69
8/7/2022 9:45:00 AM 23.98 75.164 0.643 7.83 3 6.86
8/7/2022 10:00:00 AM 24.15 75.47 0.643 7.86 3.13 7.12
8/7/2022 10:15:00 AM 24.42 75.956 0.643 7.88 3.05 7.43
8/7/2022 10:30:00 AM 24.57 76.226 0.644 7.89 2.91 7.55
8/7/2022 10:45:00 AM 24.64 76.352 0.644 7.88 2.89 7.5
8/7/2022 11:00:00 AM 24.93 76.874 0.644 7.91 3 7.82
8/7/2022 11:15:00 AM 24.95 76.91 0.643 7.87 2.81 7.51
8/7/2022 11:30:00 AM 24.98 76.964 0.643 7.87 3.38 7.55
8/7/2022 11:45:00 AM 24.96 76.92799 0.643 7.83 2.42 7.35
8/7/2022 12:00:00 PM 25.06 77.108 0.643 7.83 2.48 7.33
8/7/2022 12:15:00 PM 25.33 77.594 0.642 7.83 2.57 7.47
8/7/2022 12:30:00 PM 25.53 77.954 0.642 7.85 2.59 7.59
8/7/2022 12:45:00 PM 25.67 78.206 0.642 7.82 2.83 7.58
8/7/2022 1:00:00 PM 25.74 78.332 0.641 7.81 4.11 7.38
8/7/2022 1:15:00 PM 25.75 78.35 0.641 7.79 2.19 7.08
8/7/2022 1:30:00 PM 25.79 78.422 0.641 7.79 2.26 7.02
8/7/2022 1:45:00 PM 25.82 78.476 0.642 7.8 2.18 6.89
8/7/2022 2:00:00 PM 25.93 78.674 0.642 7.78 2.56 6.78
8/7/2022 2:15:00 PM 26.03 78.854 0.642 7.77 2.85 6.84
8/7/2022 2:30:00 PM 26.17 79.106 0.641 7.79 2.42 6.95
8/7/2022 2:45:00 PM 26.28 79.304 0.641 7.78 2.35 6.97
8/7/2022 3:00:00 PM 26.4 79.52 0.641 7.79 2.03 7.03
8/7/2022 3:15:00 PM 26.59 79.862 0.641 7.79 2.22 7.02
8/7/2022 3:30:00 PM 26.69 80.042 0.64 7.8 2.18 7
8/7/2022 3:45:00 PM 26.77 80.186 0.64 7.81 2.08 6.96
8/7/2022 4:00:00 PM 26.88 80.384 0.639 7.8 2.88 6.92
8/7/2022 4:15:00 PM 26.98 80.564 0.639 7.8 3.04 6.86
8/7/2022 4:30:00 PM 27.07 80.726 0.639 7.8 2.9 6.75
8/7/2022 4:45:00 PM 27.16 80.888 0.638 7.8 2.34 6.84
8/7/2022 5:00:00 PM 27.26 81.068 0.638 7.78 3.14 6.74
8/7/2022 5:15:00 PM 27.33 81.194 0.638 7.77 2.6 5.52
8/7/2022 5:30:00 PM 27.4 81.32 0.638 7.78 2.11 6.72
8/7/2022 5:45:00 PM 27.47 81.446 0.637 7.77 2.52 6.86
8/7/2022 6:00:00 PM 27.52 81.536 0.637 7.79 2.14 6.99
8/7/2022 6:15:00 PM 27.58 81.644 0.636 7.79 2.19 6.88
8/7/2022 6:30:00 PM 27.61 81.698 0.636 7.78 2.16 6.87
8/7/2022 6:45:00 PM 27.66 81.788 0.636 7.75 2.34 6.77
8/7/2022 7:00:00 PM 27.72 81.896 0.636 7.76 2.29 6.64
8/7/2022 7:15:00 PM 27.76 81.968 0.636 7.76 2.77 6.46
8/7/2022 7:30:00 PM 27.85 82.13 0.635 7.73 2.42 6.21
8/7/2022 7:45:00 PM 27.85 82.13 0.635 7.74 4.01 6.18
8/7/2022 8:00:00 PM 27.83 82.094 0.635 7.76 2.81 6.36
8/7/2022 8:15:00 PM 27.89 82.202 0.634 7.74 3.05 6.19
8/7/2022 8:30:00 PM 27.85 82.13 0.634 7.73 3.93 6.19
8/7/2022 8:45:00 PM 27.96 82.328 0.632 7.72 4.79 5.81
8/7/2022 9:00:00 PM 27.98 82.364 0.632 7.72 2.88 5.79
8/7/2022 9:15:00 PM 27.96 82.328 0.632 7.7 2.6 5.62
8/7/2022 9:30:00 PM 27.87 82.166 0.632 7.7 2.85 5.4
8/7/2022 9:45:00 PM 27.84 82.112 0.632 7.68 2.75 5.28
8/7/2022 10:00:00 PM 27.85 82.13 0.631 7.68 3.13 5.04
8/7/2022 10:15:00 PM 27.86 82.148 0.631 7.65 3.17 4.95
8/7/2022 10:30:00 PM 27.79 82.022 0.631 7.66 3.42 4.93
8/7/2022 10:45:00 PM 27.76 81.968 0.63 7.66 3.45 4.68
8/7/2022 11:00:00 PM 27.77 81.986 0.629 7.63 3.04 4.58
8/7/2022 11:15:00 PM 27.71 81.878 0.63 7.65 3.69 4.4
8/7/2022 11:30:00 PM 27.69 81.842 0.629 7.61 3.52 4.3
8/7/2022 11:45:00 PM 27.65 81.77 0.629 7.63 3.59 4.34
8/8/2022 12:00:00 AM 27.66 81.788 0.627 7.68 3.38 4.4
8/8/2022 12:15:00 AM 27.59 81.662 0.627 7.7 4.68 4.51
8/8/2022 12:30:00 AM 27.51 81.518 0.626 7.71 5.01 4.67
8/8/2022 12:45:00 AM 27.44 81.392 0.626 7.74 4.17 4.75
8/8/2022 1:00:00 AM 27.36 81.248 0.626 7.76 14.06 4.85
8/8/2022 1:15:00 AM 27.27 81.086 0.626 7.81 3.35 5.13
8/8/2022 1:30:00 AM 27.12 80.816 0.626 7.77 2.65 5.06
8/8/2022 1:45:00 AM 27.01 80.618 0.627 7.73 2.81 4.83
8/8/2022 2:00:00 AM 26.92 80.456 0.627 7.7 3.02 4.68
8/8/2022 2:15:00 AM 26.83 80.294 0.628 7.68 2.79 4.52
8/8/2022 2:30:00 AM 26.72 80.096 0.628 7.67 2.62 4.46
8/8/2022 2:45:00 AM 26.62 79.916 0.628 7.65 2.84 4.47
8/8/2022 3:00:00 AM 26.49 79.682 0.629 7.66 2.62 4.54
8/8/2022 3:15:00 AM 26.37 79.466 0.629 7.66 2.45 4.6
8/8/2022 3:30:00 AM 26.26 79.268 0.629 7.67 2.95 4.66
8/8/2022 3:45:00 AM 26.14 79.052 0.629 7.65 2.56 4.69
8/8/2022 4:00:00 AM 26.02 78.836 0.629 7.66 2.45 4.71
8/8/2022 4:15:00 AM 25.9 78.62 0.629 7.65 3.82 4.71
8/8/2022 4:30:00 AM 25.78 78.404 0.629 7.65 3.71 4.77
8/8/2022 4:45:00 AM 25.67 78.206 0.629 7.65 3.47 4.81
8/8/2022 5:00:00 AM 25.55 77.99 0.629 7.66 3.61 4.83
8/8/2022 5:15:00 AM 25.45 77.81 0.629 7.65 3.83 4.78
8/8/2022 5:30:00 AM 25.31 77.558 0.629 7.65 4.93 4.83
8/8/2022 5:45:00 AM 25.21 77.378 0.628 7.64 3.62 4.87
8/8/2022 6:00:00 AM 25.09 77.162 0.628 7.62 2.68 4.86
8/8/2022 6:15:00 AM 24.99 76.982 0.628 7.64 3.11 4.89
8/8/2022 6:30:00 AM 24.89 76.802 0.628 7.62 2.78 4.91
8/8/2022 6:45:00 AM 24.81 76.658 0.628 7.64 2.76 4.99
8/8/2022 7:00:00 AM 24.73 76.514 0.628 7.65 2.78 5.03
8/8/2022 7:15:00 AM 24.68 76.424 0.627 7.64 2.87 5.11
8/8/2022 7:30:00 AM 24.63 76.334 0.627 7.65 3.02 5.22
8/8/2022 7:45:00 AM 24.6 76.28 0.627 7.67 2.88 5.35
8/8/2022 8:00:00 AM 24.58 76.244 0.627 7.69 3.32 5.54
8/8/2022 8:15:00 AM 24.57 76.226 0.627 7.68 3.03 5.59
8/8/2022 8:30:00 AM 24.58 76.244 0.626 7.7 3.03 5.74
8/8/2022 8:45:00 AM 24.6 76.28 0.626 7.7 3.68 5.74
8/8/2022 9:00:00 AM 24.59 76.262 0.626 7.71 2.86 5.9
8/8/2022 9:15:00 AM 24.61 76.298 0.625 7.72 3.39 5.95
8/8/2022 9:30:00 AM 24.64 76.352 0.625 7.74 3.02 6.15
8/8/2022 9:45:00 AM 24.67 76.406 0.623 7.74 4.42 6.3
8/8/2022 10:00:00 AM 24.76 76.568 0.624 7.75 3.23 6.42
8/8/2022 10:15:00 AM 24.77 76.586 0.623 7.75 3.04 6.54
8/8/2022 10:30:00 AM 24.72 76.496 0.623 7.76 2.84 6.48
8/8/2022 10:45:00 AM 24.79 76.622 0.623 7.75 3.55 6.54
8/8/2022 11:00:00 AM 24.94 76.892 0.622 7.77 2.78 6.78
8/8/2022 11:15:00 AM 25.11 77.198 0.621 7.8 3.51 7.07
8/8/2022 11:30:00 AM 25.39 77.702 0.621 7.81 3.55 7.23
8/8/2022 11:45:00 AM 25.63 78.134 0.62 7.8 3.02 7.2
8/8/2022 12:00:00 PM 25.78 78.404 0.62 7.81 2.92 7.38
8/8/2022 12:15:00 PM 26.07 78.926 0.619 7.82 2.78 7.62
8/8/2022 12:30:00 PM 26.23 79.214 0.619 7.77 2.14 7.17
8/8/2022 12:45:00 PM 26.32 79.376 0.619 7.76 2.29 7.06
8/8/2022 1:00:00 PM 26.37 79.466 0.619 7.71 1.94 6.54
8/8/2022 1:15:00 PM 26.26 79.268 0.619 7.7 1.91 6.11
8/8/2022 1:30:00 PM 26.15 79.07 0.617 7.71 2.1 6.63
8/8/2022 1:45:00 PM 26.1 78.98 0.617 7.71 2.32 6.63
8/8/2022 2:00:00 PM 26.09 78.962 0.617 7.69 2.05 6.65
8/8/2022 2:15:00 PM 26.11 78.998 0.617 7.7 2.28 6.64
8/8/2022 2:30:00 PM 26.14 79.052 0.616 7.66 3.67 6.39
8/8/2022 2:45:00 PM 26.16 79.088 0.616 7.69 3.75 6.4
8/8/2022 3:00:00 PM 26.19 79.142 0.616 7.68 2.61 6.5
8/8/2022 3:15:00 PM 26.22 79.196 0.615 7.68 2.98 6.44
8/8/2022 3:30:00 PM 26.27 79.286 0.615 7.68 3.83 6.37
8/8/2022 3:45:00 PM 26.34 79.412 0.614 7.67 3.9 6.51
8/8/2022 4:00:00 PM 26.4 79.52 0.614 7.68 2.62 6.61
8/8/2022 4:15:00 PM 26.46 79.628 0.614 7.7 2.58 6.75
8/8/2022 4:30:00 PM 26.55 79.79 0.613 7.7 2.94 6.72
8/8/2022 4:45:00 PM 26.63 79.934 0.613 7.69 2.99 6.75
8/8/2022 5:00:00 PM 26.66 79.988 0.613 7.72 2.6 6.85
8/8/2022 5:15:00 PM 26.69 80.042 0.612 7.71 3.05 6.83
8/8/2022 5:30:00 PM 26.68 80.024 0.612 7.72 6.06 6.53
8/8/2022 5:45:00 PM 26.74 80.132 0.61 7.71 5.42 6.65
8/8/2022 6:00:00 PM 26.71 80.078 0.61 7.7 12.19 6.54
8/8/2022 6:15:00 PM 26.72 80.096 0.61 7.71 3.69 6.42
8/8/2022 6:30:00 PM 26.72 80.096 0.609 7.72 2.42 6.45
8/8/2022 6:45:00 PM 26.7 80.06 0.609 7.71 7.85 6.24
8/8/2022 7:00:00 PM 26.7 80.06 0.608 7.72 17.03 6.26
8/8/2022 7:15:00 PM 26.69 80.042 0.607 7.7 2.37 6.12
8/8/2022 7:30:00 PM 26.7 80.06 0.607 7.7 2.35 6.08
8/8/2022 7:45:00 PM 26.69 80.042 0.607 7.71 2.35 6.13
8/8/2022 8:00:00 PM 26.7 80.06 0.607 7.71 2.48 6.06
8/8/2022 8:15:00 PM 26.7 80.06 0.604 7.72 2.97 5.97
8/8/2022 8:30:00 PM 26.66 79.988 0.602 7.73 2.91 5.92
8/8/2022 8:45:00 PM 26.62 79.916 0.601 7.72 12.55 5.83
8/8/2022 9:00:00 PM 26.57 79.826 0.601 7.72 3.27 5.8
8/8/2022 9:15:00 PM 26.52 79.736 0.6 7.71 3.24 5.72
8/8/2022 9:30:00 PM 26.48 79.664 0.6 7.7 2.85 5.5
8/8/2022 9:45:00 PM 26.43 79.574 0.599 7.69 2.29 5.45
8/8/2022 10:00:00 PM 26.37 79.466 0.599 7.68 2.21 5.33
8/8/2022 10:15:00 PM 26.32 79.376 0.599 7.65 2.33 5.19
8/8/2022 10:30:00 PM 26.28 79.304 0.599 7.65 2.84 5.1
8/8/2022 10:45:00 PM 26.21 79.17799 0.598 7.64 5.25 5.06
8/8/2022 11:00:00 PM 26.16 79.088 0.598 7.65 3.37 5.06
8/8/2022 11:15:00 PM 26.11 78.998 0.598 7.65 3.73 5.01
8/8/2022 11:30:00 PM 26.07 78.926 0.597 7.64 2.78 4.93
8/8/2022 11:45:00 PM 26.02 78.836 0.597 7.64 3.34 4.89
8/9/2022 12:00:00 AM 25.96 78.728 0.597 7.63 3.55 4.86
8/9/2022 12:15:00 AM 25.91 78.638 0.596 7.62 2.83 4.8
8/9/2022 12:30:00 AM 25.88 78.584 0.596 7.62 2.73 4.77
8/9/2022 12:45:00 AM 25.8 78.44 0.597 7.61 3.7 4.62
8/9/2022 1:00:00 AM 25.74 78.332 0.597 7.61 3 4.68
8/9/2022 1:15:00 AM 25.7 78.26 0.597 7.6 2.72 4.58
8/9/2022 1:30:00 AM 25.65 78.17 0.597 7.59 3.03 4.59
8/9/2022 1:45:00 AM 25.64 78.152 0.597 7.58 3.31 4.48
8/9/2022 2:00:00 AM 25.56 78.008 0.598 7.56 3.31 4.49
8/9/2022 2:15:00 AM 25.49 77.882 0.598 7.57 16.5 4.44
8/9/2022 2:30:00 AM 25.45 77.81 0.598 7.55 3.65 4.38
8/9/2022 2:45:00 AM 25.39 77.702 0.598 7.57 2.95 4.34
8/9/2022 3:00:00 AM 25.37 77.666 0.599 7.56 3.9 4.29
8/9/2022 3:15:00 AM 25.3 77.54 0.599 7.55 3.89 4.28
8/9/2022 3:30:00 AM 25.24 77.432 0.599 7.54 4 4.21
8/9/2022 3:45:00 AM 25.21 77.378 0.6 7.54 3.8 4.19
8/9/2022 4:00:00 AM 25.17 77.306 0.6 7.54 3.93 4.16
8/9/2022 4:15:00 AM 25.12 77.216 0.6 7.53 4.76 4.09
8/9/2022 4:30:00 AM 25.05 77.09 0.6 7.53 3.17 4.09
8/9/2022 4:45:00 AM 24.99 76.982 0.6 7.5 2.62 4.06
8/9/2022 5:00:00 AM 24.96 76.92799 0.601 7.52 3.52 4.01
8/9/2022 5:15:00 AM 24.97 76.946 0.6 7.5 3.44 3.88
8/9/2022 5:30:00 AM 24.92 76.856 0.601 7.51 3.24 3.92
8/9/2022 5:45:00 AM 24.88 76.784 0.601 7.51 3.32 3.91
8/9/2022 6:00:00 AM 24.86 76.748 0.601 7.51 3.27 3.87
8/9/2022 6:15:00 AM 24.8 76.64 0.601 7.5 3.78 3.83
8/9/2022 6:30:00 AM 24.77 76.586 0.601 7.49 3.19 3.84
8/9/2022 6:45:00 AM 24.73 76.514 0.601 7.49 3.11 3.8
8/9/2022 7:00:00 AM 24.71 76.478 0.601 7.49 2.91 3.88
8/9/2022 7:15:00 AM 24.71 76.478 0.601 7.5 3.13 3.91
8/9/2022 7:30:00 AM 24.73 76.514 0.601 7.5 4.04 4.07
8/9/2022 7:45:00 AM 24.76 76.568 0.6 7.52 3.16 4.36
8/9/2022 8:00:00 AM 24.74 76.532 0.6 7.51 3.5 4.42
8/9/2022 8:15:00 AM 24.68 76.424 0.6 7.51 3.22 4.36
8/9/2022 8:30:00 AM 24.62 76.316 0.598 7.48 16.4 4.03
8/9/2022 8:45:00 AM 24.62 76.316 0.599 7.5 2.94 4.33
8/9/2022 9:00:00 AM 24.66 76.388 0.599 7.5 3.07 4.45
8/9/2022 9:15:00 AM 24.63 76.334 0.599 7.52 4.49 4.52
8/9/2022 9:30:00 AM 24.59 76.262 0.599 7.52 10.9 4.54
8/9/2022 9:45:00 AM 24.57 76.226 0.599 7.5 3.89 4.68
8/9/2022 10:00:00 AM 24.59 76.262 0.599 7.52 2.81 4.92
8/9/2022 10:15:00 AM 24.62 76.316 0.598 7.54 7.85 5.07
8/9/2022 10:30:00 AM 24.69 76.442 0.598 7.54 3.57 5.14
8/9/2022 10:45:00 AM 24.82 76.676 0.598 7.58 3.27 5.63
8/9/2022 11:00:00 AM 24.99 76.982 0.597 7.59 4.79 5.92
8/9/2022 11:15:00 AM 25.12 77.216 0.597 7.6 4.37 5.7
8/9/2022 11:30:00 AM 25.18 77.324 0.596 7.6 3.84 5.99
8/9/2022 11:45:00 AM 25.21 77.378 0.596 7.61 2.89 6.21
8/9/2022 12:00:00 PM 25.3 77.54 0.596 7.61 3.44 6.3
8/9/2022 12:15:00 PM 25.35 77.63 0.595 7.61 3.16 6.34
8/9/2022 12:30:00 PM 25.51 77.918 0.595 7.62 3.33 6.53
8/9/2022 12:45:00 PM 25.73 78.314 0.595 7.62 3.12 6.47
8/9/2022 1:00:00 PM 25.9 78.62 0.595 7.64 2.42 6.3
8/9/2022 1:15:00 PM 26.09 78.962 0.594 7.63 2.51 6.09
8/9/2022 1:30:00 PM 26.11 78.998 0.591 7.66 3.14 5.95
8/9/2022 1:45:00 PM 26.13 79.034 0.591 7.66 3.48 5.83
8/9/2022 2:00:00 PM 26.2 79.16 0.592 7.66 3.44 5.75
8/9/2022 2:15:00 PM 26.19 79.142 0.59 7.67 3.09 5.67
8/9/2022 2:30:00 PM 26.14 79.052 0.59 7.68 6.85 5.58
8/9/2022 2:45:00 PM 26.13 79.034 0.59 7.67 3.21 5.48
8/9/2022 3:00:00 PM 26.14 79.052 0.59 7.67 3.01 5.55
8/9/2022 3:15:00 PM 26.17 79.106 0.59 7.68 2.8 5.54
8/9/2022 3:30:00 PM 26.2 79.16 0.59 7.68 2.58 5.61
8/9/2022 3:45:00 PM 26.21 79.17799 0.589 7.66 2.9 5.55
8/9/2022 4:00:00 PM 26.23 79.214 0.589 7.67 2.57 5.52
8/9/2022 4:15:00 PM 26.26 79.268 0.589 7.67 3.87 5.46
8/9/2022 4:30:00 PM 26.29 79.32201 0.588 7.66 2.39 5.5
8/9/2022 4:45:00 PM 26.33 79.394 0.588 7.67 2.37 5.52
8/9/2022 5:00:00 PM 26.36 79.448 0.588 7.66 4.45 5.47
8/9/2022 5:15:00 PM 26.39 79.502 0.588 7.68 2.8 5.42
8/9/2022 5:30:00 PM 26.43 79.574 0.588 7.66 3.44 5.51
8/9/2022 5:45:00 PM 26.5 79.7 0.587 7.65 2.7 5.59
8/9/2022 6:00:00 PM 26.53 79.754 0.587 7.62 2.46 5.53
8/9/2022 6:15:00 PM 26.51 79.718 0.587 7.58 2.39 5.59
8/9/2022 6:30:00 PM 26.5 79.7 0.586 7.56 3.06 5.6
8/9/2022 6:45:00 PM 26.47 79.646 0.586 7.58 3.09 5.54
8/9/2022 7:00:00 PM 26.47 79.646 0.586 7.56 2.91 5.54
8/9/2022 7:15:00 PM 26.47 79.646 0.585 7.58 3.91 5.57
8/9/2022 7:30:00 PM 26.48 79.664 0.585 7.59 3.31 5.6
8/9/2022 7:45:00 PM 26.47 79.646 0.584 7.58 3.08 5.57
8/9/2022 8:00:00 PM 26.44 79.592 0.584 7.58 3.86 5.55
8/9/2022 8:15:00 PM 26.44 79.592 0.584 7.55 4.8 5.4
8/9/2022 8:30:00 PM 26.43 79.574 0.584 7.57 5.86 5.21
8/9/2022 8:45:00 PM 26.44 79.592 0.583 7.56 3.71 4.99
8/9/2022 9:00:00 PM 26.45 79.61 0.581 7.55 2.62 4.79
8/9/2022 9:15:00 PM 26.4 79.52 0.581 7.55 3.05 4.58
8/9/2022 9:30:00 PM 26.35 79.43 0.581 7.54 4.45 4.53
8/9/2022 9:45:00 PM 26.33 79.394 0.58 7.55 4.19 4.5
8/9/2022 10:00:00 PM 26.29 79.32201 0.58 7.54 4.18 4.41
8/9/2022 10:15:00 PM 26.25 79.25 0.579 7.55 3.32 4.43
8/9/2022 10:30:00 PM 26.22 79.196 0.578 7.55 3.65 4.37
8/9/2022 10:45:00 PM 26.15 79.07 0.578 7.54 4.02 4.31
8/9/2022 11:00:00 PM 26.07 78.926 0.578 7.53 4.61 4.23
8/9/2022 11:15:00 PM 26.02 78.836 0.577 7.52 4.15 4.22
8/9/2022 11:30:00 PM 25.91 78.638 0.578 7.5 4.44 4.14
8/9/2022 11:45:00 PM 25.84 78.512 0.577 7.51 5.98 4.12
8/10/2022 12:00:00 AM 25.75 78.35 0.576 7.5 4.33 4.07
8/10/2022 12:15:00 AM 25.71 78.278 0.576 7.51 3.97 4.03
8/10/2022 12:30:00 AM 25.66 78.188 0.576 7.49 4.46 3.95
8/10/2022 12:45:00 AM 25.61 78.098 0.576 7.5 3.37 3.96
8/10/2022 1:00:00 AM 25.57 78.026 0.576 7.5 4.09 3.92
8/10/2022 1:15:00 AM 25.54 77.972 0.576 7.49 4.99 3.87
8/10/2022 1:30:00 AM 25.45 77.81 0.577 7.48 3.56 3.8
8/10/2022 1:45:00 AM 25.39 77.702 0.578 7.47 4.73 3.73
8/10/2022 2:00:00 AM 25.36 77.648 0.578 7.47 3.46 3.6
8/10/2022 2:15:00 AM 25.28 77.504 0.578 7.47 3.96 3.58
8/10/2022 2:30:00 AM 25.25 77.45 0.579 7.47 3.95 3.54
8/10/2022 2:45:00 AM 25.2 77.36 0.579 7.44 3.42 3.46
8/10/2022 3:00:00 AM 25.16 77.288 0.58 7.44 4.29 3.36
8/10/2022 3:15:00 AM 25.1 77.18 0.58 7.43 3.6 3.39
8/10/2022 3:30:00 AM 25.06 77.108 0.58 7.45 5.58 3.35
8/10/2022 3:45:00 AM 25.03 77.054 0.581 7.43 7.19 3.34
8/10/2022 4:00:00 AM 24.94 76.892 0.581 7.44 5.09 3.27
8/10/2022 4:15:00 AM 24.86 76.748 0.581 7.42 5.63 3.25
8/10/2022 4:30:00 AM 24.81 76.658 0.582 7.43 4.86 3.22
8/10/2022 4:45:00 AM 24.75 76.55 0.582 7.43 4.81 3.18
8/10/2022 5:00:00 AM 24.72 76.496 0.583 7.43 4.21 3.13
8/10/2022 5:15:00 AM 24.64 76.352 0.582 7.44 4.55 3.16
8/10/2022 5:30:00 AM 24.6 76.28 0.582 7.44 3.94 3.11
8/10/2022 5:45:00 AM 24.53 76.154 0.583 7.43 4.73 3.11
8/10/2022 6:00:00 AM 24.43 75.974 0.583 7.41 4.14 3.12
8/10/2022 6:15:00 AM 24.36 75.848 0.583 7.43 4.52 3.07
8/10/2022 6:30:00 AM 24.29 75.722 0.584 7.42 4.79 3.12
8/10/2022 6:45:00 AM 24.2 75.56 0.584 7.43 4.8 3.1
8/10/2022 7:00:00 AM 24.18 75.524 0.584 7.4 4.31 3.11
8/10/2022 7:15:00 AM 24.16 75.488 0.585 7.42 6.49 3.18
8/10/2022 7:30:00 AM 24.15 75.47 0.585 7.42 5.76 3.29
8/10/2022 7:45:00 AM 24.2 75.56 0.585 7.43 7.22 3.28
8/10/2022 8:00:00 AM 24.12 75.416 0.586 7.43 5.34 3.61
8/10/2022 8:15:00 AM 24.14 75.452 0.586 7.45 5.06 3.94
8/10/2022 8:30:00 AM 24.17 75.506 0.586 7.46 5.27 4.08
8/10/2022 8:45:00 AM 24.18 75.524 0.587 7.45 5.36 4.46
8/10/2022 9:00:00 AM 24.23 75.614 0.587 7.48 5.39 4.58
8/10/2022 9:15:00 AM 24.28 75.704 0.587 7.48 5.27 4.86
8/10/2022 9:30:00 AM 24.32 75.776 0.587 7.49 4.89 5.08
8/10/2022 9:45:00 AM 24.33 75.794 0.587 7.49 5.25 5.31
8/10/2022 10:00:00 AM 24.34 75.812 0.587 7.51 5.23 5.2
8/10/2022 10:15:00 AM 24.32 75.776 0.587 7.51 4.02 5.26
8/10/2022 10:30:00 AM 24.31 75.758 0.587 7.51 3.8 5.47
8/10/2022 10:45:00 AM 24.32 75.776 0.587 7.5 3.46 5.64
8/10/2022 11:00:00 AM 24.38 75.884 0.587 7.52 3.64 5.56
8/10/2022 11:15:00 AM 24.43 75.974 0.587 7.55 3.36 5.52
8/10/2022 11:30:00 AM 24.44 75.992 0.586 7.56 2.78 5.61
8/10/2022 11:45:00 AM 24.42 75.956 0.587 7.54 3.17 5.87
8/10/2022 12:00:00 PM 24.45 76.01 0.587 7.55 2.89 6.04
8/10/2022 12:15:00 PM 24.49 76.082 0.587 7.54 3.24 6.21
8/10/2022 12:30:00 PM 24.54 76.172 0.587 7.55 5.94 6.4
8/10/2022 12:45:00 PM 24.57 76.226 0.587 7.56 2.73 6.12
8/10/2022 1:00:00 PM 24.59 76.262 0.587 7.57 2.44 6.03
8/10/2022 1:15:00 PM 24.61 76.298 0.586 7.55 2.15 5.97
8/10/2022 1:30:00 PM 24.7 76.46 0.587 7.57 3.05 6.41
8/10/2022 1:45:00 PM 24.88 76.784 0.586 7.57 3.39 6.57
8/10/2022 2:00:00 PM 25.05 77.09 0.586 7.6 2.7 6.44
8/10/2022 2:15:00 PM 25.12 77.216 0.585 7.61 3.08 6.43
8/10/2022 2:30:00 PM 25.12 77.216 0.583 7.65 2.52 6.16
8/10/2022 2:45:00 PM 25.16 77.288 0.583 7.67 2.55 6.07
8/10/2022 3:00:00 PM 25.12 77.216 0.583 7.66 2.61 6.13
8/10/2022 3:15:00 PM 25.13 77.234 0.582 7.67 2.72 6.16
8/10/2022 3:30:00 PM 25.11 77.198 0.582 7.67 3.01 6.18
8/10/2022 3:45:00 PM 25.12 77.216 0.582 7.68 3.14 6.16
8/10/2022 4:00:00 PM 25.09 77.162 0.581 7.66 3.31 6.05
8/10/2022 4:15:00 PM 25.08 77.144 0.581 7.68 2.61 6.1
8/10/2022 4:30:00 PM 25.06 77.108 0.581 7.66 5.81 6.08
8/10/2022 4:45:00 PM 25.01 77.018 0.585 7.59 2.42 6.17
8/10/2022 5:00:00 PM 24.88 76.784 0.587 7.52 2.84 6.12
8/10/2022 5:15:00 PM 24.73 76.514 0.587 7.5 2.98 6.02
8/10/2022 5:30:00 PM 24.61 76.298 0.587 7.5 3 5.83
8/10/2022 5:45:00 PM 24.52 76.136 0.587 7.47 2.73 5.69
8/10/2022 6:00:00 PM 24.44 75.992 0.587 7.49 2.74 5.6
8/10/2022 6:15:00 PM 24.37 75.866 0.586 7.45 5.82 5.44
8/10/2022 6:30:00 PM 24.34 75.812 0.586 7.45 2.55 5.33
8/10/2022 6:45:00 PM 24.29 75.722 0.585 7.45 3.15 5.28
8/10/2022 7:00:00 PM 24.22 75.596 0.586 7.44 2.96 5.13
8/10/2022 7:15:00 PM 24.17 75.506 0.585 7.45 2.89 5.02
8/10/2022 7:30:00 PM 24.08 75.344 0.585 7.42 2.86 4.86
8/10/2022 7:45:00 PM 24.04 75.272 0.585 7.43 3.86 4.73
8/10/2022 8:00:00 PM 23.97 75.146 0.585 7.41 3.01 4.59
8/10/2022 8:15:00 PM 23.91 75.038 0.585 7.42 3 4.44
8/10/2022 8:30:00 PM 23.87 74.966 0.584 7.42 3.1 4.33
8/10/2022 8:45:00 PM 23.91 75.038 0.582 7.42 4.13 4.34
8/10/2022 9:00:00 PM 23.91 75.038 0.581 7.44 2.73 4.25
8/10/2022 9:15:00 PM 23.9 75.02 0.581 7.43 3.1 4.19
8/10/2022 9:30:00 PM 23.86 74.948 0.582 7.41 3.99 4.03
8/10/2022 9:45:00 PM 23.82 74.876 0.582 7.41 4.21 4.02
8/10/2022 10:00:00 PM 23.76 74.768 0.581 7.42 4.11 3.93
8/10/2022 10:15:00 PM 23.78 74.804 0.58 7.42 3.91 3.97
8/10/2022 10:30:00 PM 23.73 74.714 0.58 7.42 3.2 3.88
8/10/2022 10:45:00 PM 23.71 74.67799 0.579 7.4 3.02 3.88
8/10/2022 11:00:00 PM 23.68 74.624 0.58 7.41 3.09 3.85
8/10/2022 11:15:00 PM 23.67 74.606 0.579 7.4 3.36 3.78
8/10/2022 11:30:00 PM 23.64 74.552 0.578 7.41 3.22 3.81
8/10/2022 11:45:00 PM 23.63 74.534 0.578 7.42 3.44 3.76
8/11/2022 12:00:00 AM 23.64 74.552 0.577 7.43 2.74 3.74
8/11/2022 12:15:00 AM 23.63 74.534 0.576 7.44 3.31 3.7
8/11/2022 12:30:00 AM 23.63 74.534 0.576 7.43 2.79 3.63
8/11/2022 12:45:00 AM 23.62 74.516 0.575 7.44 2.8 3.69
8/11/2022 1:00:00 AM 23.57 74.426 0.577 7.39 4.15 3.5
8/11/2022 1:15:00 AM 23.6 74.48 0.575 7.43 3.58 3.52
8/11/2022 1:30:00 AM 23.57 74.426 0.575 7.44 3.23 3.54
8/11/2022 1:45:00 AM 23.54 74.372 0.575 7.43 3.4 3.44
8/11/2022 2:00:00 AM 23.54 74.372 0.576 7.39 4.34 3.3
8/11/2022 2:15:00 AM 23.49 74.282 0.575 7.42 5.69 3.28
8/11/2022 2:30:00 AM 23.45 74.21 0.576 7.39 6 3.17
8/11/2022 2:45:00 AM 23.46 74.228 0.575 7.42 7.81 3.23
8/11/2022 3:00:00 AM 23.43 74.174 0.574 7.43 4.15 3.17
8/11/2022 3:15:00 AM 23.4 74.12 0.576 7.4 6.62 3.03
8/11/2022 3:30:00 AM 23.38 74.084 0.577 7.38 8.56 2.95
8/11/2022 3:45:00 AM 23.34 74.012 0.575 7.42 6.83 2.99
8/11/2022 4:00:00 AM 23.3 73.94 0.577 7.39 8.02 2.92
8/11/2022 4:15:00 AM 23.26 73.868 0.575 7.41 4.42 2.98
8/11/2022 4:30:00 AM 23.25 73.85 0.577 7.4 7.36 2.84
8/11/2022 4:45:00 AM 23.23 73.814 0.577 7.37 7.41 2.77
8/11/2022 5:00:00 AM 23.2 73.76 0.575 7.42 7.26 2.82
8/11/2022 5:15:00 AM 23.19 73.742 0.576 7.41 8.92 2.84
8/11/2022 5:30:00 AM 23.15 73.67 0.576 7.43 5.56 2.86
8/11/2022 5:45:00 AM 23.13 73.634 0.576 7.44 3.79 2.81
8/11/2022 6:00:00 AM 23.09 73.562 0.576 7.4 4.27 2.73
8/11/2022 6:15:00 AM 23.06 73.508 0.577 7.41 5.67 2.64
8/11/2022 6:30:00 AM 23.01 73.418 0.578 7.37 5.88 2.57
8/11/2022 6:45:00 AM 22.98 73.364 0.579 7.38 6.06 2.52
8/11/2022 7:00:00 AM 22.96 73.328 0.58 7.38 7.82 2.49
8/11/2022 7:15:00 AM 22.96 73.328 0.58 7.37 7.26 2.52
8/11/2022 7:30:00 AM 22.94 73.292 0.58 7.37 4.49 2.75
8/11/2022 7:45:00 AM 22.97 73.346 0.58 7.39 6.05 2.78
8/11/2022 8:00:00 AM 23 73.4 0.58 7.39 4.14 3.01
8/11/2022 8:15:00 AM 23.06 73.508 0.58 7.41 3.81 3.07
8/11/2022 8:30:00 AM 23.11 73.598 0.579 7.42 3.92 3.2
8/11/2022 8:45:00 AM 23.15 73.67 0.582 7.38 3.02 3.5
8/11/2022 9:00:00 AM 23.23 73.814 0.582 7.38 3.15 3.73
8/11/2022 9:15:00 AM 23.3 73.94 0.582 7.42 3.21 3.8
8/11/2022 9:30:00 AM 23.4 74.12 0.582 7.39 3.33 4.05
8/11/2022 9:45:00 AM 23.57 74.426 0.581 7.44 2.89 4.21
8/11/2022 10:00:00 AM 23.8 74.84 0.58 7.48 2.56 4.37
8/11/2022 10:15:00 AM 23.92 75.056 0.58 7.47 4.96 4.4
8/11/2022 10:30:00 AM 24.04 75.272 0.577 7.48 3.76 4.55
8/11/2022 10:45:00 AM 24.12 75.416 0.566 7.55 3.84 4.62
8/11/2022 11:00:00 AM 24.16 75.488 0.563 7.59 3.19 4.67
8/11/2022 11:15:00 AM 24.25 75.65 0.558 7.62 3.78 5.01
8/11/2022 11:30:00 AM 24.34 75.812 0.554 7.63 4.08 5.32
8/11/2022 11:45:00 AM 24.37 75.866 0.554 7.64 4.11 5.49
8/11/2022 12:00:00 PM 24.5 76.1 0.555 7.66 4.29 5.69
8/11/2022 12:15:00 PM 24.62 76.316 0.566 7.67 3.17 5.45
8/11/2022 12:30:00 PM 24.68 76.424 0.57 7.67 3.04 5.37
8/11/2022 12:45:00 PM 24.76 76.568 0.571 7.69 2.73 5.47
8/11/2022 1:00:00 PM 24.77 76.586 0.572 7.67 2.67 5.44
8/11/2022 1:15:00 PM 24.81 76.658 0.572 7.69 2.61 5.5
8/11/2022 1:30:00 PM 24.84 76.712 0.573 7.68 2.78 5.55
8/11/2022 1:45:00 PM 24.83 76.694 0.573 7.67 3.04 5.54
8/11/2022 2:00:00 PM 24.8 76.64 0.574 7.69 2.63 5.52
8/11/2022 2:15:00 PM 24.78 76.604 0.574 7.65 3.07 5.49
8/11/2022 2:30:00 PM 24.73 76.514 0.575 7.66 3.63 5.42
8/11/2022 2:45:00 PM 24.63 76.334 0.576 7.67 2.92 5.38
8/11/2022 3:00:00 PM 24.62 76.316 0.576 7.67 2.58 5.47
8/11/2022 3:15:00 PM 24.57 76.226 0.577 7.66 2.48 5.45
8/11/2022 3:30:00 PM 24.5 76.1 0.577 7.67 2.54 5.44
8/11/2022 3:45:00 PM 24.45 76.01 0.577 7.63 2.42 5.42
8/11/2022 4:00:00 PM 24.36 75.848 0.578 7.65 3.75 5.28
8/11/2022 4:15:00 PM 24.3 75.74 0.578 7.63 2.66 5.33
8/11/2022 4:30:00 PM 24.29 75.722 0.578 7.65 3.93 5.39
8/11/2022 4:45:00 PM 24.27 75.686 0.578 7.64 2.67 5.44
8/11/2022 5:00:00 PM 24.25 75.65 0.58 7.57 2.77 5.5
8/11/2022 5:15:00 PM 24.15 75.47 0.583 7.48 2.44 5.39
8/11/2022 5:30:00 PM 23.96 75.128 0.586 7.46 3.19 5.52
8/11/2022 5:45:00 PM 23.82 74.876 0.587 7.45 3.26 5.59
8/11/2022 6:00:00 PM 23.71 74.67799 0.588 7.44 3.72 5.58
8/11/2022 6:15:00 PM 23.6 74.48 0.586 7.45 3.1 5.45
8/11/2022 6:30:00 PM 23.41 74.138 0.588 7.41 3.24 5.47
8/11/2022 6:45:00 PM 23.31 73.958 0.588 7.42 3.52 5.43
8/11/2022 7:00:00 PM 23.27 73.886 0.587 7.4 3.3 5.32
8/11/2022 7:15:00 PM 23.17 73.706 0.587 7.43 3.77 5.08
8/11/2022 7:30:00 PM 22.98 73.364 0.587 7.41 3.38 4.99
8/11/2022 7:45:00 PM 22.89 73.202 0.588 7.38 4.59 4.9
8/11/2022 8:00:00 PM 22.83 73.094 0.588 7.4 4.35 4.76
8/11/2022 8:15:00 PM 22.76 72.968 0.586 7.4 3.63 4.68
8/11/2022 8:30:00 PM 22.67 72.806 0.586 7.39 3.54 4.38
8/11/2022 8:45:00 PM 22.64 72.752 0.584 7.38 3.45 4.24
8/11/2022 9:00:00 PM 22.61 72.698 0.584 7.41 4.77 4.18
8/11/2022 9:15:00 PM 22.56 72.608 0.584 7.39 4.5 4.09
8/11/2022 9:30:00 PM 22.5 72.5 0.583 7.38 4.05 3.93
8/11/2022 9:45:00 PM 22.44 72.392 0.583 7.39 4.18 3.86
8/11/2022 10:00:00 PM 22.4 72.32 0.582 7.41 3.65 3.83
8/11/2022 10:15:00 PM 22.36 72.248 0.582 7.4 3.36 3.77
8/11/2022 10:30:00 PM 22.33 72.194 0.581 7.39 3.11 3.77
8/11/2022 10:45:00 PM 22.34 72.212 0.58 7.39 3.44 3.79
8/11/2022 11:00:00 PM 22.35 72.23 0.58 7.42 2.91 3.75
8/11/2022 11:15:00 PM 22.37 72.266 0.578 7.44 3.05 3.86
8/11/2022 11:30:00 PM 22.35 72.23 0.577 7.42 2.54 3.8
8/11/2022 11:45:00 PM 22.33 72.194 0.578 7.41 3.48 3.66
8/12/2022 12:00:00 AM 22.37 72.266 0.576 7.44 3.18 3.75
8/12/2022 12:15:00 AM 22.32 72.176 0.578 7.41 4.52 3.58
8/12/2022 12:30:00 AM 22.37 72.266 0.576 7.45 3.16 3.67
8/12/2022 12:45:00 AM 22.39 72.302 0.575 7.46 2.88 3.67
8/12/2022 1:00:00 AM 22.35 72.23 0.577 7.43 2.95 3.48
8/12/2022 1:15:00 AM 22.36 72.248 0.576 7.44 3.27 3.49
8/12/2022 1:30:00 AM 22.35 72.23 0.576 7.43 3.92 3.47
8/12/2022 1:45:00 AM 22.32 72.176 0.576 7.42 3.53 3.42
8/12/2022 2:00:00 AM 22.32 72.176 0.576 7.43 4.58 3.42
8/12/2022 2:15:00 AM 22.32 72.176 0.576 7.44 3.81 3.48
8/12/2022 2:30:00 AM 22.36 72.248 0.574 7.46 3.75 3.56
8/12/2022 2:45:00 AM 22.33 72.194 0.575 7.45 2.87 3.52
8/12/2022 3:00:00 AM 22.36 72.248 0.575 7.43 3.43 3.42
8/12/2022 3:15:00 AM 22.33 72.194 0.575 7.43 4.13 3.3
8/12/2022 3:30:00 AM 22.3 72.14 0.576 7.43 4.57 3.23
8/12/2022 3:45:00 AM 22.31 72.158 0.575 7.44 3.8 3.27
8/12/2022 4:00:00 AM 22.29 72.122 0.575 7.44 3.47 3.2
8/12/2022 4:15:00 AM 22.27 72.086 0.576 7.43 3.42 3.19
8/12/2022 4:30:00 AM 22.28 72.104 0.576 7.45 3.24 3.27
8/12/2022 4:45:00 AM 22.27 72.086 0.575 7.44 4.72 3.22
8/12/2022 5:00:00 AM 22.27 72.086 0.575 7.45 4.12 3.22
8/12/2022 5:15:00 AM 22.28 72.104 0.575 7.44 3.53 3.17
8/12/2022 5:30:00 AM 22.25 72.05 0.576 7.43 3.15 3.16
8/12/2022 5:45:00 AM 22.23 72.014 0.577 7.42 3.23 3.11
8/12/2022 6:00:00 AM 22.22 71.996 0.577 7.41 2.8 3.14
8/12/2022 6:15:00 AM 22.18 71.924 0.577 7.42 4.18 3.11
8/12/2022 6:30:00 AM 22.17 71.906 0.579 7.41 6.79 2.96
8/12/2022 6:45:00 AM 22.16 71.888 0.577 7.43 4.93 2.99
8/12/2022 7:00:00 AM 22.16 71.888 0.578 7.45 5.5 2.94
8/12/2022 7:15:00 AM 22.15 71.87 0.578 7.44 3.66 3.1
8/12/2022 7:30:00 AM 22.2 71.96 0.577 7.46 3.2 3.19
8/12/2022 7:45:00 AM 22.21 71.978 0.578 7.42 3.5 3.2
8/12/2022 8:00:00 AM 22.26 72.068 0.578 7.46 2.67 3.34
8/12/2022 8:15:00 AM 22.3 72.14 0.58 7.4 3.7 3.43
8/12/2022 8:30:00 AM 22.36 72.248 0.581 7.4 3.49 3.59
8/12/2022 8:45:00 AM 22.45 72.41 0.58 7.42 5.54 3.6
8/12/2022 9:00:00 AM 22.46 72.42799 0.58 7.42 3.53 3.63
8/12/2022 9:15:00 AM 22.49 72.482 0.579 7.42 4.84 3.68
8/12/2022 9:30:00 AM 22.47 72.446 0.58 7.42 4.76 3.69
8/12/2022 9:45:00 AM 22.54 72.57201 0.58 7.44 4.85 4.04
8/12/2022 10:00:00 AM 22.83 73.094 0.578 7.48 3.72 4.24
8/12/2022 10:15:00 AM 23.14 73.652 0.577 7.54 2.64 4.14
8/12/2022 10:30:00 AM 23.35 74.03 0.577 7.53 3.18 4.5
8/12/2022 10:45:00 AM 23.58 74.444 0.573 7.53 4.75 4.86
8/12/2022 11:00:00 AM 23.64 74.552 0.559 7.56 4.43 4.81
8/12/2022 11:15:00 AM 23.64 74.552 0.548 7.58 5.21 5.13
8/12/2022 11:30:00 AM 23.76 74.768 0.548 7.57 5.39 5.22
8/12/2022 11:45:00 AM 24 75.2 0.548 7.6 6.14 5.6
8/12/2022 12:00:00 PM 24.16 75.488 0.549 7.59 5.53 5.55
8/12/2022 12:15:00 PM 24.26 75.668 0.555 7.62 4.98 5.51
8/12/2022 12:30:00 PM 24.35 75.83 0.555 7.63 5.39 5.7
8/12/2022 12:45:00 PM 24.45 76.01 0.557 7.62 5.05 5.88
8/12/2022 1:00:00 PM 24.49 76.082 0.563 7.61 4.69 5.6
8/12/2022 1:15:00 PM 24.55 76.19 0.567 7.62 3.6 5.46
8/12/2022 1:30:00 PM 24.57 76.226 0.568 7.63 3.74 5.45
8/12/2022 1:45:00 PM 24.59 76.262 0.569 7.61 3.41 5.39
8/12/2022 2:00:00 PM 24.53 76.154 0.57 7.63 5.62 5.38
8/12/2022 2:15:00 PM 24.39 75.902 0.572 7.62 3.84 5.31
8/12/2022 2:30:00 PM 24.37 75.866 0.571 7.63 2.84 5.45
8/12/2022 2:45:00 PM 24.35 75.83 0.572 7.63 8.66 5.5
8/12/2022 3:00:00 PM 24.33 75.794 0.573 7.6 4.68 5.44
8/12/2022 3:15:00 PM 24.25 75.65 0.573 7.63 3.09 5.53
8/12/2022 3:30:00 PM 24.09 75.362 0.573 7.63 2.86 5.51
8/12/2022 3:45:00 PM 24.08 75.344 0.574 7.62 2.72 5.52
8/12/2022 4:00:00 PM 23.91 75.038 0.575 7.62 2.6 5.41
8/12/2022 4:15:00 PM 23.79 74.82201 0.575 7.6 2.43 5.4
8/12/2022 4:30:00 PM 23.73 74.714 0.576 7.62 3.82 5.39
8/12/2022 4:45:00 PM 23.64 74.552 0.576 7.6 3.02 5.37
8/12/2022 5:00:00 PM 23.5 74.3 0.576 7.6 2.59 5.39
8/12/2022 5:15:00 PM 23.39 74.102 0.577 7.57 2.48 5.4
8/12/2022 5:30:00 PM 23.29 73.922 0.582 7.47 3.48 5.31
8/12/2022 5:45:00 PM 23.12 73.616 0.585 7.41 15.58 5.27
8/12/2022 6:00:00 PM 22.92 73.256 0.586 7.43 3.06 5.21
8/12/2022 6:15:00 PM 22.77 72.986 0.585 7.43 2.92 5.23
8/12/2022 6:30:00 PM 22.61 72.698 0.584 7.45 2.95 5.14
8/12/2022 6:45:00 PM 22.48 72.464 0.584 7.44 3.04 5.06
8/12/2022 7:00:00 PM 22.36 72.248 0.585 7.41 3.28 5.04
8/12/2022 7:15:00 PM 22.22 71.996 0.584 7.43 2.85 4.98
8/12/2022 7:30:00 PM 22.1 71.78 0.584 7.45 2.94 4.97
8/12/2022 7:45:00 PM 22 71.6 0.584 7.45 2.95 4.98
8/12/2022 8:00:00 PM 21.89 71.402 0.586 7.42 3.77 4.77
8/12/2022 8:15:00 PM 21.79 71.222 0.587 7.38 4.16 4.6
8/12/2022 8:30:00 PM 21.71 71.078 0.586 7.39 3.75 4.57
8/12/2022 8:45:00 PM 21.62 70.916 0.586 7.42 3.77 4.64
8/12/2022 9:00:00 PM 21.57 70.826 0.585 7.42 3.18 4.7
8/12/2022 9:15:00 PM 21.48 70.664 0.585 7.43 5.09 4.62
8/12/2022 9:30:00 PM 21.39 70.502 0.585 7.41 5 4.48
8/12/2022 9:45:00 PM 21.31 70.358 0.584 7.42 4.99 4.51
8/12/2022 10:00:00 PM 21.25 70.25 0.584 7.42 4.58 4.28
8/12/2022 10:15:00 PM 21.19 70.142 0.584 7.43 4.54 4.23
8/12/2022 10:30:00 PM 21.11 69.998 0.584 7.39 3.61 4.08
8/12/2022 10:45:00 PM 21.08 69.944 0.584 7.4 4.23 4.12
8/12/2022 11:00:00 PM 21.06 69.908 0.583 7.42 4.84 4.09
8/12/2022 11:15:00 PM 21.02 69.836 0.582 7.41 3.92 4.07
8/12/2022 11:30:00 PM 21.02 69.836 0.582 7.43 5.94 4.17
8/12/2022 11:45:00 PM 20.97 69.746 0.581 7.41 5.04 4.02
8/13/2022 12:00:00 AM 20.94 69.692 0.581 7.43 5.32 4.07
8/13/2022 12:15:00 AM 20.92 69.656 0.581 7.42 7.9 3.98
8/13/2022 12:30:00 AM 20.91 69.638 0.579 7.45 4.14 3.99
8/13/2022 12:45:00 AM 20.91 69.638 0.579 7.45 5.83 3.95
8/13/2022 1:00:00 AM 20.89 69.602 0.581 7.41 8.23 3.81
8/13/2022 1:15:00 AM 20.89 69.602 0.579 7.43 4.76 3.85
8/13/2022 1:30:00 AM 20.85 69.53 0.58 7.44 6.08 3.85
8/13/2022 1:45:00 AM 20.84 69.512 0.58 7.44 3.89 3.85
8/13/2022 2:00:00 AM 20.91 69.638 0.578 7.45 3.06 3.99
8/13/2022 2:15:00 AM 20.9 69.62 0.577 7.46 3.28 3.92
8/13/2022 2:30:00 AM 20.89 69.602 0.577 7.48 4.64 3.88
8/13/2022 2:45:00 AM 20.87 69.566 0.578 7.45 5.33 3.78
8/13/2022 3:00:00 AM 20.86 69.548 0.577 7.47 4 3.81
8/13/2022 3:15:00 AM 20.85 69.53 0.578 7.46 5.93 3.75
8/13/2022 3:30:00 AM 20.86 69.548 0.576 7.49 5 3.8
8/13/2022 3:45:00 AM 20.83 69.494 0.577 7.45 4.49 3.71
8/13/2022 4:00:00 AM 20.82 69.476 0.577 7.47 3.63 3.67
8/13/2022 4:15:00 AM 20.81 69.458 0.577 7.45 5.51 3.63
8/13/2022 4:30:00 AM 20.79 69.422 0.577 7.47 5.08 3.57
8/13/2022 4:45:00 AM 20.79 69.422 0.577 7.47 4.58 3.54
8/13/2022 5:00:00 AM 20.79 69.422 0.577 7.46 4.87 3.5
8/13/2022 5:15:00 AM 20.82 69.476 0.577 7.45 4.23 3.45
8/13/2022 5:30:00 AM 20.78 69.404 0.578 7.46 6.32 3.41
8/13/2022 5:45:00 AM 20.77 69.386 0.578 7.46 5.45 3.38
8/13/2022 6:00:00 AM 20.74 69.332 0.578 7.46 4.13 3.48
8/13/2022 6:15:00 AM 20.71 69.278 0.578 7.45 5.59 3.38
8/13/2022 6:30:00 AM 20.72 69.296 0.579 7.45 6.5 3.22
8/13/2022 6:45:00 AM 20.7 69.26 0.58 7.41 8.53 3.14
8/13/2022 7:00:00 AM 20.7 69.26 0.58 7.43 10.4 3.09
8/13/2022 7:15:00 AM 20.7 69.26 0.579 7.46 7.12 3.24
8/13/2022 7:30:00 AM 20.75 69.35 0.578 7.47 5.37 3.23
8/13/2022 7:45:00 AM 20.8 69.44 0.578 7.49 3.46 3.37
8/13/2022 8:00:00 AM 20.78 69.404 0.58 7.43 7.27 3.47
8/13/2022 8:15:00 AM 20.87 69.566 0.581 7.43 5.39 3.47
8/13/2022 8:30:00 AM 20.99 69.782 0.581 7.43 4.97 3.7
8/13/2022 8:45:00 AM 21.07 69.926 0.581 7.48 13.85 3.9
8/13/2022 9:00:00 AM 21.14 70.052 0.58 7.48 6.34 3.87
8/13/2022 9:15:00 AM 21.12 70.016 0.581 7.46 7.74 3.91
8/13/2022 9:30:00 AM 21.22 70.196 0.581 7.49 3.37 3.81
8/13/2022 9:45:00 AM 21.44 70.592 0.581 7.47 3.28 3.84
8/13/2022 10:00:00 AM 21.8 71.24 0.581 7.48 2.17 4.07
8/13/2022 10:15:00 AM 22.26 72.068 0.58 7.53 1.92 4.17
8/13/2022 10:30:00 AM 22.44 72.392 0.579 7.53 2.57 4.46
8/13/2022 10:45:00 AM 22.72 72.896 0.579 7.53 3.44 4.84
8/13/2022 11:00:00 AM 22.78 73.004 0.578 7.56 5.02 4.95
8/13/2022 11:15:00 AM 22.83 73.094 0.569 7.58 4.07 5.17
8/13/2022 11:30:00 AM 22.92 73.256 0.564 7.6 4.32 5.44
8/13/2022 11:45:00 AM 23.14 73.652 0.567 7.61 3.42 5.47
8/13/2022 12:00:00 PM 23.32 73.976 0.566 7.62 4.23 5.63
8/13/2022 12:15:00 PM 23.53 74.354 0.56 7.63 5.03 5.98
8/13/2022 12:30:00 PM 23.69 74.642 0.56 7.61 5.42 6.06
8/13/2022 12:45:00 PM 23.67 74.606 0.559 7.65 5.49 6.29
8/13/2022 1:00:00 PM 23.73 74.714 0.56 7.64 5.8 6.35
8/13/2022 1:15:00 PM 23.74 74.732 0.569 7.66 4.45 6.08
8/13/2022 1:30:00 PM 23.77 74.786 0.57 7.66 4.08 6.05
8/13/2022 1:45:00 PM 23.89 75.002 0.571 7.63 4.36 5.95
8/13/2022 2:00:00 PM 23.87 74.966 0.574 7.64 4.34 5.94
8/13/2022 2:15:00 PM 24.07 75.326 0.574 7.64 4.97 5.83
8/13/2022 2:30:00 PM 23.97 75.146 0.575 7.61 3.64 5.93
8/13/2022 2:45:00 PM 23.78 74.804 0.576 7.65 2.84 5.97
8/13/2022 3:00:00 PM 23.65 74.57 0.577 7.65 26.83 5.92
8/13/2022 3:15:00 PM 23.64 74.552 0.577 7.65 3.44 5.92
8/13/2022 3:30:00 PM 23.55 74.39 0.577 7.63 4.41 5.91
8/13/2022 3:45:00 PM 23.47 74.246 0.577 7.65 3.37 5.89
8/13/2022 4:00:00 PM 23.38 74.084 0.578 7.64 4.72 5.99
8/13/2022 4:15:00 PM 23.26 73.868 0.578 7.63 2.75 5.9
8/13/2022 4:30:00 PM 23.24 73.832 0.578 7.63 2.65 5.92
8/13/2022 4:45:00 PM 23.05 73.49 0.578 7.63 2.56 5.91
8/13/2022 5:00:00 PM 22.91 73.238 0.579 7.6 3.62 5.78
8/13/2022 5:15:00 PM 22.85 73.13 0.579 7.61 2.77 5.85
8/13/2022 5:30:00 PM 22.76 72.968 0.579 7.56 2.86 5.79
8/13/2022 5:45:00 PM 22.72 72.896 0.585 7.46 2.75 5.63
8/13/2022 6:00:00 PM 22.6 72.68 0.587 7.45 3.2 5.48
8/13/2022 6:15:00 PM 22.43 72.374 0.588 7.43 3.45 5.21
8/13/2022 6:30:00 PM 22.25 72.05 0.586 7.45 2.7 5.17
8/13/2022 6:45:00 PM 22.07 71.726 0.586 7.46 2.75 5.11
8/13/2022 7:00:00 PM 21.92 71.456 0.586 7.43 7.39 4.91
8/13/2022 7:15:00 PM 21.84 71.312 0.587 7.44 3.01 4.94
8/13/2022 7:30:00 PM 21.71 71.078 0.587 7.42 2.95 4.93
8/13/2022 7:45:00 PM 21.61 70.898 0.588 7.42 2.97 4.7
8/13/2022 8:00:00 PM 21.51 70.718 0.588 7.39 4.54 4.67
8/13/2022 8:15:00 PM 21.42 70.556 0.588 7.42 3.69 4.66
8/13/2022 8:30:00 PM 21.3 70.34 0.588 7.4 3.42 4.69
8/13/2022 8:45:00 PM 21.2 70.16 0.588 7.43 3.65 4.58
8/13/2022 9:00:00 PM 21.08 69.944 0.588 7.39 5.2 4.52
8/13/2022 9:15:00 PM 21.02 69.836 0.589 7.4 4.14 4.36
8/13/2022 9:30:00 PM 20.91 69.638 0.589 7.37 4.54 4.26
8/13/2022 9:45:00 PM 20.81 69.458 0.589 7.38 4.25 4.18
8/13/2022 10:00:00 PM 20.74 69.332 0.589 7.36 4.21 4.06
8/13/2022 10:15:00 PM 20.65 69.17 0.59 7.38 4.49 4.03
8/13/2022 10:30:00 PM 20.55 68.99 0.59 7.38 4.49 3.95
8/13/2022 10:45:00 PM 20.46 68.828 0.589 7.37 3.99 3.89
8/13/2022 11:00:00 PM 20.42 68.756 0.59 7.37 4.48 3.77
8/13/2022 11:15:00 PM 20.37 68.666 0.589 7.38 5.47 3.91
8/13/2022 11:30:00 PM 20.31 68.558 0.588 7.37 5.42 3.92
8/13/2022 11:45:00 PM 20.24 68.432 0.588 7.39 4.7 3.91
8/14/2022 12:00:00 AM 20.19 68.342 0.588 7.37 6.96 3.85
8/14/2022 12:15:00 AM 20.18 68.324 0.587 7.39 5.92 3.82
8/14/2022 12:30:00 AM 20.17 68.306 0.586 7.39 13.73 3.84
8/14/2022 12:45:00 AM 20.12 68.216 0.586 7.38 6.81 3.74
8/14/2022 1:00:00 AM 20.08 68.144 0.585 7.41 6.18 3.71
8/14/2022 1:15:00 AM 20.06 68.108 0.585 7.39 7.1 3.61
8/14/2022 1:30:00 AM 20.06 68.108 0.585 7.4 4.96 3.56
8/14/2022 1:45:00 AM 20.06 68.108 0.584 7.41 6.14 3.62
8/14/2022 2:00:00 AM 20.05 68.09 0.584 7.42 7.54 3.57
8/14/2022 2:15:00 AM 20.04 68.07201 0.584 7.39 6.23 3.52
8/14/2022 2:30:00 AM 20.04 68.07201 0.583 7.4 4.98 3.51
8/14/2022 2:45:00 AM 20.05 68.09 0.583 7.42 4.07 3.41
8/14/2022 3:00:00 AM 20.06 68.108 0.582 7.44 6.14 3.44
8/14/2022 3:15:00 AM 20.07 68.126 0.582 7.42 4.8 3.43
8/14/2022 3:30:00 AM 20.06 68.108 0.582 7.43 5.09 3.4
8/14/2022 3:45:00 AM 20.05 68.09 0.581 7.43 4.75 3.41
8/14/2022 4:00:00 AM 20.04 68.07201 0.582 7.45 4.16 3.41
8/14/2022 4:30:00 AM 20.07 68.126 0.582 7.45 3.63 3.28
8/14/2022 4:45:00 AM 20.09 68.162 0.581 7.45 3.4 3.2
8/14/2022 5:00:00 AM 20.12 68.216 0.581 7.43 3.26 3.16
8/14/2022 5:15:00 AM 20.14 68.252 0.581 7.44 3.45 3.14
8/14/2022 5:30:00 AM 20.18 68.324 0.582 7.46 12.36 3.09
8/14/2022 5:45:00 AM 20.22 68.396 0.581 7.45 8.61 3.03
8/14/2022 6:00:00 AM 20.22 68.396 0.582 7.46 3.28 3.06
8/14/2022 6:15:00 AM 20.22 68.396 0.582 7.43 2.98 3.06
8/14/2022 6:30:00 AM 20.21 68.378 0.582 7.46 4.12 2.98
8/14/2022 6:45:00 AM 20.22 68.396 0.582 7.44 3 2.99
8/14/2022 7:00:00 AM 20.23 68.414 0.583 7.48 4.42 3.03
8/14/2022 7:15:00 AM 20.3 68.54 0.583 7.45 3.09 2.99
8/14/2022 7:30:00 AM 20.34 68.612 0.583 7.46 3.41 3.11
8/14/2022 7:45:00 AM 20.38 68.684 0.583 7.48 3.3 3.12
8/14/2022 8:00:00 AM 20.41 68.738 0.584 7.46 2.94 3.24
8/14/2022 8:15:00 AM 20.45 68.81 0.585 7.44 3.03 3.35
8/14/2022 8:30:00 AM 20.53 68.954 0.585 7.45 4.38 3.49
8/14/2022 8:45:00 AM 20.65 69.17 0.584 7.47 3.3 3.58
8/14/2022 9:00:00 AM 20.72 69.296 0.584 7.49 3.97 3.54
8/14/2022 9:15:00 AM 20.75 69.35 0.585 7.47 3.67 3.66
8/14/2022 9:30:00 AM 20.86 69.548 0.585 7.47 2.29 3.62
8/14/2022 9:45:00 AM 21.04 69.872 0.586 7.49 2.52 3.68
8/14/2022 10:00:00 AM 21.27 70.286 0.586 7.48 2.22 3.87
8/14/2022 10:15:00 AM 21.53 70.754 0.586 7.5 2.54 4.26
8/14/2022 10:30:00 AM 21.61 70.898 0.586 7.48 3.9 4.48
8/14/2022 10:45:00 AM 21.76 71.168 0.585 7.5 3.38 4.57
8/14/2022 11:00:00 AM 21.93 71.474 0.583 7.54 3.51 4.72
8/14/2022 11:15:00 AM 22.17 71.906 0.58 7.56 3.04 4.74
8/14/2022 11:30:00 AM 22.33 72.194 0.576 7.55 3.33 4.82
8/14/2022 11:45:00 AM 22.49 72.482 0.571 7.56 3.92 5.23
8/14/2022 12:00:00 PM 22.67 72.806 0.57 7.58 4.42 5.33
8/14/2022 12:15:00 PM 22.76 72.968 0.569 7.59 4.08 5.71
8/14/2022 12:30:00 PM 22.9 73.22 0.569 7.58 3.8 5.63
8/14/2022 12:45:00 PM 23.05 73.49 0.57 7.59 4.39 5.67
8/14/2022 1:00:00 PM 23.15 73.67 0.569 7.6 9.49 5.93
8/14/2022 1:15:00 PM 23.17 73.706 0.571 7.6 4.11 5.8
8/14/2022 1:30:00 PM 23.22 73.796 0.57 7.62 4.34 6.1
8/14/2022 1:45:00 PM 23.25 73.85 0.571 7.63 4.52 6.34
8/14/2022 2:00:00 PM 23.3 73.94 0.573 7.64 4.13 6.25
8/14/2022 2:15:00 PM 23.27 73.886 0.577 7.63 3.42 6.04
8/14/2022 2:30:00 PM 23.29 73.922 0.579 7.62 3.23 5.91
8/14/2022 2:45:00 PM 23.32 73.976 0.581 7.6 2.86 5.73
8/14/2022 3:00:00 PM 23.28 73.904 0.581 7.6 2.67 5.73
8/14/2022 3:15:00 PM 23.37 74.066 0.581 7.63 7.49 5.85
8/14/2022 3:30:00 PM 23.25 73.85 0.581 7.6 2.89 5.77
8/14/2022 3:45:00 PM 23.22 73.796 0.582 7.59 2.58 5.78
8/14/2022 4:00:00 PM 23.18 73.724 0.583 7.62 2.41 5.77
8/14/2022 4:15:00 PM 23.07 73.526 0.583 7.59 2.47 5.79
8/14/2022 4:30:00 PM 23.04 73.472 0.583 7.6 2.66 5.82
8/14/2022 4:45:00 PM 23.02 73.436 0.583 7.59 2.69 5.89
8/14/2022 5:00:00 PM 22.93 73.274 0.583 7.59 2.58 5.87
8/14/2022 5:15:00 PM 22.85 73.13 0.584 7.58 2.39 5.93
8/14/2022 5:30:00 PM 22.79 73.022 0.584 7.55 2.29 5.97
8/14/2022 5:45:00 PM 22.77 72.986 0.586 7.54 2.44 6.04
8/14/2022 6:00:00 PM 22.73 72.914 0.586 7.52 2.69 6.1
8/14/2022 6:15:00 PM 22.62 72.716 0.585 7.57 2.79 6.09
8/14/2022 6:30:00 PM 22.51 72.518 0.585 7.59 2.8 6.28
8/14/2022 6:45:00 PM 22.34 72.212 0.583 7.65 2.53 6.63
8/14/2022 7:00:00 PM 22.29 72.122 0.585 7.56 2.76 6.3
8/14/2022 7:15:00 PM 22.23 72.014 0.584 7.57 2.61 6.45
8/14/2022 7:30:00 PM 22.16 71.888 0.587 7.5 2.84 5.85
8/14/2022 7:45:00 PM 22.08 71.744 0.588 7.48 2.78 5.62
8/14/2022 8:00:00 PM 21.99 71.582 0.587 7.47 2.97 5.55
8/14/2022 8:15:00 PM 21.89 71.402 0.588 7.46 2.67 5.34
8/14/2022 8:30:00 PM 21.8 71.24 0.589 7.45 3.09 5.16
8/14/2022 8:45:00 PM 21.69 71.042 0.589 7.41 2.72 4.9
8/14/2022 9:00:00 PM 21.61 70.898 0.589 7.42 2.69 4.84
8/14/2022 9:15:00 PM 21.53 70.754 0.59 7.41 2.98 4.71
8/14/2022 9:30:00 PM 21.44 70.592 0.59 7.4 3.16 4.51
8/14/2022 9:45:00 PM 21.35 70.43 0.59 7.37 2.9 4.27
8/14/2022 10:00:00 PM 21.28 70.304 0.591 7.38 3.34 4.12
8/14/2022 10:15:00 PM 21.21 70.17799 0.592 7.33 3.13 4.02
8/14/2022 10:30:00 PM 21.14 70.052 0.592 7.36 3.07 3.9
8/14/2022 10:45:00 PM 21.07 69.926 0.592 7.36 3.49 3.88
8/14/2022 11:00:00 PM 21 69.8 0.593 7.35 3.9 3.74
8/14/2022 11:15:00 PM 20.92 69.656 0.593 7.33 4 3.7
8/14/2022 11:30:00 PM 20.84 69.512 0.594 7.33 4.56 3.67
8/14/2022 11:45:00 PM 20.76 69.368 0.594 7.32 5.19 3.6
8/15/2022 12:00:00 AM 20.69 69.242 0.594 7.33 4.62 3.5
8/15/2022 12:15:00 AM 20.63 69.134 0.593 7.31 6.27 3.45
8/15/2022 12:30:00 AM 20.58 69.044 0.593 7.35 6.95 3.49
8/15/2022 12:45:00 AM 20.5 68.9 0.591 7.34 4.72 3.51
8/15/2022 1:00:00 AM 20.45 68.81 0.59 7.36 5.3 3.44
8/15/2022 1:15:00 AM 20.43 68.774 0.59 7.35 5.61 3.54
8/15/2022 1:30:00 AM 20.4 68.72 0.588 7.37 5.96 3.49
8/15/2022 1:45:00 AM 20.39 68.702 0.586 7.39 4.64 3.56
8/15/2022 2:00:00 AM 20.36 68.648 0.585 7.39 4.49 3.58
8/15/2022 2:15:00 AM 20.33 68.594 0.585 7.38 4.62 3.53
8/15/2022 2:30:00 AM 20.33 68.594 0.586 7.4 4.9 3.42
8/15/2022 2:45:00 AM 20.35 68.63 0.585 7.41 4.17 3.39
8/15/2022 3:00:00 AM 20.39 68.702 0.584 7.4 3.61 3.46
8/15/2022 3:15:00 AM 20.4 68.72 0.584 7.42 3.4 3.35
8/15/2022 3:30:00 AM 20.43 68.774 0.584 7.42 3.16 3.34
8/15/2022 3:45:00 AM 20.46 68.828 0.584 7.43 2.86 3.23
8/15/2022 4:00:00 AM 20.47 68.846 0.584 7.42 3.26 2.99
8/15/2022 4:15:00 AM 20.51 68.918 0.584 7.42 4.43 3.15
8/15/2022 4:30:00 AM 20.51 68.918 0.585 7.4 3.07 3.06
8/15/2022 4:45:00 AM 20.53 68.954 0.585 7.41 3.6 3.06
8/15/2022 5:00:00 AM 20.55 68.99 0.585 7.4 2.44 2.97
8/15/2022 5:15:00 AM 20.57 69.026 0.585 7.42 3.27 2.99
8/15/2022 5:30:00 AM 20.56 69.008 0.585 7.41 2.95 2.96
8/15/2022 5:45:00 AM 20.58 69.044 0.585 7.42 3.71 2.94
8/15/2022 6:00:00 AM 20.59 69.062 0.586 7.43 2.96 2.81
8/15/2022 6:15:00 AM 20.6 69.08 0.586 7.43 2.5 2.73
8/15/2022 6:30:00 AM 20.59 69.062 0.586 7.41 3.76 2.73
8/15/2022 6:45:00 AM 20.62 69.116 0.585 7.44 3.64 2.79
8/15/2022 7:00:00 AM 20.6 69.08 0.585 7.47 3.33 2.89
8/15/2022 7:15:00 AM 20.6 69.08 0.587 7.44 4.81 2.8
8/15/2022 7:30:00 AM 20.64 69.152 0.587 7.44 3.16 2.83
8/15/2022 7:45:00 AM 20.7 69.26 0.587 7.43 2.97 2.98
8/15/2022 8:00:00 AM 20.72 69.296 0.588 7.43 4.01 2.89
8/15/2022 8:15:00 AM 20.77 69.386 0.588 7.41 3.65 3.07
8/15/2022 8:30:00 AM 20.81 69.458 0.588 7.42 3.05 3.38
8/15/2022 8:45:00 AM 20.9 69.62 0.588 7.45 2.53 3.48
8/15/2022 9:00:00 AM 20.97 69.746 0.588 7.44 2.47 3.55
8/15/2022 9:15:00 AM 21.03 69.854 0.589 7.43 2.51 3.78
8/15/2022 9:30:00 AM 21.13 70.034 0.59 7.44 2.16 3.75
8/15/2022 9:45:00 AM 21.28 70.304 0.589 7.46 2.05 3.99
8/15/2022 10:00:00 AM 21.49 70.682 0.588 7.48 9.64 4.12
8/15/2022 10:15:00 AM 21.7 71.06 0.588 7.5 3.41 4.38
8/15/2022 10:30:00 AM 21.87 71.366 0.588 7.49 3.36 4.52
8/15/2022 10:45:00 AM 22.08 71.744 0.587 7.5 3.45 4.83
8/15/2022 11:00:00 AM 22.29 72.122 0.584 7.52 3.14 4.63
8/15/2022 11:15:00 AM 22.36 72.248 0.58 7.52 3.39 4.6
8/15/2022 11:30:00 AM 22.44 72.392 0.578 7.53 12.67 4.69
8/15/2022 11:45:00 AM 22.49 72.482 0.575 7.52 4.57 4.88
8/15/2022 12:00:00 PM 22.61 72.698 0.575 7.53 4.4 5.25
8/15/2022 12:15:00 PM 22.67 72.806 0.574 7.56 4.08 5.11
8/15/2022 12:30:00 PM 22.83 73.094 0.577 7.55 5.09 5.38
8/15/2022 12:45:00 PM 22.81 73.058 0.577 7.58 3.84 5.07
8/15/2022 1:00:00 PM 22.81 73.058 0.574 7.58 4.57 5.34
8/15/2022 1:15:00 PM 22.95 73.31 0.577 7.57 4.27 5.32
8/15/2022 1:30:00 PM 22.89 73.202 0.577 7.59 3.9 5.38
8/15/2022 1:45:00 PM 22.94 73.292 0.574 7.58 4.57 5.84
8/15/2022 2:00:00 PM 22.94 73.292 0.578 7.59 3.74 5.77
8/15/2022 2:15:00 PM 22.96 73.328 0.575 7.58 4.26 6
8/15/2022 2:30:00 PM 23 73.4 0.579 7.59 3.61 5.87
8/15/2022 2:45:00 PM 22.93 73.274 0.579 7.6 3.46 5.89
8/15/2022 3:00:00 PM 22.88 73.184 0.581 7.61 3.37 5.85
8/15/2022 3:15:00 PM 22.85 73.13 0.582 7.58 3.26 5.65
8/15/2022 3:30:00 PM 22.81 73.058 0.585 7.54 2.89 5.31
8/15/2022 3:45:00 PM 22.74 72.932 0.585 7.53 3.35 5.27
8/15/2022 4:00:00 PM 22.63 72.734 0.586 7.47 3.63 5.13
8/15/2022 4:15:00 PM 22.54 72.57201 0.587 7.45 3.33 5.2
8/15/2022 4:30:00 PM 22.45 72.41 0.587 7.48 3.3 5.15
8/15/2022 4:45:00 PM 22.4 72.32 0.586 7.47 3.27 5.16
8/15/2022 5:00:00 PM 22.32 72.176 0.587 7.46 2.94 5.13
8/15/2022 5:15:00 PM 22.25 72.05 0.588 7.45 2.96 4.99
8/15/2022 5:30:00 PM 22.18 71.924 0.588 7.44 3.02 4.93
8/15/2022 5:45:00 PM 22.11 71.798 0.588 7.45 3.1 4.92
8/15/2022 6:00:00 PM 22.04 71.672 0.589 7.41 3.67 4.66
8/15/2022 6:15:00 PM 22 71.6 0.589 7.41 3.02 4.62
8/15/2022 6:30:00 PM 21.93 71.474 0.59 7.41 2.85 4.65
8/15/2022 6:45:00 PM 21.86 71.348 0.591 7.39 3.12 4.44
8/15/2022 7:00:00 PM 21.8 71.24 0.592 7.35 3.15 4.41
8/15/2022 7:15:00 PM 21.75 71.15 0.592 7.36 3.09 4.3
8/15/2022 7:30:00 PM 21.69 71.042 0.592 7.35 3.53 4.15
8/15/2022 7:45:00 PM 21.63 70.934 0.592 7.37 3.29 4.09
8/15/2022 8:00:00 PM 21.57 70.826 0.593 7.36 3.23 4.04
8/15/2022 8:15:00 PM 21.52 70.736 0.594 7.33 4.36 3.88
8/15/2022 8:30:00 PM 21.45 70.61 0.594 7.33 3.95 3.86
8/15/2022 8:45:00 PM 21.41 70.538 0.594 7.35 5.06 3.76
8/15/2022 9:00:00 PM 21.36 70.448 0.594 7.32 5.54 3.72
8/15/2022 9:15:00 PM 21.29 70.32201 0.594 7.36 5.17 3.81
8/15/2022 9:30:00 PM 21.24 70.232 0.594 7.34 5.26 3.65
8/15/2022 9:45:00 PM 21.18 70.124 0.594 7.35 4.71 3.63
8/15/2022 10:00:00 PM 21.13 70.034 0.595 7.33 4.95 3.55
8/15/2022 10:15:00 PM 21.07 69.926 0.594 7.34 4.26 3.55
8/15/2022 10:30:00 PM 21.02 69.836 0.594 7.33 5.26 3.34
8/15/2022 10:45:00 PM 20.95 69.71 0.595 7.33 7.24 3.27
8/15/2022 11:00:00 PM 20.92 69.656 0.594 7.34 6.94 3.3
8/15/2022 11:15:00 PM 20.87 69.566 0.594 7.35 6.42 3.28
8/15/2022 11:30:00 PM 20.82 69.476 0.593 7.35 6 3.21
8/15/2022 11:45:00 PM 20.8 69.44 0.592 7.36 5.91 3.2
8/16/2022 12:00:00 AM 20.77 69.386 0.592 7.36 5.38 3.2
8/16/2022 12:15:00 AM 20.75 69.35 0.591 7.37 5.22 3.2
8/16/2022 12:30:00 AM 20.72 69.296 0.591 7.37 6.01 3.21
8/16/2022 12:45:00 AM 20.7 69.26 0.59 7.37 5.52 3.19
8/16/2022 1:00:00 AM 20.67 69.206 0.59 7.36 4.93 3.11
8/16/2022 1:15:00 AM 20.64 69.152 0.589 7.34 4.12 3.09
8/16/2022 1:30:00 AM 20.63 69.134 0.589 7.35 4.05 3.07
8/16/2022 1:45:00 AM 20.61 69.098 0.589 7.37 4.12 3.05
8/16/2022 2:00:00 AM 20.6 69.08 0.589 7.38 4.05 2.97
8/16/2022 2:15:00 AM 20.59 69.062 0.589 7.36 3.86 2.99
8/16/2022 2:30:00 AM 20.59 69.062 0.463 7.39 4.46 2.98
8/16/2022 2:45:00 AM 20.57 69.026 0.588 7.37 4.14 2.94
8/16/2022 3:00:00 AM 20.57 69.026 0.589 7.37 4.55 2.83
8/16/2022 3:15:00 AM 20.58 69.044 0.589 7.38 4.3 2.88
8/16/2022 3:30:00 AM 20.57 69.026 0.589 7.4 4.25 2.87
8/16/2022 3:45:00 AM 20.57 69.026 0.588 7.38 4.99 2.84
8/16/2022 4:00:00 AM 20.56 69.008 0.589 7.38 5.37 2.81
8/16/2022 4:15:00 AM 20.56 69.008 0.589 7.4 6.36 2.73
8/16/2022 4:30:00 AM 20.54 68.972 0.589 7.38 5.58 2.73
8/16/2022 4:45:00 AM 20.53 68.954 0.589 7.38 6.15 2.71
8/16/2022 5:00:00 AM 20.52 68.936 0.59 7.4 7.94 2.69
8/16/2022 5:15:00 AM 20.51 68.918 0.59 7.39 7.28 2.7
8/16/2022 5:30:00 AM 20.47 68.846 0.59 7.41 7.34 2.67
8/16/2022 5:45:00 AM 20.47 68.846 0.59 7.4 8.23 2.67
8/16/2022 6:00:00 AM 20.46 68.828 0.59 7.42 12.32 2.7
8/16/2022 6:15:00 AM 20.43 68.774 0.591 7.41 7.1 2.62
8/16/2022 6:30:00 AM 20.43 68.774 0.591 7.41 4.34 2.63
8/16/2022 6:45:00 AM 20.45 68.81 0.591 7.43 10.44 2.55
8/16/2022 7:00:00 AM 20.45 68.81 0.592 7.41 11.04 2.53
8/16/2022 7:15:00 AM 20.43 68.774 0.592 7.42 8.15 2.5
8/16/2022 7:30:00 AM 20.41 68.738 0.592 7.42 4.36 2.69
8/16/2022 7:45:00 AM 20.43 68.774 0.592 7.41 6.72 2.66
8/16/2022 8:00:00 AM 20.46 68.828 0.593 7.43 6.35 2.58
8/16/2022 8:15:00 AM 20.5 68.9 0.593 7.43 2.21 2.64
8/16/2022 8:30:00 AM 20.53 68.954 0.592 7.44 3.17 3.15
8/16/2022 8:45:00 AM 20.59 69.062 0.593 7.45 2.5 3.13
8/16/2022 9:00:00 AM 20.66 69.188 0.594 7.42 1.93 3.27
8/16/2022 9:15:00 AM 20.8 69.44 0.594 7.45 2.93 3.52
8/16/2022 9:30:00 AM 20.9 69.62 0.593 7.44 1.96 3.48
8/16/2022 9:45:00 AM 21.04 69.872 0.593 7.47 3.25 3.56
8/16/2022 10:00:00 AM 21.17 70.106 0.593 7.48 3.83 4.02
8/16/2022 10:15:00 AM 21.26 70.268 0.593 7.48 2.95 4
8/16/2022 10:30:00 AM 21.3 70.34 0.593 7.49 2.37 4.03
8/16/2022 10:45:00 AM 21.38 70.484 0.592 7.51 2.75 4.37
8/16/2022 11:00:00 AM 21.45 70.61 0.592 7.51 3.18 4.48
8/16/2022 11:15:00 AM 21.52 70.736 0.591 7.52 3.28 4.61
8/16/2022 11:30:00 AM 21.61 70.898 0.591 7.5 3.13 4.6
8/16/2022 11:45:00 AM 21.76 71.168 0.591 7.48 2.65 4.48
8/16/2022 12:00:00 PM 21.82 71.276 0.585 7.52 3.39 4.85
8/16/2022 12:15:00 PM 21.94 71.492 0.582 7.55 3.19 4.86
8/16/2022 12:30:00 PM 22.04 71.672 0.58 7.56 3.42 5.12
8/16/2022 12:45:00 PM 22.15 71.87 0.581 7.55 3.39 5.2
8/16/2022 1:00:00 PM 22.23 72.014 0.58 7.58 3.63 5.41
8/16/2022 1:15:00 PM 22.55 72.59 0.584 7.56 5.55 5.97
8/16/2022 1:30:00 PM 22.65 72.77 0.58 7.58 4.37 6
8/16/2022 1:45:00 PM 22.68 72.824 0.579 7.59 4.29 5.89
8/16/2022 2:00:00 PM 22.72 72.896 0.576 7.61 4.25 6.07
8/16/2022 2:15:00 PM 22.78 73.004 0.58 7.59 3.6 6.08
8/16/2022 2:30:00 PM 22.77 72.986 0.581 7.62 3.96 6.3
8/16/2022 2:45:00 PM 22.83 73.094 0.583 7.64 3.71 6.4
8/16/2022 3:00:00 PM 22.9 73.22 0.583 7.65 3.86 6.18
8/16/2022 3:15:00 PM 23.2 73.76 0.582 7.61 5.38 6.65
8/16/2022 3:30:00 PM 22.95 73.31 0.585 7.63 3.88 6.57
8/16/2022 3:45:00 PM 22.78 73.004 0.586 7.61 2.94 6.32
8/16/2022 4:00:00 PM 22.74 72.932 0.587 7.62 5.49 6.32
8/16/2022 4:15:00 PM 22.77 72.986 0.588 7.61 3.19 6.37
8/16/2022 4:30:00 PM 22.65 72.77 0.589 7.6 2.73 6.49
8/16/2022 4:45:00 PM 22.52 72.536 0.589 7.59 2.46 6.44
8/16/2022 5:00:00 PM 22.54 72.57201 0.59 7.56 3.2 6.24
8/16/2022 5:15:00 PM 22.47 72.446 0.59 7.58 3.28 6.13
8/16/2022 5:30:00 PM 22.31 72.158 0.59 7.59 2.6 6.12
8/16/2022 5:45:00 PM 22.17 71.906 0.591 7.59 2.6 6.01
8/16/2022 6:00:00 PM 22.08 71.744 0.591 7.55 3.82 5.79
8/16/2022 6:15:00 PM 22 71.6 0.593 7.5 2.68 5.58
8/16/2022 6:30:00 PM 21.89 71.402 0.593 7.5 2.64 5.45
8/16/2022 6:45:00 PM 21.78 71.204 0.594 7.47 2.98 5.18
8/16/2022 7:00:00 PM 21.68 71.024 0.595 7.45 2.8 5.14
8/16/2022 7:15:00 PM 21.58 70.844 0.595 7.44 2.89 5.04
8/16/2022 7:30:00 PM 21.51 70.718 0.596 7.4 3.22 4.88
8/16/2022 7:45:00 PM 21.42 70.556 0.596 7.4 3.01 4.89
8/16/2022 8:00:00 PM 21.34 70.412 0.596 7.42 3.3 4.86
8/16/2022 8:15:00 PM 21.27 70.286 0.597 7.39 3.3 4.81
8/16/2022 8:30:00 PM 21.18 70.124 0.596 7.38 5.09 4.62
8/16/2022 8:45:00 PM 21.11 69.998 0.596 7.43 3.7 4.67
8/16/2022 9:00:00 PM 21.05 69.89 0.597 7.38 3.52 4.6
8/16/2022 9:15:00 PM 20.97 69.746 0.597 7.4 3.82 4.51
8/16/2022 9:30:00 PM 20.9 69.62 0.597 7.36 3.57 4.38
8/16/2022 9:45:00 PM 20.85 69.53 0.598 7.4 4.11 4.16
8/16/2022 10:00:00 PM 20.79 69.422 0.598 7.38 4.55 4.13
8/16/2022 10:15:00 PM 20.73 69.314 0.597 7.39 4.11 4.1
8/16/2022 10:30:00 PM 20.68 69.224 0.598 7.37 4.7 4.07
8/16/2022 10:45:00 PM 20.6 69.08 0.597 7.38 6.88 3.94
8/16/2022 11:00:00 PM 20.57 69.026 0.598 7.35 5.79 3.89
8/16/2022 11:15:00 PM 20.54 68.972 0.598 7.36 5.61 3.8
8/16/2022 11:30:00 PM 20.5 68.9 0.597 7.37 6.09 3.83
8/16/2022 11:45:00 PM 20.46 68.828 0.597 7.38 5.83 3.74
8/17/2022 12:00:00 AM 20.4 68.72 0.597 7.35 6.41 3.63
8/17/2022 12:15:00 AM 20.35 68.63 0.597 7.38 6.64 3.57
8/17/2022 12:30:00 AM 20.3 68.54 0.596 7.36 6.29 3.55
8/17/2022 12:45:00 AM 20.24 68.432 0.595 7.38 6.2 3.56
8/17/2022 1:00:00 AM 20.17 68.306 0.595 7.38 4.83 3.4
8/17/2022 1:15:00 AM 20.12 68.216 0.595 7.36 3.92 3.29
8/17/2022 1:30:00 AM 20.08 68.144 0.595 7.35 3.95 3.23
8/17/2022 1:45:00 AM 20.05 68.09 0.595 7.38 3.4 3.24
8/17/2022 2:00:00 AM 20.02 68.036 0.594 7.38 3.26 3.23
8/17/2022 2:15:00 AM 20.01 68.018 0.593 7.4 3.68 3.28
8/17/2022 2:30:00 AM 20.01 68.018 0.593 7.38 4.52 3.26
8/17/2022 2:45:00 AM 20 68 0.593 7.4 4.94 3.22
8/17/2022 3:00:00 AM 19.97 67.946 0.593 7.38 4.82 3.22
8/17/2022 3:15:00 AM 19.92 67.856 0.593 7.42 4.05 3.3
8/17/2022 3:30:00 AM 19.88 67.784 0.593 7.42 4.21 3.19
8/17/2022 3:45:00 AM 19.88 67.784 0.593 7.42 5.16 3.12
8/17/2022 4:00:00 AM 19.88 67.784 0.592 7.41 3.77 3.12
8/17/2022 4:15:00 AM 19.88 67.784 0.592 7.43 2.84 3.06
8/17/2022 4:30:00 AM 19.89 67.802 0.592 7.44 2.8 3.04
8/17/2022 4:45:00 AM 19.9 67.82 0.593 7.42 3.84 2.99
8/17/2022 5:00:00 AM 19.91 67.838 0.593 7.44 3.5 3.03
8/17/2022 5:15:00 AM 19.93 67.874 0.594 7.41 3.16 2.93
8/17/2022 5:30:00 AM 19.92 67.856 0.594 7.44 3.41 2.97
8/17/2022 5:45:00 AM 19.94 67.892 0.594 7.44 2.97 2.91
8/17/2022 6:00:00 AM 19.93 67.874 0.594 7.44 3.16 3.01
8/17/2022 6:15:00 AM 19.93 67.874 0.594 7.45 3.42 3.04
8/17/2022 6:30:00 AM 19.93 67.874 0.595 7.43 3.45 2.97
8/17/2022 6:45:00 AM 19.97 67.946 0.595 7.45 2.64 2.89
8/17/2022 7:00:00 AM 19.99 67.982 0.595 7.43 5.98 2.85
8/17/2022 7:15:00 AM 19.98 67.964 0.596 7.43 4.14 2.98
8/17/2022 7:30:00 AM 19.97 67.946 0.596 7.44 3.96 2.99
8/17/2022 7:45:00 AM 20 68 0.596 7.42 3.87 2.95
8/17/2022 8:00:00 AM 20.05 68.09 0.596 7.44 3.39 2.99
8/17/2022 8:15:00 AM 20.09 68.162 0.597 7.43 3.37 3
8/17/2022 8:30:00 AM 20.22 68.396 0.597 7.43 6.9 3.29
8/17/2022 8:45:00 AM 20.27 68.486 0.597 7.45 4.21 3.3
8/17/2022 9:00:00 AM 20.34 68.612 0.597 7.45 3.23 3.3
8/17/2022 9:15:00 AM 20.43 68.774 0.598 7.42 2.36 3.47
8/17/2022 9:30:00 AM 20.53 68.954 0.599 7.38 2.45 4.04
8/17/2022 9:45:00 AM 20.59 69.062 0.599 7.4 3.06 4.26
8/17/2022 10:00:00 AM 20.64 69.152 0.598 7.42 3.75 4.43
8/17/2022 10:15:00 AM 20.79 69.422 0.597 7.46 3.49 4.47
8/17/2022 10:30:00 AM 21.04 69.872 0.597 7.5 3.75 4.61
8/17/2022 10:45:00 AM 21.2 70.16 0.597 7.47 3.05 5.11
8/17/2022 11:00:00 AM 21.46 70.628 0.596 7.49 4.13 5.18
8/17/2022 11:15:00 AM 21.33 70.394 0.587 7.5 4.11 5.15
8/17/2022 11:30:00 AM 21.39 70.502 0.585 7.51 4.53 5.16
8/17/2022 11:45:00 AM 21.48 70.664 0.584 7.49 4.32 5.12
8/17/2022 12:00:00 PM 21.62 70.916 0.584 7.53 4.89 5.29
8/17/2022 12:15:00 PM 21.68 71.024 0.581 7.51 4.7 5.62
8/17/2022 12:30:00 PM 21.76 71.168 0.585 7.54 4.4 5.52
8/17/2022 12:45:00 PM 21.79 71.222 0.583 7.52 4.41 5.51
8/17/2022 1:00:00 PM 21.96 71.528 0.582 7.53 4.74 5.84
8/17/2022 1:15:00 PM 22.08 71.744 0.585 7.57 3.37 5.5
8/17/2022 1:30:00 PM 22.33 72.194 0.586 7.54 3.93 6
8/17/2022 1:45:00 PM 22.38 72.284 0.586 7.6 3.27 5.68
8/17/2022 2:00:00 PM 22.46 72.42799 0.583 7.61 3.63 6.06
8/17/2022 2:15:00 PM 22.46 72.42799 0.585 7.62 3.32 5.98
8/17/2022 2:30:00 PM 22.39 72.302 0.582 7.62 3.9 6.22
8/17/2022 2:45:00 PM 22.03 71.654 0.557 7.69 49.73 7.08
8/17/2022 3:00:00 PM 21.43 70.574 0.537 7.68 45.83 7.28
8/17/2022 3:15:00 PM 21.01 69.818 0.513 7.72 28.99 7.48
8/17/2022 3:30:00 PM 20.84 69.512 0.498 7.68 36.69 7.38
8/17/2022 3:45:00 PM 20.82 69.476 0.503 7.68 23.66 7.07
8/17/2022 4:00:00 PM 20.88 69.584 0.506 7.64 26.67 6.96
8/17/2022 4:15:00 PM 20.86 69.548 0.512 7.6 22.56 6.64
8/17/2022 4:30:00 PM 20.89 69.602 0.522 7.55 17.11 6.23
8/17/2022 4:45:00 PM 20.97 69.746 0.532 7.57 12.73 6.18
8/17/2022 5:00:00 PM 21.06 69.908 0.54 7.56 12.19 6.22
8/17/2022 5:15:00 PM 21.12 70.016 0.541 7.57 12.13 6.24
8/17/2022 5:30:00 PM 21.2 70.16 0.544 7.56 10.56 6.13
8/17/2022 5:45:00 PM 21.29 70.32201 0.55 7.58 9.58 6.06
8/17/2022 6:00:00 PM 21.35 70.43 0.553 7.56 8.86 5.82
8/17/2022 6:15:00 PM 21.38 70.484 0.556 7.53 6.7 5.61
8/17/2022 6:30:00 PM 21.34 70.412 0.553 7.47 7.2 5.59
8/17/2022 6:45:00 PM 21.3 70.34 0.556 7.45 5.36 5.47
8/17/2022 7:00:00 PM 21.26 70.268 0.56 7.41 4.78 5.15
8/17/2022 7:15:00 PM 21.2 70.16 0.559 7.39 4.87 5.07
8/17/2022 7:30:00 PM 21.15 70.07 0.557 7.43 3.81 4.9
8/17/2022 7:45:00 PM 21.1 69.98 0.556 7.41 4.71 4.68
8/17/2022 8:00:00 PM 21.05 69.89 0.558 7.37 3.99 4.53
8/17/2022 8:15:00 PM 20.99 69.782 0.556 7.38 3.41 4.39
8/17/2022 8:30:00 PM 20.93 69.674 0.557 7.35 11.47 4.23
8/17/2022 8:45:00 PM 20.87 69.566 0.555 7.39 3.67 4.06
8/17/2022 9:00:00 PM 20.78 69.404 0.555 7.35 4.07 3.84
8/17/2022 9:15:00 PM 20.73 69.314 0.555 7.34 4.16 3.63
8/17/2022 9:30:00 PM 20.67 69.206 0.556 7.33 4.32 3.38
8/17/2022 9:45:00 PM 20.63 69.134 0.555 7.33 4.45 3.25
8/17/2022 10:00:00 PM 20.56 69.008 0.552 7.31 4.39 3.16
8/17/2022 10:15:00 PM 20.49 68.882 0.55 7.31 4.48 3.1
8/17/2022 10:30:00 PM 20.4 68.72 0.548 7.31 4.7 3
8/17/2022 10:45:00 PM 20.34 68.612 0.547 7.33 5.12 2.99
8/17/2022 11:00:00 PM 20.28 68.504 0.545 7.31 4.74 2.83
8/17/2022 11:15:00 PM 20.2 68.36 0.543 7.34 5.95 2.93
8/17/2022 11:30:00 PM 20.14 68.252 0.541 7.31 5.16 2.91
8/17/2022 11:45:00 PM 20.09 68.162 0.54 7.34 5.35 2.89
8/18/2022 12:00:00 AM 20.03 68.054 0.538 7.31 5.27 2.92
8/18/2022 12:15:00 AM 20 68 0.535 7.34 4.78 2.94
8/18/2022 12:30:00 AM 19.96 67.92799 0.534 7.32 4.85 2.93
8/18/2022 12:45:00 AM 19.93 67.874 0.533 7.34 4.66 2.92
8/18/2022 1:00:00 AM 19.91 67.838 0.533 7.36 4.46 2.93
8/18/2022 1:15:00 AM 19.89 67.802 0.533 7.34 4.98 2.91
8/18/2022 1:30:00 AM 19.88 67.784 0.533 7.35 4.43 2.89
8/18/2022 1:45:00 AM 19.86 67.748 0.533 7.32 5.64 2.86
8/18/2022 2:00:00 AM 19.86 67.748 0.533 7.35 5.91 2.91
8/18/2022 2:15:00 AM 19.85 67.73 0.532 7.33 4.64 3.05
8/18/2022 2:30:00 AM 19.85 67.73 0.532 7.35 4.59 3.06
8/18/2022 2:45:00 AM 19.86 67.748 0.531 7.38 5.61 3.13
8/18/2022 3:00:00 AM 19.86 67.748 0.532 7.36 6.01 3.2
8/18/2022 3:15:00 AM 19.84 67.712 0.535 7.37 4.28 3.39
8/18/2022 3:30:00 AM 19.82 67.676 0.537 7.36 4.45 3.3
8/18/2022 3:45:00 AM 19.8 67.64 0.539 7.38 5.47 3.47
8/18/2022 4:00:00 AM 19.77 67.586 0.538 7.39 6.05 3.71
8/18/2022 4:15:00 AM 19.73 67.514 0.538 7.42 4.35 3.88
8/18/2022 4:30:00 AM 19.7 67.46 0.54 7.43 3.85 3.85
8/18/2022 4:45:00 AM 19.68 67.424 0.542 7.44 6.07 3.86
8/18/2022 5:00:00 AM 19.66 67.388 0.545 7.46 7.63 3.99
8/18/2022 5:15:00 AM 19.63 67.334 0.547 7.44 7.7 3.98
8/18/2022 5:30:00 AM 19.62 67.316 0.549 7.45 5.99 3.88
8/18/2022 5:45:00 AM 19.58 67.244 0.552 7.46 4.34 3.95
8/18/2022 6:00:00 AM 19.55 67.19 0.553 7.46 4.76 3.84
8/18/2022 6:15:00 AM 19.53 67.154 0.555 7.46 9.06 3.84
8/18/2022 6:30:00 AM 19.53 67.154 0.555 7.44 11.56 3.76
8/18/2022 6:45:00 AM 19.53 67.154 0.556 7.43 13.19 3.6
8/18/2022 7:00:00 AM 19.54 67.172 0.558 7.44 11.13 3.64
8/18/2022 7:15:00 AM 19.52 67.136 0.56 7.45 4.41 3.68
8/18/2022 7:30:00 AM 19.51 67.118 0.562 7.46 7.46 3.86
8/18/2022 7:45:00 AM 19.51 67.118 0.562 7.43 7.21 3.95
8/18/2022 8:00:00 AM 19.53 67.154 0.563 7.46 5.95 4
8/18/2022 8:15:00 AM 19.56 67.208 0.564 7.44 3.06 4.15
8/18/2022 8:30:00 AM 19.58 67.244 0.564 7.44 4.5 4.25
8/18/2022 8:45:00 AM 19.61 67.298 0.566 7.44 3.79 4.45
8/18/2022 9:00:00 AM 19.66 67.388 0.566 7.47 3.11 4.57
8/18/2022 9:15:00 AM 19.7 67.46 0.567 7.47 2.92 4.84
8/18/2022 9:30:00 AM 19.78 67.604 0.567 7.46 3.16 4.96
8/18/2022 9:45:00 AM 19.91 67.838 0.567 7.47 2.83 5.14
8/18/2022 10:00:00 AM 20.07 68.126 0.568 7.48 2.61 5.24
8/18/2022 10:15:00 AM 20.26 68.468 0.568 7.48 2.52 5.48
8/18/2022 10:30:00 AM 20.28 68.504 0.561 7.58 3.34 5.78
8/18/2022 10:45:00 AM 20.31 68.558 0.557 7.63 3.44 6.13
8/18/2022 11:00:00 AM 20.46 68.828 0.56 7.65 5.56 6.43
8/18/2022 11:15:00 AM 20.45 68.81 0.562 7.66 2.82 6.25
8/18/2022 11:30:00 AM 20.54 68.972 0.564 7.66 2.8 6.18
8/18/2022 11:45:00 AM 20.53 68.954 0.566 7.66 2.66 6.08
8/18/2022 12:00:00 PM 20.59 69.062 0.567 7.66 2.46 6.07
8/18/2022 12:15:00 PM 20.57 69.026 0.568 7.67 2.82 5.98
8/18/2022 12:30:00 PM 20.5 68.9 0.569 7.64 2.43 5.91
8/18/2022 12:45:00 PM 20.52 68.936 0.569 7.63 3.7 5.84
8/18/2022 1:00:00 PM 20.5 68.9 0.571 7.66 2.8 5.95
8/18/2022 1:15:00 PM 20.5 68.9 0.571 7.65 2.35 5.9
8/18/2022 1:30:00 PM 20.5 68.9 0.571 7.65 2.44 5.98
8/18/2022 1:45:00 PM 20.48 68.864 0.573 7.65 2.48 6.04
8/18/2022 2:00:00 PM 20.46 68.828 0.573 7.67 2.37 6.07
8/18/2022 2:15:00 PM 20.53 68.954 0.574 7.64 2.27 5.9
8/18/2022 2:30:00 PM 20.54 68.972 0.574 7.65 2.85 6.12
8/18/2022 2:45:00 PM 20.43 68.774 0.575 7.63 2.37 6.13
8/18/2022 3:00:00 PM 20.36 68.648 0.576 7.65 2.23 6.1
8/18/2022 3:15:00 PM 20.37 68.666 0.576 7.6 21.29 6.05
8/18/2022 3:30:00 PM 20.45 68.81 0.576 7.63 2.88 6.11
8/18/2022 3:45:00 PM 20.5 68.9 0.576 7.62 2.43 6.32
8/18/2022 4:00:00 PM 20.41 68.738 0.577 7.65 2.63 6.29
8/18/2022 4:15:00 PM 20.4 68.72 0.577 7.64 2.44 6.36
8/18/2022 4:30:00 PM 20.4 68.72 0.577 7.62 2.35 6.44
8/18/2022 4:45:00 PM 20.43 68.774 0.577 7.64 2.47 6.38
8/18/2022 5:00:00 PM 20.39 68.702 0.577 7.64 3.03 6.58
8/18/2022 5:15:00 PM 20.48 68.864 0.579 7.62 3.14 6.41
8/18/2022 5:30:00 PM 20.48 68.864 0.578 7.63 2.61 6.48
8/18/2022 5:45:00 PM 20.36 68.648 0.578 7.61 2.3 6.55
8/18/2022 6:00:00 PM 20.35 68.63 0.578 7.64 2.89 6.47
8/18/2022 6:15:00 PM 20.27 68.486 0.579 7.64 2.22 6.57
8/18/2022 6:30:00 PM 20.26 68.468 0.579 7.63 2.21 6.53
8/18/2022 6:45:00 PM 20.2 68.36 0.583 7.49 1.91 5.96
8/18/2022 7:00:00 PM 20.16 68.288 0.584 7.5 2.26 5.79
8/18/2022 7:15:00 PM 20.12 68.216 0.586 7.46 1.93 5.72
8/18/2022 7:30:00 PM 20.05 68.09 0.585 7.44 4.52 5.56
8/18/2022 7:45:00 PM 19.99 67.982 0.584 7.47 2.23 5.59
8/18/2022 8:00:00 PM 19.94 67.892 0.585 7.45 2.92 5.45
8/18/2022 8:15:00 PM 19.87 67.766 0.586 7.43 2.02 5.18
8/18/2022 8:30:00 PM 19.84 67.712 0.586 7.43 2.4 5.09
8/18/2022 8:45:00 PM 19.8 67.64 0.589 7.38 2.32 4.79
8/18/2022 9:00:00 PM 19.73 67.514 0.59 7.35 2.49 4.6
8/18/2022 9:15:00 PM 19.65 67.37 0.591 7.31 2.72 4.32
8/18/2022 9:30:00 PM 19.61 67.298 0.592 7.32 2.87 4.21
8/18/2022 9:45:00 PM 19.54 67.172 0.592 7.29 3.04 4.09
8/18/2022 10:00:00 PM 19.51 67.118 0.591 7.33 2.89 4.09
8/18/2022 10:15:00 PM 19.45 67.01 0.59 7.35 3.29 4.26
8/18/2022 10:30:00 PM 19.41 66.938 0.591 7.31 3.71 4.03
8/18/2022 10:45:00 PM 19.39 66.902 0.59 7.33 4.18 4.05
8/18/2022 11:00:00 PM 19.35 66.83 0.591 7.32 4.52 4.07
8/18/2022 11:15:00 PM 19.31 66.758 0.59 7.33 4.03 4.08
8/18/2022 11:30:00 PM 19.29 66.722 0.59 7.32 3.69 4.11
8/18/2022 11:45:00 PM 19.29 66.722 0.589 7.36 3.36 4.18
8/19/2022 12:00:00 AM 19.27 66.686 0.588 7.37 4.06 4.24
8/19/2022 12:15:00 AM 19.27 66.686 0.587 7.37 3.83 4.25
8/19/2022 12:30:00 AM 19.27 66.686 0.588 7.34 3.88 4.23
8/19/2022 12:45:00 AM 19.28 66.704 0.587 7.34 3.35 4.15
8/19/2022 1:00:00 AM 19.28 66.704 0.588 7.34 4.21 4.13
8/19/2022 1:15:00 AM 19.29 66.722 0.587 7.37 3.5 4.21
8/19/2022 1:30:00 AM 19.29 66.722 0.587 7.37 3.68 4.21
8/19/2022 1:45:00 AM 19.31 66.758 0.587 7.37 3.4 4.19
8/19/2022 2:00:00 AM 19.31 66.758 0.586 7.36 4 4.2
8/19/2022 2:15:00 AM 19.32 66.776 0.586 7.36 3.68 4.16
8/19/2022 2:30:00 AM 19.33 66.794 0.586 7.38 4 4.19
8/19/2022 2:45:00 AM 19.34 66.812 0.586 7.37 3.53 4.15
8/19/2022 3:00:00 AM 19.35 66.83 0.586 7.36 3.41 4.09
8/19/2022 3:15:00 AM 19.35 66.83 0.586 7.38 3.92 3.94
8/19/2022 3:30:00 AM 19.37 66.866 0.585 7.39 3.24 4.07
8/19/2022 3:45:00 AM 19.37 66.866 0.585 7.39 3.58 4.02
8/19/2022 4:00:00 AM 19.38 66.884 0.586 7.39 4.67 3.99
8/19/2022 4:15:00 AM 19.38 66.884 0.585 7.41 3.45 3.99
8/19/2022 4:30:00 AM 19.39 66.902 0.586 7.4 2.7 4.03
8/19/2022 4:45:00 AM 19.4 66.92 0.586 7.42 3.19 3.96
8/19/2022 5:00:00 AM 19.41 66.938 0.586 7.41 3.35 3.99
8/19/2022 5:15:00 AM 19.41 66.938 0.588 7.41 2.95 3.88
8/19/2022 5:30:00 AM 19.41 66.938 0.588 7.41 3.28 3.91
8/19/2022 5:45:00 AM 19.43 66.974 0.587 7.44 4.38 3.94
8/19/2022 6:00:00 AM 19.46 67.028 0.587 7.44 4.32 4.01
8/19/2022 6:15:00 AM 19.48 67.064 0.588 7.46 8.29 4
8/19/2022 6:30:00 AM 19.46 67.028 0.589 7.4 4.56 3.84
8/19/2022 6:45:00 AM 19.46 67.028 0.588 7.43 5.73 3.81
8/19/2022 7:00:00 AM 19.44 66.992 0.588 7.45 7.54 3.89
8/19/2022 7:15:00 AM 19.44 66.992 0.589 7.45 5.65 3.87
8/19/2022 7:30:00 AM 19.47 67.046 0.59 7.45 4.69 3.99
8/19/2022 7:45:00 AM 19.5 67.1 0.59 7.45 4.16 4.01
8/19/2022 8:00:00 AM 19.54 67.172 0.59 7.45 3.65 3.99
8/19/2022 8:15:00 AM 19.57 67.226 0.591 7.42 4.2 4.23
8/19/2022 8:30:00 AM 19.63 67.334 0.592 7.44 3.35 4.29
8/19/2022 8:45:00 AM 19.69 67.442 0.592 7.47 2.8 4.19
8/19/2022 9:00:00 AM 19.74 67.532 0.592 7.47 2.55 4.26
8/19/2022 9:15:00 AM 19.78 67.604 0.592 7.47 2.85 4.41
8/19/2022 9:30:00 AM 19.89 67.802 0.593 7.47 3.68 4.62
8/19/2022 9:45:00 AM 20.02 68.036 0.593 7.48 3.59 4.87
8/19/2022 10:00:00 AM 20.27 68.486 0.593 7.49 3.74 5.14
8/19/2022 10:15:00 AM 20.54 68.972 0.592 7.54 3.43 5.6
8/19/2022 10:30:00 AM 20.66 69.188 0.591 7.51 3.3 5.59
8/19/2022 10:45:00 AM 20.69 69.242 0.581 7.51 3.62 5.81
8/19/2022 11:00:00 AM 20.77 69.386 0.575 7.57 4.08 6.07
8/19/2022 11:15:00 AM 20.87 69.566 0.574 7.62 3.52 6.43
8/19/2022 11:30:00 AM 20.98 69.764 0.578 7.67 3.17 6.58
8/19/2022 11:45:00 AM 21.06 69.908 0.583 7.67 2.85 6.47
8/19/2022 12:00:00 PM 21.2 70.16 0.588 7.69 3.19 6.45
8/19/2022 12:15:00 PM 21.31 70.358 0.589 7.67 2.49 6.52
8/19/2022 12:30:00 PM 21.35 70.43 0.59 7.71 2.51 6.59
8/19/2022 12:45:00 PM 21.51 70.718 0.593 7.67 2.67 6.46
8/19/2022 1:00:00 PM 21.5 70.7 0.593 7.7 2.43 6.61
8/19/2022 1:15:00 PM 21.52 70.736 0.596 7.72 2.21 6.59
8/19/2022 1:30:00 PM 21.56 70.808 0.596 7.71 2.23 6.71
8/19/2022 1:45:00 PM 21.52 70.736 0.596 7.73 2.32 6.77
8/19/2022 2:00:00 PM 21.57 70.826 0.596 7.72 2.97 6.66
8/19/2022 2:15:00 PM 21.6 70.88 0.598 7.7 1.92 6.43
8/19/2022 2:30:00 PM 21.61 70.898 0.599 7.7 5.85 6.37
8/19/2022 2:45:00 PM 21.48 70.664 0.597 7.7 2.43 6.64
8/19/2022 3:00:00 PM 21.43 70.574 0.599 7.67 2.18 6.59
8/19/2022 3:15:00 PM 21.38 70.484 0.599 7.68 2.8 6.55
8/19/2022 3:30:00 PM 21.4 70.52 0.6 7.66 2.32 6.42
8/19/2022 3:45:00 PM 21.41 70.538 0.601 7.69 2.65 6.47
8/19/2022 4:00:00 PM 21.39 70.502 0.601 7.69 2.35 6.49
8/19/2022 4:15:00 PM 21.43 70.574 0.601 7.65 2.22 6.4
8/19/2022 4:30:00 PM 21.42 70.556 0.602 7.66 2.32 6.43
8/19/2022 4:45:00 PM 21.41 70.538 0.602 7.63 2.08 6.42
8/19/2022 5:00:00 PM 21.38 70.484 0.602 7.62 2.06 6.36
8/19/2022 5:15:00 PM 21.33 70.394 0.604 7.49 1.86 6.21
8/19/2022 5:30:00 PM 21.19 70.142 0.604 7.41 2.79 6.05
8/19/2022 5:45:00 PM 21.05 69.89 0.605 7.39 2.49 5.91
8/19/2022 6:00:00 PM 20.96 69.728 0.605 7.39 2.98 5.71
8/19/2022 6:15:00 PM 20.85 69.53 0.606 7.38 2.44 5.61
8/19/2022 6:30:00 PM 20.73 69.314 0.607 7.36 2.63 5.34
8/19/2022 6:45:00 PM 20.68 69.224 0.607 7.34 3.01 5.25
8/19/2022 7:00:00 PM 20.61 69.098 0.607 7.34 3.08 5.18
8/19/2022 7:15:00 PM 20.58 69.044 0.608 7.33 2.99 5.13
8/19/2022 7:30:00 PM 20.58 69.044 0.608 7.31 3.18 5.08
8/19/2022 7:45:00 PM 20.53 68.954 0.609 7.31 3.4 4.91
8/19/2022 8:00:00 PM 20.51 68.918 0.608 7.29 3.2 4.87
8/19/2022 8:15:00 PM 20.54 68.972 0.609 7.32 3.29 4.89
8/19/2022 8:30:00 PM 20.51 68.918 0.609 7.36 3.13 4.76
8/19/2022 8:45:00 PM 20.48 68.864 0.609 7.33 2.99 4.73
8/19/2022 9:00:00 PM 20.43 68.774 0.609 7.34 3.19 4.62
8/19/2022 9:15:00 PM 20.38 68.684 0.609 7.33 3.38 4.57
8/19/2022 9:30:00 PM 20.34 68.612 0.609 7.34 3.99 4.44
8/19/2022 9:45:00 PM 20.32 68.576 0.609 7.33 5.41 4.35
8/19/2022 10:00:00 PM 20.3 68.54 0.609 7.37 4.17 4.5
8/19/2022 10:15:00 PM 20.28 68.504 0.608 7.37 3.68 4.54
8/19/2022 10:30:00 PM 20.27 68.486 0.608 7.4 3.3 4.52
8/19/2022 10:45:00 PM 20.27 68.486 0.607 7.41 3.01 4.49
8/19/2022 11:00:00 PM 20.29 68.522 0.608 7.42 2.94 4.44
8/19/2022 11:15:00 PM 20.3 68.54 0.607 7.41 2.94 4.44
8/19/2022 11:30:00 PM 20.31 68.558 0.607 7.42 2.73 4.42
8/19/2022 11:45:00 PM 20.32 68.576 0.607 7.42 3.05 4.39
8/20/2022 12:00:00 AM 20.33 68.594 0.607 7.41 2.54 4.29
8/20/2022 12:15:00 AM 20.35 68.63 0.607 7.37 3.1 4.25
8/20/2022 12:30:00 AM 20.37 68.666 0.607 7.39 3.02 4.25
8/20/2022 12:45:00 AM 20.41 68.738 0.607 7.42 4.22 4.32
8/20/2022 1:00:00 AM 20.39 68.702 0.606 7.44 3.62 4.31
8/20/2022 1:15:00 AM 20.37 68.666 0.606 7.43 3.01 4.22
8/20/2022 1:30:00 AM 20.39 68.702 0.606 7.41 2.34 4.04
8/20/2022 1:45:00 AM 20.41 68.738 0.607 7.42 2.54 3.98
8/20/2022 2:00:00 AM 20.46 68.828 0.606 7.4 2.51 3.92
8/20/2022 2:15:00 AM 20.48 68.864 0.606 7.41 2.34 3.79
8/20/2022 2:30:00 AM 20.5 68.9 0.606 7.42 2.79 3.79
8/20/2022 2:45:00 AM 20.5 68.9 0.606 7.4 2.23 3.75
8/20/2022 3:00:00 AM 20.5 68.9 0.606 7.43 2.84 3.7
8/20/2022 3:15:00 AM 20.52 68.936 0.606 7.41 3.15 3.65
8/20/2022 3:30:00 AM 20.54 68.972 0.607 7.42 2.63 3.63
8/20/2022 3:45:00 AM 20.56 69.008 0.606 7.42 2.47 3.59
8/20/2022 4:00:00 AM 20.53 68.954 0.607 7.39 3.15 3.51
8/20/2022 4:15:00 AM 20.56 69.008 0.607 7.39 2.47 3.44
8/20/2022 4:30:00 AM 20.53 68.954 0.608 7.36 3.24 3.34
8/20/2022 4:45:00 AM 20.56 69.008 0.607 7.39 3.01 3.38
8/20/2022 5:00:00 AM 20.54 68.972 0.608 7.38 2.98 3.28
8/20/2022 5:15:00 AM 20.54 68.972 0.608 7.37 2.93 3.2
8/20/2022 5:30:00 AM 20.56 69.008 0.609 7.38 2.94 3.18
8/20/2022 5:45:00 AM 20.56 69.008 0.609 7.38 3.21 3.14
8/20/2022 6:00:00 AM 20.56 69.008 0.609 7.38 3.14 3.1
8/20/2022 6:15:00 AM 20.56 69.008 0.61 7.36 2.75 3.04
8/20/2022 6:30:00 AM 20.55 68.99 0.609 7.37 3.7 3.04
8/20/2022 6:45:00 AM 20.51 68.918 0.61 7.34 3.7 2.98
8/20/2022 7:00:00 AM 20.52 68.936 0.61 7.34 4.1 2.91
8/20/2022 7:15:00 AM 20.52 68.936 0.611 7.35 3.08 3.01
8/20/2022 7:30:00 AM 20.61 69.098 0.611 7.38 4.1 3.08
8/20/2022 7:45:00 AM 20.65 69.17 0.611 7.32 3.46 3.23
8/20/2022 8:00:00 AM 20.75 69.35 0.611 7.35 3.18 3.49
8/20/2022 8:15:00 AM 20.8 69.44 0.612 7.32 2.32 3.74
8/20/2022 8:30:00 AM 20.91 69.638 0.612 7.31 2.28 4.03
8/20/2022 8:45:00 AM 20.94 69.692 0.612 7.3 2.95 4.28
8/20/2022 9:00:00 AM 20.99 69.782 0.612 7.32 3.36 4.28
8/20/2022 9:15:00 AM 21.1 69.98 0.612 7.33 3.24 4.4
8/20/2022 9:30:00 AM 21.22 70.196 0.612 7.32 3.12 4.71
8/20/2022 9:45:00 AM 21.45 70.61 0.612 7.34 2.71 4.6
8/20/2022 10:00:00 AM 21.74 71.132 0.612 7.33 2.81 4.99
8/20/2022 10:15:00 AM 21.68 71.024 0.589 7.41 5.41 5.7
8/20/2022 10:30:00 AM 21.84 71.312 0.59 7.42 4.08 5.71
8/20/2022 10:45:00 AM 21.92 71.456 0.585 7.48 4.26 5.43
8/20/2022 11:00:00 AM 22.06 71.708 0.58 7.45 4.21 5.69
8/20/2022 11:15:00 AM 22.18 71.924 0.573 7.5 4.52 5.86
8/20/2022 11:30:00 AM 22.45 72.41 0.577 7.52 3.87 5.87
8/20/2022 11:45:00 AM 22.52 72.536 0.578 7.51 3.86 5.64
8/20/2022 12:00:00 PM 22.75 72.95 0.576 7.56 4.78 6.22
8/20/2022 12:15:00 PM 22.82 73.076 0.578 7.59 4.19 6.27
8/20/2022 12:30:00 PM 22.93 73.274 0.59 7.59 3.27 5.74
8/20/2022 12:45:00 PM 22.96 73.328 0.589 7.59 2.93 5.82
8/20/2022 1:00:00 PM 23.15 73.67 0.589 7.56 3.19 5.95
8/20/2022 1:15:00 PM 23.08 73.544 0.587 7.59 3.81 6.29
8/20/2022 1:30:00 PM 23.14 73.652 0.589 7.61 3.38 6.3
8/20/2022 1:45:00 PM 23.18 73.724 0.592 7.61 3.04 6.16
8/20/2022 2:00:00 PM 23.2 73.76 0.594 7.61 3.42 6.26
8/20/2022 2:15:00 PM 23.16 73.688 0.596 7.58 5.79 6.36
8/20/2022 2:30:00 PM 23.12 73.616 0.594 7.59 3.22 6.49
8/20/2022 2:45:00 PM 23.13 73.634 0.597 7.62 3.13 6.48
8/20/2022 3:00:00 PM 23.15 73.67 0.608 7.59 2.51 6.12
8/20/2022 3:15:00 PM 23.11 73.598 0.609 7.58 2.33 6.14
8/20/2022 3:30:00 PM 23.09 73.562 0.606 7.61 2.69 6.15
8/20/2022 3:45:00 PM 23.12 73.616 0.609 7.58 2.49 6.26
8/20/2022 4:00:00 PM 23.03 73.454 0.614 7.55 2.09 5.92
8/20/2022 4:15:00 PM 22.95 73.31 0.615 7.58 3.81 6.05
8/20/2022 4:30:00 PM 22.88 73.184 0.617 7.48 2.07 5.85
8/20/2022 4:45:00 PM 22.8 73.04 0.615 7.47 1.92 5.84
8/20/2022 5:00:00 PM 22.72 72.896 0.618 7.48 2.02 5.79
8/20/2022 5:15:00 PM 22.68 72.824 0.619 7.42 2.36 5.76
8/20/2022 5:30:00 PM 22.61 72.698 0.619 7.43 2.08 5.85
8/20/2022 5:45:00 PM 22.54 72.57201 0.62 7.39 2.1 5.73
8/20/2022 6:00:00 PM 22.43 72.374 0.62 7.4 2.15 5.64
8/20/2022 6:15:00 PM 22.33 72.194 0.62 7.37 2.11 5.6
8/20/2022 6:30:00 PM 22.24 72.032 0.62 7.36 2.08 5.48
8/20/2022 6:45:00 PM 22.15 71.87 0.621 7.36 2.08 5.28
8/20/2022 7:00:00 PM 22.05 71.69 0.621 7.3 3.51 5.05
8/20/2022 7:15:00 PM 21.97 71.546 0.622 7.3 2.44 5.04
8/20/2022 7:30:00 PM 21.92 71.456 0.622 7.29 2.76 4.88
8/20/2022 7:45:00 PM 21.85 71.33 0.622 7.26 2.67 4.76
8/20/2022 8:00:00 PM 21.79 71.222 0.623 7.26 2.96 4.54
8/20/2022 8:15:00 PM 21.74 71.132 0.623 7.25 2.67 4.41
8/20/2022 8:30:00 PM 21.67 71.006 0.623 7.26 3.13 4.24
8/20/2022 8:45:00 PM 21.65 70.97 0.623 7.26 2.95 4.25
8/20/2022 9:00:00 PM 21.62 70.916 0.623 7.24 2.94 4.17
8/20/2022 9:15:00 PM 21.6 70.88 0.624 7.26 3.49 4.09
8/20/2022 9:30:00 PM 21.54 70.772 0.624 7.25 3.46 3.84
8/20/2022 9:45:00 PM 21.48 70.664 0.624 7.25 4.59 3.78
8/20/2022 10:00:00 PM 21.41 70.538 0.624 7.23 4.44 3.76
8/20/2022 10:15:00 PM 21.36 70.448 0.624 7.24 4.53 3.65
8/20/2022 10:30:00 PM 21.3 70.34 0.623 7.28 4.37 3.74
8/20/2022 10:45:00 PM 21.26 70.268 0.623 7.27 3.78 3.75
8/20/2022 11:00:00 PM 21.24 70.232 0.623 7.31 3.89 3.72
8/20/2022 11:15:00 PM 21.24 70.232 0.623 7.33 3.2 3.78
8/20/2022 11:30:00 PM 21.24 70.232 0.622 7.32 3.24 3.84
8/20/2022 11:45:00 PM 21.24 70.232 0.622 7.36 2.8 3.92
8/21/2022 12:00:00 AM 21.24 70.232 0.622 7.35 2.41 3.87
8/21/2022 12:15:00 AM 21.22 70.196 0.621 7.34 2.53 3.78
8/21/2022 12:30:00 AM 21.23 70.214 0.621 7.34 3.13 3.78
8/21/2022 12:45:00 AM 21.22 70.196 0.621 7.35 3.12 3.71
8/21/2022 1:00:00 AM 21.22 70.196 0.62 7.36 3.04 3.66
8/21/2022 1:15:00 AM 21.25 70.25 0.62 7.37 3.03 3.74
8/21/2022 1:30:00 AM 21.22 70.196 0.62 7.35 2.97 3.64
8/21/2022 1:45:00 AM 21.23 70.214 0.62 7.37 3.14 3.68
8/21/2022 2:00:00 AM 21.24 70.232 0.619 7.36 2.32 3.58
8/21/2022 2:15:00 AM 21.25 70.25 0.62 7.37 2.84 3.5
8/21/2022 2:30:00 AM 21.23 70.214 0.62 7.34 2.86 3.49
8/21/2022 2:45:00 AM 21.21 70.17799 0.621 7.35 2.98 3.29
8/21/2022 3:00:00 AM 21.24 70.232 0.62 7.36 2.78 3.37
8/21/2022 3:15:00 AM 21.25 70.25 0.62 7.36 2.67 3.32
8/21/2022 3:30:00 AM 21.25 70.25 0.62 7.34 3.04 3.17
8/21/2022 3:45:00 AM 21.2 70.16 0.621 7.31 2.85 3.03
8/21/2022 4:00:00 AM 21.19 70.142 0.621 7.29 3.16 2.97
8/21/2022 4:30:00 AM 21.22 70.196 0.621 7.29 2.37 2.84
8/21/2022 4:45:00 AM 21.22 70.196 0.621 7.28 2.48 2.82
8/21/2022 5:00:00 AM 21.25 70.25 0.621 7.27 2.46 2.87
8/21/2022 5:15:00 AM 21.27 70.286 0.622 7.24 2.17 2.77
8/21/2022 5:30:00 AM 21.31 70.358 0.622 7.29 2.65 2.78
8/21/2022 5:45:00 AM 21.31 70.358 0.622 7.25 2.92 2.66
8/21/2022 6:00:00 AM 21.32 70.376 0.622 7.24 2.75 2.64
8/21/2022 6:15:00 AM 21.33 70.394 0.623 7.27 2.88 2.52
8/21/2022 6:30:00 AM 21.36 70.448 0.623 7.23 2.55 2.44
8/21/2022 6:45:00 AM 21.39 70.502 0.623 7.26 2.82 2.44
8/21/2022 7:00:00 AM 21.35 70.43 0.623 7.25 2.84 2.49
8/21/2022 7:15:00 AM 21.37 70.466 0.622 7.25 2.57 2.42
8/21/2022 7:30:00 AM 21.37 70.466 0.623 7.23 2.6 2.35
8/21/2022 7:45:00 AM 21.36 70.448 0.615 7.22 2.42 2.25
8/21/2022 8:00:00 AM 21.37 70.466 0.624 7.17 2.86 2.3
8/21/2022 8:15:00 AM 21.39 70.502 0.623 7.2 3.23 2.17
8/21/2022 8:30:00 AM 21.41 70.538 0.623 7.17 2.56 2.26
8/21/2022 8:45:00 AM 21.42 70.556 0.62 7.19 2.93 2.29
8/21/2022 9:00:00 AM 21.44 70.592 0.617 7.23 3.4 2.34
8/21/2022 9:15:00 AM 21.48 70.664 0.615 7.21 3.45 2.67
8/21/2022 9:30:00 AM 21.63 70.934 0.618 7.23 3.78 2.95
8/21/2022 9:45:00 AM 21.67 71.006 0.608 7.28 3.98 3.25
8/21/2022 10:00:00 AM 21.67 71.006 0.603 7.3 4.48 3.66
8/21/2022 10:15:00 AM 21.73 71.114 0.599 7.32 4.77 3.98
8/21/2022 10:30:00 AM 21.86 71.348 0.596 7.33 4.88 4.24
8/21/2022 10:45:00 AM 22.21 71.978 0.604 7.34 4.26 4.63
8/21/2022 11:00:00 AM 22.34 72.212 0.591 7.38 4.85 5.12
8/21/2022 11:15:00 AM 22.37 72.266 0.588 7.4 5.27 5.05
8/21/2022 11:30:00 AM 22.47 72.446 0.586 7.42 5.62 5.42
8/21/2022 11:45:00 AM 22.6 72.68 0.588 7.41 4.06 5.45
8/21/2022 12:00:00 PM 22.67 72.806 0.586 7.43 6.96 5.76
8/21/2022 12:15:00 PM 22.96 73.328 0.587 7.43 4.35 6.15
8/21/2022 12:30:00 PM 22.98 73.364 0.585 7.45 4.11 6.2
8/21/2022 12:45:00 PM 23.07 73.526 0.584 7.43 4.01 6.05
8/21/2022 1:00:00 PM 23.15 73.67 0.589 7.48 3.89 5.75
8/21/2022 1:15:00 PM 23.15 73.67 0.592 7.52 3.8 5.52
8/21/2022 1:30:00 PM 23.28 73.904 0.594 7.53 3.48 5.78
8/21/2022 1:45:00 PM 23.34 74.012 0.596 7.53 3.69 5.85
8/21/2022 2:00:00 PM 23.33 73.994 0.595 7.54 3.55 5.83
8/21/2022 2:15:00 PM 23.36 74.048 0.6 7.54 3.45 5.93
8/21/2022 2:30:00 PM 23.32 73.976 0.606 7.52 3.11 5.78
8/21/2022 2:45:00 PM 23.22 73.796 0.605 7.51 3.08 5.85
8/21/2022 3:00:00 PM 23.11 73.598 0.612 7.44 3.05 5.54
8/21/2022 3:15:00 PM 22.98 73.364 0.62 7.4 2.13 5.04
8/21/2022 3:30:00 PM 22.85 73.13 0.62 7.37 2.49 4.99
8/21/2022 3:45:00 PM 22.71 72.878 0.619 7.31 2.73 5
8/21/2022 4:00:00 PM 22.73 72.914 0.619 7.31 7.87 5.08
8/21/2022 4:15:00 PM 22.77 72.986 0.619 7.34 2.85 5.21
8/21/2022 4:30:00 PM 22.86 73.148 0.62 7.37 2.81 5.28
8/21/2022 4:45:00 PM 22.93 73.274 0.62 7.39 2.67 4.92
8/21/2022 5:00:00 PM 22.97 73.346 0.62 7.4 2.68 5.33
8/21/2022 5:15:00 PM 22.97 73.346 0.618 7.41 4.51 5.61
8/21/2022 5:30:00 PM 22.92 73.256 0.625 7.38 3.02 5.56
8/21/2022 5:45:00 PM 22.91 73.238 0.626 7.35 2.21 5.55
8/21/2022 6:00:00 PM 22.83 73.094 0.625 7.33 3.07 6.09
8/21/2022 6:15:00 PM 22.72 72.896 0.627 7.37 1.89 5.25
8/21/2022 6:30:00 PM 22.59 72.662 0.627 7.37 2.12 5.15
8/21/2022 6:45:00 PM 22.5 72.5 0.627 7.33 2.64 5.17
8/21/2022 7:00:00 PM 22.39 72.302 0.627 7.3 2.63 5.2
8/21/2022 7:15:00 PM 22.29 72.122 0.627 7.29 2.74 5.04
8/21/2022 7:30:00 PM 22.2 71.96 0.627 7.29 2.71 4.93
8/21/2022 7:45:00 PM 22.14 71.852 0.628 7.29 2.78 4.76
8/21/2022 8:00:00 PM 22.05 71.69 0.627 7.27 3.08 4.61
8/21/2022 8:15:00 PM 22.02 71.636 0.628 7.28 3.24 4.42
8/21/2022 8:30:00 PM 21.98 71.564 0.627 7.29 3.57 4.4
8/21/2022 8:45:00 PM 21.96 71.528 0.627 7.29 4.26 4.33
8/21/2022 9:00:00 PM 21.94 71.492 0.627 7.29 4.63 4.21
8/21/2022 9:15:00 PM 21.91 71.438 0.627 7.27 4.43 4.14
8/21/2022 9:30:00 PM 21.87 71.366 0.626 7.29 4.09 3.98
8/21/2022 9:45:00 PM 21.84 71.312 0.627 7.31 4.38 3.89
8/21/2022 10:00:00 PM 21.82 71.276 0.626 7.3 3.9 3.81
8/21/2022 10:15:00 PM 21.82 71.276 0.625 7.31 3.42 3.71
8/21/2022 10:30:00 PM 21.8 71.24 0.625 7.3 3.24 3.69
8/21/2022 10:45:00 PM 21.76 71.168 0.625 7.31 3.08 3.64
8/21/2022 11:00:00 PM 21.76 71.168 0.625 7.3 3.79 3.54
8/21/2022 11:15:00 PM 21.76 71.168 0.626 7.31 3.91 3.52
8/21/2022 11:30:00 PM 21.76 71.168 0.624 7.3 3.4 3.54
8/21/2022 11:45:00 PM 21.76 71.168 0.624 7.31 3.19 3.52
8/22/2022 12:00:00 AM 21.75 71.15 0.623 7.3 2.75 3.49
8/22/2022 12:15:00 AM 21.79 71.222 0.624 7.31 3.17 3.31
8/22/2022 12:30:00 AM 21.77 71.186 0.624 7.27 3.19 3.29
8/22/2022 12:45:00 AM 21.75 71.15 0.623 7.3 2.73 3.32
8/22/2022 1:00:00 AM 21.74 71.132 0.624 7.27 3.1 3.21
8/22/2022 1:15:00 AM 21.75 71.15 0.623 7.27 3.16 3.24
8/22/2022 1:30:00 AM 21.75 71.15 0.623 7.29 3.91 3.14
8/22/2022 1:45:00 AM 21.76 71.168 0.623 7.3 2.81 3.1
8/22/2022 2:00:00 AM 21.76 71.168 0.622 7.3 3.06 3.19
8/22/2022 2:15:00 AM 21.76 71.168 0.622 7.3 3.27 3.12
8/22/2022 2:30:00 AM 21.76 71.168 0.622 7.31 3.22 3.05
8/22/2022 2:45:00 AM 21.73 71.114 0.623 7.25 3.17 2.95
8/22/2022 3:00:00 AM 21.71 71.078 0.623 7.26 2.91 2.92
8/22/2022 3:15:00 AM 21.72 71.096 0.623 7.27 3.02 2.92
8/22/2022 3:30:00 AM 21.68 71.024 0.624 7.24 3.06 2.75
8/22/2022 3:45:00 AM 21.68 71.024 0.624 7.24 2.63 2.68
8/22/2022 4:00:00 AM 21.68 71.024 0.624 7.25 3.13 2.66
8/22/2022 4:15:00 AM 21.66 70.988 0.624 7.24 3.23 2.6
8/22/2022 4:30:00 AM 21.68 71.024 0.624 7.26 2.72 2.64
8/22/2022 4:45:00 AM 21.65 70.97 0.624 7.24 2.8 2.63
8/22/2022 5:00:00 AM 21.66 70.988 0.622 7.27 3.17 2.65
8/22/2022 5:15:00 AM 21.64 70.952 0.622 7.25 3.4 2.65
8/22/2022 5:30:00 AM 21.63 70.934 0.622 7.25 3.29 2.53
8/22/2022 5:45:00 AM 21.67 71.006 0.621 7.27 3.31 2.59
8/22/2022 6:00:00 AM 21.64 70.952 0.623 7.23 2.92 2.35
8/22/2022 6:15:00 AM 21.65 70.97 0.623 7.26 2.84 2.4
8/22/2022 6:30:00 AM 21.66 70.988 0.624 7.23 2.31 2.37
8/22/2022 6:45:00 AM 21.63 70.934 0.625 7.23 2.97 2.3
8/22/2022 7:00:00 AM 21.65 70.97 0.625 7.23 2.79 2.19
8/22/2022 7:15:00 AM 21.63 70.934 0.626 7.23 2.86 2.13
8/22/2022 7:30:00 AM 21.65 70.97 0.627 7.21 2.66 2.14
8/22/2022 7:45:00 AM 21.67 71.006 0.627 7.22 2.67 2.1
8/22/2022 8:00:00 AM 21.69 71.042 0.627 7.21 2.76 2.28
8/22/2022 8:15:00 AM 21.74 71.132 0.626 7.22 2.53 2.49
8/22/2022 8:30:00 AM 21.8 71.24 0.626 7.23 2.57 2.82
8/22/2022 8:45:00 AM 21.89 71.402 0.626 7.25 3.13 3.5
8/22/2022 9:00:00 AM 21.96 71.528 0.625 7.26 3.04 3.96
8/22/2022 9:15:00 AM 22.06 71.708 0.625 7.27 2.69 4.34
8/22/2022 9:30:00 AM 22.15 71.87 0.625 7.26 2.4 4.8
8/22/2022 9:45:00 AM 22.21 71.978 0.625 7.29 2.54 4.89
8/22/2022 10:00:00 AM 22.35 72.23 0.624 7.29 2.7 4.84
8/22/2022 10:15:00 AM 22.46 72.42799 0.624 7.32 2.7 4.96
8/22/2022 10:30:00 AM 22.61 72.698 0.623 7.31 2.64 5.04
8/22/2022 10:45:00 AM 22.5 72.5 0.597 7.41 4.81 5.78
8/22/2022 11:00:00 AM 22.56 72.608 0.6 7.39 3.81 5.33
8/22/2022 11:15:00 AM 22.65 72.77 0.595 7.46 3.78 5.42
8/22/2022 11:30:00 AM 22.76 72.968 0.601 7.43 3.51 5.22
8/22/2022 11:45:00 AM 22.76 72.968 0.592 7.45 3.96 5.58
8/22/2022 12:00:00 PM 22.84 73.112 0.59 7.47 4.78 5.97
8/22/2022 12:15:00 PM 22.84 73.112 0.591 7.49 5.25 5.71
8/22/2022 12:30:00 PM 22.96 73.328 0.595 7.51 3.54 5.69
8/22/2022 12:45:00 PM 23.04 73.472 0.598 7.53 3.57 5.73
8/22/2022 1:00:00 PM 23.09 73.562 0.602 7.51 3.17 5.61
8/22/2022 1:15:00 PM 23.17 73.706 0.604 7.52 4.46 5.71
8/22/2022 1:30:00 PM 23.25 73.85 0.606 7.53 2.86 5.84
8/22/2022 1:45:00 PM 23.2 73.76 0.608 7.56 2.72 5.73
8/22/2022 2:00:00 PM 23.21 73.778 0.607 7.55 3.04 5.9
8/22/2022 2:15:00 PM 23.19 73.742 0.609 7.55 2.84 5.84
8/22/2022 2:30:00 PM 23.21 73.778 0.61 7.56 3.54 5.81
8/22/2022 2:45:00 PM 23.2 73.76 0.612 7.56 4.93 5.81
8/22/2022 3:00:00 PM 23.18 73.724 0.617 7.55 3.11 5.68
8/22/2022 3:15:00 PM 23.17 73.706 0.624 7.44 2.19 5.67
8/22/2022 3:30:00 PM 23.17 73.706 0.624 7.41 2.37 5.77
8/22/2022 3:45:00 PM 23.19 73.742 0.625 7.41 2.53 5.76
8/22/2022 4:00:00 PM 23.2 73.76 0.624 7.46 2.68 6.05
8/22/2022 4:15:00 PM 23.17 73.706 0.622 7.56 2.53 6.01
8/22/2022 4:30:00 PM 23.18 73.724 0.622 7.56 3.18 6.2
8/22/2022 4:45:00 PM 23.13 73.634 0.625 7.53 2.61 6.06
8/22/2022 5:00:00 PM 23.11 73.598 0.626 7.52 2.56 6.14
8/22/2022 5:15:00 PM 23.06 73.508 0.628 7.34 2.42 6.45
8/22/2022 5:30:00 PM 22.99 73.382 0.629 7.37 4.02 6.05
8/22/2022 5:45:00 PM 22.94 73.292 0.629 7.36 2.79 6.03
8/22/2022 6:00:00 PM 22.81 73.058 0.629 7.44 10.63 5.63
8/22/2022 6:15:00 PM 22.7 72.86 0.629 7.43 2.34 5.45
8/22/2022 6:30:00 PM 22.58 72.644 0.629 7.33 2.5 5.53
8/22/2022 6:45:00 PM 22.45 72.41 0.63 7.33 3.16 5.35
8/22/2022 7:00:00 PM 22.31 72.158 0.631 7.31 2.87 5.02
8/22/2022 7:15:00 PM 22.23 72.014 0.631 7.29 2.81 4.82
8/22/2022 7:30:00 PM 22.14 71.852 0.631 7.25 2.91 4.69
8/22/2022 7:45:00 PM 22.1 71.78 0.631 7.28 2.81 4.6
8/22/2022 8:00:00 PM 22.09 71.762 0.631 7.28 3.66 4.52
8/22/2022 8:15:00 PM 22.06 71.708 0.631 7.28 3.37 4.48
8/22/2022 8:30:00 PM 22.02 71.636 0.631 7.29 4.04 4.34
8/22/2022 8:45:00 PM 21.98 71.564 0.631 7.3 3.63 4.22
8/22/2022 9:00:00 PM 21.98 71.564 0.631 7.29 4.21 4.24
8/22/2022 9:15:00 PM 21.98 71.564 0.609 7.45 2.63 5.29
8/22/2022 9:30:00 PM 21.48 70.664 0.575 7.46 6.47 5.87
8/22/2022 9:45:00 PM 21.26 70.268 0.508 7.4 16.57 6.12
8/22/2022 10:00:00 PM 21.38 70.484 0.534 7.4 10.56 5.79
8/22/2022 10:15:00 PM 22.05 71.69 0.553 7.64 8.56 6.88
8/22/2022 10:30:00 PM 22.71 72.878 0.556 8.08 7.3 7.64
8/22/2022 10:45:00 PM 22.89 73.202 0.555 8.15 5.73 7.6
8/22/2022 11:00:00 PM 22.9 73.22 0.556 8.19 5.3 7.65
8/22/2022 11:15:00 PM 22.76 72.968 0.548 8.12 10.48 7.54
8/22/2022 11:30:00 PM 22.61 72.698 0.541 8.08 17.17 7.47
8/22/2022 11:45:00 PM 22.41 72.338 0.53 8.02 21.26 7.35
8/23/2022 12:00:00 AM 22.24 72.032 0.526 7.99 15.8 7.31
8/23/2022 12:15:00 AM 22.12 71.816 0.534 7.98 14.15 7.31
8/23/2022 12:30:00 AM 22.07 71.726 0.554 7.98 14.36 7.3
8/23/2022 12:45:00 AM 22.04 71.672 0.571 7.97 12.66 7.26
8/23/2022 1:00:00 AM 21.97 71.546 0.574 7.94 11.49 7.24
8/23/2022 1:15:00 AM 21.85 71.33 0.573 7.94 10.45 7.27
8/23/2022 1:30:00 AM 21.73 71.114 0.573 7.93 9.59 7.31
8/23/2022 1:45:00 AM 21.66 70.988 0.581 7.95 8.37 7.35
8/23/2022 2:00:00 AM 21.63 70.934 0.591 7.95 7.25 7.39
8/23/2022 2:15:00 AM 21.59 70.862 0.601 7.99 6.79 7.42
8/23/2022 2:30:00 AM 21.56 70.808 0.606 8 6.47 7.42
8/23/2022 2:45:00 AM 21.53 70.754 0.609 7.99 6.53 7.42
8/23/2022 3:00:00 AM 21.5 70.7 0.609 8 6.23 7.42
8/23/2022 3:15:00 AM 21.45 70.61 0.608 7.99 6.57 7.43
8/23/2022 3:30:00 AM 21.42 70.556 0.608 7.98 7.24 7.39
8/23/2022 3:45:00 AM 21.39 70.502 0.609 7.97 6.07 7.4
8/23/2022 4:00:00 AM 21.37 70.466 0.61 7.98 6.01 7.38
8/23/2022 4:15:00 AM 21.34 70.412 0.612 7.96 6.23 7.37
8/23/2022 4:30:00 AM 21.31 70.358 0.613 7.95 6.41 7.36
8/23/2022 4:45:00 AM 21.27 70.286 0.615 7.94 6.52 7.35
8/23/2022 5:00:00 AM 21.23 70.214 0.617 7.95 6.08 7.34
8/23/2022 5:15:00 AM 21.19 70.142 0.619 7.95 5.95 7.32
8/23/2022 5:30:00 AM 21.06 69.908 0.622 7.97 13.19 7.43
8/23/2022 5:45:00 AM 21.05 69.89 0.629 7.97 22.71 7.47
8/23/2022 6:00:00 AM 21.2 70.16 0.632 8.03 24.25 7.71
8/23/2022 6:15:00 AM 21.22 70.196 0.624 8.04 22.12 7.81
8/23/2022 6:30:00 AM 21.11 69.998 0.599 8.03 22.35 7.84
8/23/2022 6:45:00 AM 20.96 69.728 0.564 8.01 23.17 7.86
8/23/2022 7:00:00 AM 20.8 69.44 0.535 7.99 21.77 7.9
8/23/2022 7:15:00 AM 20.67 69.206 0.526 8 21.03 7.96
8/23/2022 7:30:00 AM 20.6 69.08 0.532 8 20.23 8.04
8/23/2022 7:45:00 AM 20.59 69.062 0.543 8.05 21.26 8.13
8/23/2022 8:00:00 AM 20.64 69.152 0.553 8.05 25.42 8.2
8/23/2022 8:15:00 AM 20.71 69.278 0.561 8.08 32.7 8.25
8/23/2022 8:30:00 AM 20.8 69.44 0.567 8.1 45.46 8.3
8/23/2022 8:45:00 AM 20.86 69.548 0.571 8.12 54.36 8.31
8/23/2022 9:00:00 AM 20.98 69.764 0.572 8.13 75.88 8.32
8/23/2022 9:15:00 AM 21.07 69.926 0.57 8.13 92.65 8.31
8/23/2022 9:30:00 AM 21.22 70.196 0.565 8.14 108.97 8.3
8/23/2022 9:45:00 AM 21.43 70.574 0.558 8.12 135.8 8.3
8/23/2022 10:00:00 AM 21.56 70.808 0.548 8.14 137.86 8.29
8/23/2022 10:15:00 AM 21.78 71.204 0.537 8.14 157.52 8.29
8/23/2022 10:30:00 AM 21.83 71.294 0.526 8.14 161.97 8.28
8/23/2022 10:45:00 AM 21.87 71.366 0.517 8.13 169.26 8.26
8/23/2022 11:00:00 AM 21.93 71.474 0.507 8.14 167.24 8.24
8/23/2022 11:15:00 AM 21.91 71.438 0.498 8.13 166.65 8.23
8/23/2022 11:30:00 AM 22.13 71.834 0.489 8.11 170.02 8.23
8/23/2022 11:45:00 AM 22.45 72.41 0.482 8.12 174.94 8.29
8/23/2022 12:00:00 PM 22.72 72.896 0.476 8.16 165.64 8.34
8/23/2022 12:15:00 PM 22.84 73.112 0.472 8.18 158.48 8.35
8/23/2022 12:30:00 PM 22.93 73.274 0.469 8.16 167.73 8.36
8/23/2022 12:45:00 PM 22.91 73.238 0.467 8.17 160.54 8.34
8/23/2022 1:00:00 PM 23.07 73.526 0.466 8.21 151.94 8.33
8/23/2022 1:15:00 PM 23.36 74.048 0.465 8.18 140.94 8.35
8/23/2022 1:30:00 PM 23.48 74.264 0.465 8.21 129 8.41
8/23/2022 1:45:00 PM 23.74 74.732 0.465 8.25 128.38 8.48
8/23/2022 2:00:00 PM 23.88 74.984 0.466 8.23 112.27 8.49
8/23/2022 2:15:00 PM 24.02 75.236 0.466 8.25 105.75 8.53
8/23/2022 2:30:00 PM 24.19 75.542 0.465 8.3 102.09 8.55
8/23/2022 2:45:00 PM 24.32 75.776 0.464 8.32 88.36 8.56
8/23/2022 3:00:00 PM 24.54 76.172 0.463 8.33 93.97 8.53
8/23/2022 3:15:00 PM 24.47 76.046 0.462 8.32 82.77 8.45
8/23/2022 3:30:00 PM 24.41 75.938 0.46 8.31 77.2 8.39
8/23/2022 3:45:00 PM 24.44 75.992 0.459 8.32 71.73 8.34
8/23/2022 4:00:00 PM 24.45 76.01 0.458 8.27 72.89 8.3
8/23/2022 4:15:00 PM 24.28 75.704 0.457 8.31 66.3 8.33
8/23/2022 4:30:00 PM 24.4 75.92 0.456 8.29 63.25 8.39
8/23/2022 4:45:00 PM 24.43 75.974 0.456 8.32 56.72 8.38
8/23/2022 5:00:00 PM 24.42 75.956 0.456 8.33 59.02 8.39
8/23/2022 5:15:00 PM 24.62 76.316 0.455 8.31 55.11 8.44
8/23/2022 5:30:00 PM 24.66 76.388 0.456 8.32 51.25 8.41
8/23/2022 5:45:00 PM 24.7 76.46 0.456 8.32 50.57 8.42
8/23/2022 6:00:00 PM 24.77 76.586 0.456 8.37 47 8.45
8/23/2022 6:15:00 PM 24.71 76.478 0.457 8.35 46.57 8.38
8/23/2022 6:30:00 PM 24.58 76.244 0.457 8.34 45.67 8.29
8/23/2022 6:45:00 PM 24.44 75.992 0.458 8.32 39.37 8.21
8/23/2022 7:00:00 PM 24.29 75.722 0.459 8.29 53.3 8.06
8/23/2022 7:15:00 PM 24.14 75.452 0.46 8.22 38.9 7.94
8/23/2022 7:30:00 PM 24.03 75.254 0.461 8.22 35.1 7.84
8/23/2022 7:45:00 PM 23.91 75.038 0.462 8.2 35.24 7.75
8/23/2022 8:00:00 PM 23.79 74.82201 0.462 8.18 34.19 7.69
8/23/2022 8:15:00 PM 23.68 74.624 0.463 8.16 33.64 7.63
8/23/2022 8:30:00 PM 23.57 74.426 0.464 8.11 32.77 7.56
8/23/2022 8:45:00 PM 23.45 74.21 0.464 8.09 31.84 7.49
8/23/2022 9:00:00 PM 23.33 73.994 0.465 8.05 30.47 7.45
8/23/2022 9:15:00 PM 23.22 73.796 0.466 8.06 29.24 7.44
8/23/2022 9:30:00 PM 23.11 73.598 0.466 8.06 30.27 7.41
8/23/2022 9:45:00 PM 23.01 73.418 0.466 8.01 29.25 7.41
8/23/2022 10:00:00 PM 22.9 73.22 0.467 8.02 27.15 7.39
8/23/2022 10:15:00 PM 22.81 73.058 0.467 8.01 26.56 7.4
8/23/2022 10:30:00 PM 22.72 72.896 0.468 7.98 25.45 7.39
8/23/2022 10:45:00 PM 22.61 72.698 0.468 7.98 26.24 7.39
8/23/2022 11:00:00 PM 22.52 72.536 0.469 8.01 23.83 7.4
8/23/2022 11:15:00 PM 22.42 72.356 0.469 7.97 23.29 7.41
8/23/2022 11:30:00 PM 22.34 72.212 0.47 8 22.51 7.41
8/23/2022 11:45:00 PM 22.25 72.05 0.47 7.99 21.86 7.41
8/24/2022 12:00:00 AM 22.17 71.906 0.47 7.98 21.6 7.42
8/24/2022 12:15:00 AM 22.09 71.762 0.471 7.95 21.47 7.42
8/24/2022 12:30:00 AM 22 71.6 0.471 7.97 21.36 7.42
8/24/2022 12:45:00 AM 21.9 71.42 0.472 7.94 21.32 7.45
8/24/2022 1:00:00 AM 21.81 71.258 0.472 7.95 20.46 7.44
8/24/2022 1:15:00 AM 21.72 71.096 0.473 7.94 19.97 7.46
8/24/2022 1:30:00 AM 21.63 70.934 0.473 7.95 20.29 7.47
8/24/2022 1:45:00 AM 21.54 70.772 0.473 7.96 18.92 7.49
8/24/2022 2:00:00 AM 21.46 70.628 0.474 7.96 19.43 7.49
8/24/2022 2:15:00 AM 21.37 70.466 0.474 7.95 17.98 7.49
8/24/2022 2:30:00 AM 21.27 70.286 0.475 7.93 17.07 7.52
8/24/2022 2:45:00 AM 21.19 70.142 0.475 7.93 17.55 7.52
8/24/2022 3:00:00 AM 21.1 69.98 0.475 7.93 18.18 7.54
8/24/2022 3:15:00 AM 21.02 69.836 0.476 7.94 17.03 7.54
8/24/2022 3:30:00 AM 20.94 69.692 0.476 7.95 16.31 7.57
8/24/2022 3:45:00 AM 20.85 69.53 0.477 7.94 15.97 7.57
8/24/2022 4:00:00 AM 20.78 69.404 0.477 7.94 15.54 7.58
8/24/2022 4:15:00 AM 20.7 69.26 0.477 7.94 14.94 7.58
8/24/2022 4:30:00 AM 20.62 69.116 0.478 7.92 15.61 7.59
8/24/2022 4:45:00 AM 20.54 68.972 0.478 7.94 15.5 7.61
8/24/2022 5:00:00 AM 20.46 68.828 0.479 7.94 14.14 7.62
8/24/2022 5:15:00 AM 20.38 68.684 0.479 7.93 13.7 7.63
8/24/2022 5:30:00 AM 20.3 68.54 0.48 7.92 13.56 7.66
8/24/2022 5:45:00 AM 20.22 68.396 0.48 7.94 13.19 7.66
8/24/2022 6:00:00 AM 20.14 68.252 0.481 7.94 13.57 7.67
8/24/2022 6:15:00 AM 20.07 68.126 0.481 7.94 12.42 7.67
8/24/2022 6:30:00 AM 20 68 0.481 7.94 12.46 7.67
8/24/2022 6:45:00 AM 19.92 67.856 0.482 7.93 13.43 7.72
8/24/2022 7:00:00 AM 19.86 67.748 0.482 7.95 13.01 7.75
8/24/2022 7:15:00 AM 19.8 67.64 0.482 7.93 12.49 7.8
8/24/2022 7:30:00 AM 19.77 67.586 0.483 7.93 12.22 7.86
8/24/2022 7:45:00 AM 19.76 67.568 0.483 7.96 11.89 7.93
8/24/2022 8:00:00 AM 19.75 67.55 0.483 7.96 11.92 8.04
8/24/2022 8:15:00 AM 19.78 67.604 0.484 7.99 10.95 8.16
8/24/2022 8:30:00 AM 19.83 67.694 0.484 8.01 10.25 8.26
8/24/2022 8:45:00 AM 19.92 67.856 0.484 8.03 11.28 8.39
8/24/2022 9:00:00 AM 20 68 0.484 8.04 9.7 8.5
8/24/2022 9:15:00 AM 20.15 68.27 0.484 8.06 9.74 8.64
8/24/2022 9:30:00 AM 20.32 68.576 0.484 8.1 10.37 8.85
8/24/2022 9:45:00 AM 20.49 68.882 0.484 8.15 10.35 9
8/24/2022 10:00:00 AM 20.6 69.08 0.484 8.16 12.43 9.08
8/24/2022 10:15:00 AM 20.81 69.458 0.484 8.21 9.78 9.18
8/24/2022 10:30:00 AM 21.14 70.052 0.484 8.23 8.95 9.35
8/24/2022 10:45:00 AM 21.42 70.556 0.484 8.28 9.31 9.42
8/24/2022 11:00:00 AM 21.67 71.006 0.484 8.3 8.42 9.5
8/24/2022 11:15:00 AM 22.12 71.816 0.484 8.31 8.66 9.64
8/24/2022 11:30:00 AM 22.5 72.5 0.484 8.37 8 9.75
8/24/2022 11:45:00 AM 22.9 73.22 0.483 8.38 8.75 9.8
8/24/2022 12:00:00 PM 23.2 73.76 0.483 8.44 7.75 9.86
8/24/2022 12:15:00 PM 23.37 74.066 0.482 8.46 6.82 9.87
8/24/2022 12:30:00 PM 23.6 74.48 0.482 8.49 7.54 9.91
8/24/2022 12:45:00 PM 24.14 75.452 0.481 8.5 7.74 10.1
8/24/2022 1:00:00 PM 24.38 75.884 0.481 8.53 6.88 10.03
8/24/2022 1:15:00 PM 24.83 76.694 0.481 8.56 7.29 10.02
8/24/2022 1:30:00 PM 25.12 77.216 0.481 8.59 6.6 10.08
8/24/2022 1:45:00 PM 25.45 77.81 0.481 8.59 6.88 10.04
8/24/2022 2:00:00 PM 25.86 78.548 0.481 8.61 6.54 10.1
8/24/2022 2:15:00 PM 26.19 79.142 0.48 8.6 6.61 10.14
8/24/2022 2:30:00 PM 26.52 79.736 0.48 8.65 7.37 10.09
8/24/2022 2:45:00 PM 26.96 80.528 0.479 8.67 6.36 10.19
8/24/2022 3:00:00 PM 27.26 81.068 0.479 8.66 7.16 10.29
8/24/2022 3:15:00 PM 27.39 81.302 0.478 8.7 6.97 10.18
8/24/2022 3:30:00 PM 27.41 81.338 0.479 8.69 6.62 10.01
8/24/2022 3:45:00 PM 27.48 81.464 0.478 8.72 5.53 9.99
8/24/2022 4:00:00 PM 27.5 81.5 0.479 8.69 5.67 9.83
8/24/2022 4:15:00 PM 27.49 81.482 0.479 8.69 5.99 9.79
8/24/2022 4:30:00 PM 27.43 81.374 0.479 8.7 5.6 9.72
8/24/2022 4:45:00 PM 27.33 81.194 0.479 8.69 5.43 9.52
8/24/2022 5:00:00 PM 27.22 80.996 0.479 8.68 5.71 9.47
8/24/2022 5:15:00 PM 27.05 80.69 0.48 8.67 5.88 9.34
8/24/2022 5:30:00 PM 26.93 80.474 0.48 8.64 5.69 9.25
8/24/2022 5:45:00 PM 26.8 80.24 0.481 8.65 5.69 9.22
8/24/2022 6:00:00 PM 26.7 80.06 0.481 8.63 5.59 9.23
8/24/2022 6:15:00 PM 26.6 79.88 0.481 8.62 5.87 9.16
8/24/2022 6:30:00 PM 26.49 79.682 0.482 8.64 5.57 9.13
8/24/2022 6:45:00 PM 26.34 79.412 0.482 8.62 5.62 9.07
8/24/2022 7:00:00 PM 26.18 79.124 0.483 8.59 5.1 8.93
8/24/2022 7:15:00 PM 25.98 78.764 0.483 8.6 5.11 8.84
8/24/2022 7:30:00 PM 25.76 78.368 0.484 8.56 14.07 8.72
8/24/2022 7:45:00 PM 25.52 77.936 0.485 8.54 5.29 8.61
8/24/2022 8:00:00 PM 25.23 77.414 0.487 8.48 5.77 8.41
8/24/2022 8:15:00 PM 24.95 76.91 0.489 8.46 5.2 8.2
8/24/2022 8:30:00 PM 24.71 76.478 0.49 8.39 4.94 8
8/24/2022 8:45:00 PM 24.49 76.082 0.492 8.34 5.22 7.81
8/24/2022 9:00:00 PM 24.26 75.668 0.493 8.25 5.13 7.62
8/24/2022 9:15:00 PM 24.02 75.236 0.494 8.25 5.22 7.51
8/24/2022 9:30:00 PM 23.81 74.858 0.495 8.19 4.61 7.41
8/24/2022 9:45:00 PM 23.59 74.462 0.496 8.13 5.16 7.34
8/24/2022 10:00:00 PM 23.38 74.084 0.497 8.13 4.87 7.27
8/24/2022 10:15:00 PM 23.19 73.742 0.498 8.1 5.12 7.23
8/24/2022 10:30:00 PM 23.02 73.436 0.499 8.07 4.43 7.19
8/24/2022 10:45:00 PM 22.85 73.13 0.499 8.05 4.91 7.14
8/24/2022 11:00:00 PM 22.69 72.842 0.5 8.05 4.81 7.12
8/24/2022 11:15:00 PM 22.51 72.518 0.5 8.03 4.58 7.14
8/24/2022 11:30:00 PM 22.35 72.23 0.501 7.98 4.88 7.13
8/24/2022 11:45:00 PM 22.2 71.96 0.501 8 4.52 7.13
8/25/2022 12:00:00 AM 22.05 71.69 0.502 7.99 4.4 7.14
8/25/2022 12:15:00 AM 21.92 71.456 0.502 7.99 4.26 7.14
8/25/2022 12:30:00 AM 21.77 71.186 0.503 7.97 4.44 7.16
8/25/2022 12:45:00 AM 21.63 70.934 0.503 7.97 4.73 7.15
8/25/2022 1:00:00 AM 21.52 70.736 0.504 7.96 4.78 7.15
8/25/2022 1:15:00 AM 21.41 70.538 0.504 7.94 5.01 7.14
8/25/2022 1:30:00 AM 21.29 70.32201 0.505 7.92 4.48 7.16
8/25/2022 1:45:00 AM 21.17 70.106 0.505 7.94 4.1 7.17
8/25/2022 2:00:00 AM 21.05 69.89 0.506 7.93 4.47 7.22
8/25/2022 2:15:00 AM 20.92 69.656 0.506 7.93 4.97 7.24
8/25/2022 2:30:00 AM 20.83 69.494 0.506 7.93 4.6 7.2
8/25/2022 2:45:00 AM 20.72 69.296 0.507 7.9 4.87 7.23
8/25/2022 3:00:00 AM 20.61 69.098 0.507 7.9 4.34 7.23
8/25/2022 3:15:00 AM 20.52 68.936 0.508 7.91 6.94 7.22
8/25/2022 3:30:00 AM 20.39 68.702 0.508 7.91 4.37 7.25
8/25/2022 3:45:00 AM 20.29 68.522 0.509 7.91 4.19 7.27
8/25/2022 4:00:00 AM 20.18 68.324 0.509 7.9 4.33 7.3
8/25/2022 4:15:00 AM 20.08 68.144 0.51 7.91 4.04 7.28
8/25/2022 4:30:00 AM 19.98 67.964 0.51 7.88 4.21 7.34
8/25/2022 4:45:00 AM 19.87 67.766 0.51 7.9 4.38 7.34
8/25/2022 5:00:00 AM 19.78 67.604 0.511 7.89 4.33 7.36
8/25/2022 5:15:00 AM 19.72 67.496 0.512 7.89 4.18 7.34
8/25/2022 5:30:00 AM 19.62 67.316 0.512 7.88 4.25 7.37
8/25/2022 5:45:00 AM 19.55 67.19 0.512 7.89 4.01 7.37
8/25/2022 6:00:00 AM 19.49 67.082 0.513 7.89 3.93 7.38
8/25/2022 6:15:00 AM 19.42 66.956 0.514 7.89 4.51 7.38
8/25/2022 6:30:00 AM 19.36 66.848 0.514 7.89 4.18 7.39
8/25/2022 6:45:00 AM 19.29 66.722 0.514 7.89 4.23 7.43
8/25/2022 7:00:00 AM 19.26 66.668 0.515 7.88 3.97 7.44
8/25/2022 7:15:00 AM 19.21 66.578 0.515 7.9 4.07 7.54
8/25/2022 7:30:00 AM 19.19 66.542 0.516 7.91 4.25 7.62
8/25/2022 7:45:00 AM 19.15 66.47 0.516 7.91 3.92 7.74
8/25/2022 8:00:00 AM 19.16 66.488 0.516 7.94 4.25 7.84
8/25/2022 8:15:00 AM 19.18 66.524 0.516 7.94 4.07 7.92
8/25/2022 8:30:00 AM 19.19 66.542 0.517 7.96 3.76 8.07
8/25/2022 8:45:00 AM 19.26 66.668 0.517 7.96 3.9 8.26
8/25/2022 9:00:00 AM 19.3 66.74 0.517 8 3.66 8.38
8/25/2022 9:15:00 AM 19.34 66.812 0.517 8 3.94 8.49
8/25/2022 9:30:00 AM 19.48 67.064 0.517 8.04 3.81 8.68
8/25/2022 9:45:00 AM 19.68 67.424 0.517 8.07 3.66 8.93
8/25/2022 10:00:00 AM 19.89 67.802 0.517 8.09 3.75 9.07
8/25/2022 10:15:00 AM 20.08 68.144 0.516 8.14 3.88 9.09
8/25/2022 10:30:00 AM 20.4 68.72 0.516 8.18 3.82 9.46
8/25/2022 10:45:00 AM 20.68 69.224 0.516 8.2 3.77 9.59
8/25/2022 11:00:00 AM 20.96 69.728 0.516 8.22 3.86 9.64
8/25/2022 11:15:00 AM 21.39 70.502 0.515 8.28 3.58